Time,TemperatureF,DewpointF,PressureIn,WindDirection,WindDirectionDegrees,WindSpeedMPH,WindSpeedGustMPH,Humidity,HourlyPrecipIn,Conditions,Clouds,dailyrainin,SoftwareType,DateUTC
2013-04-05 00:00:00,39.7,35.6,30.00,NE,42,5.4,5.4,85,0.16,,---,0.83,VWS V14.01,2013-04-05 04:00:00,
2013-04-05 00:01:00,39.7,35.6,30.00,NE,39,3.6,3.6,85,0.16,,---,0.00,VWS V14.01,2013-04-05 04:01:00,
2013-04-05 00:02:00,39.7,35.6,30.00,NNE,20,6.3,6.3,85,0.16,,---,0.00,VWS V14.01,2013-04-05 04:02:00,
2013-04-05 00:03:00,39.7,35.9,30.00,North,8,6.3,6.3,86,0.16,,---,0.00,VWS V14.01,2013-04-05 04:03:00,
2013-04-05 00:04:00,39.7,35.9,30.00,ENE,72,7.6,7.6,86,0.16,,---,0.00,VWS V14.01,2013-04-05 04:04:00,
2013-04-05 00:05:00,39.7,35.9,30.00,NNE,30,4.9,4.9,86,0.12,,---,0.00,VWS V14.01,2013-04-05 04:05:00,
2013-04-05 00:06:00,39.7,35.9,30.00,North,357,5.8,5.8,86,0.12,,---,0.00,VWS V14.01,2013-04-05 04:06:00,
2013-04-05 00:07:00,39.7,35.9,30.00,NNE,24,14.5,14.5,86,0.12,,---,0.00,VWS V14.01,2013-04-05 04:07:00,
2013-04-05 00:08:00,39.9,36.1,30.00,NE,38,7.6,7.6,86,0.12,,---,0.00,VWS V14.01,2013-04-05 04:08:00,
2013-04-05 00:09:00,39.7,35.9,30.00,North,353,3.6,3.6,86,0.12,,---,0.00,VWS V14.01,2013-04-05 04:09:00,
2013-04-05 00:10:00,39.7,35.9,30.00,NNE,12,4.9,4.9,86,0.16,,---,0.04,VWS V14.01,2013-04-05 04:10:00,
2013-04-05 00:11:00,39.7,35.9,30.00,East,96,2.7,2.7,86,0.16,,---,0.04,VWS V14.01,2013-04-05 04:11:00,
2013-04-05 00:12:00,39.9,36.1,30.00,NNE,23,8.3,8.3,86,0.16,,---,0.04,VWS V14.01,2013-04-05 04:12:00,
2013-04-05 00:13:00,39.9,36.1,30.00,East,87,8.3,8.3,86,0.16,,---,0.04,VWS V14.01,2013-04-05 04:13:00,
2013-04-05 00:14:00,39.9,36.1,30.00,North,353,3.6,3.6,86,0.16,,---,0.04,VWS V14.01,2013-04-05 04:14:00,
2013-04-05 00:15:00,39.9,36.1,30.00,NNE,15,8.1,8.1,86,0.12,,---,0.04,VWS V14.01,2013-04-05 04:15:00,
2013-04-05 00:16:00,39.9,36.4,30.00,North,357,4.0,4.0,87,0.12,,---,0.04,VWS V14.01,2013-04-05 04:16:00,
2013-04-05 00:17:00,39.9,36.4,30.00,NE,35,3.6,3.6,87,0.12,,---,0.04,VWS V14.01,2013-04-05 04:17:00,
2013-04-05 00:18:00,39.9,36.4,30.00,NNW,337,7.6,7.6,87,0.12,,---,0.04,VWS V14.01,2013-04-05 04:18:00,
2013-04-05 00:19:00,39.9,36.4,30.00,North,353,5.8,5.8,87,0.12,,---,0.04,VWS V14.01,2013-04-05 04:19:00,
2013-04-05 00:20:00,39.9,36.4,30.00,NNW,332,7.6,7.6,87,0.12,,---,0.04,VWS V14.01,2013-04-05 04:20:00,
2013-04-05 00:21:00,39.9,36.4,30.00,North,0,6.3,6.3,87,0.12,,---,0.04,VWS V14.01,2013-04-05 04:21:00,
2013-04-05 00:22:00,39.9,36.4,30.00,North,7,3.6,3.6,87,0.12,,---,0.04,VWS V14.01,2013-04-05 04:22:00,
2013-04-05 00:23:00,39.9,36.4,30.00,North,3,3.6,3.6,87,0.12,,---,0.04,VWS V14.01,2013-04-05 04:23:00,
2013-04-05 00:24:00,39.9,36.4,30.00,NNE,28,8.1,8.1,87,0.12,,---,0.04,VWS V14.01,2013-04-05 04:24:00,
2013-04-05 00:25:00,39.9,36.4,30.00,NNE,20,2.7,2.7,87,0.16,,---,0.08,VWS V14.01,2013-04-05 04:25:00,
2013-04-05 00:26:00,39.9,36.4,30.00,NNE,21,8.7,8.7,87,0.16,,---,0.08,VWS V14.01,2013-04-05 04:26:00,
2013-04-05 00:27:00,39.9,36.4,30.00,North,4,5.8,5.8,87,0.16,,---,0.08,VWS V14.01,2013-04-05 04:27:00,
2013-04-05 00:28:00,39.9,36.4,30.00,NW,322,7.6,7.6,87,0.16,,---,0.08,VWS V14.01,2013-04-05 04:28:00,
2013-04-05 00:29:00,39.9,36.4,30.00,NNW,341,8.3,8.3,87,0.16,,---,0.08,VWS V14.01,2013-04-05 04:29:00,
2013-04-05 00:30:00,39.9,36.4,30.00,NW,325,8.1,8.1,87,0.16,,---,0.08,VWS V14.01,2013-04-05 04:30:00,
2013-04-05 00:31:00,39.9,36.4,30.00,NNE,21,5.4,5.4,87,0.16,,---,0.08,VWS V14.01,2013-04-05 04:31:00,
2013-04-05 00:32:00,39.9,36.4,30.00,NNW,340,8.1,8.1,87,0.12,,---,0.08,VWS V14.01,2013-04-05 04:32:00,
2013-04-05 00:33:00,39.9,36.4,30.00,North,8,5.8,5.8,87,0.12,,---,0.08,VWS V14.01,2013-04-05 04:33:00,
2013-04-05 00:34:00,39.9,36.4,30.00,North,11,4.5,4.5,87,0.12,,---,0.08,VWS V14.01,2013-04-05 04:34:00,
2013-04-05 00:35:00,39.9,36.4,30.00,NNE,13,3.1,3.1,87,0.12,,---,0.08,VWS V14.01,2013-04-05 04:35:00,
2013-04-05 00:36:00,39.9,36.4,30.00,North,353,4.0,4.0,87,0.12,,---,0.08,VWS V14.01,2013-04-05 04:36:00,
2013-04-05 00:37:00,39.7,36.2,30.00,NNW,342,8.1,8.1,87,0.12,,---,0.08,VWS V14.01,2013-04-05 04:37:00,
2013-04-05 00:38:00,39.7,36.2,30.00,NNE,28,5.4,5.4,87,0.12,,---,0.08,VWS V14.01,2013-04-05 04:38:00,
2013-04-05 00:39:00,39.7,36.2,30.00,NNW,330,5.4,5.4,87,0.12,,---,0.08,VWS V14.01,2013-04-05 04:39:00,
2013-04-05 00:40:00,39.7,36.2,30.00,NNE,13,4.0,4.0,87,0.12,,---,0.08,VWS V14.01,2013-04-05 04:40:00,
2013-04-05 00:41:00,39.7,36.2,30.00,North,5,2.7,2.7,87,0.16,,---,0.12,VWS V14.01,2013-04-05 04:41:00,
2013-04-05 00:42:00,39.7,36.2,30.00,North,0,4.0,4.0,87,0.16,,---,0.12,VWS V14.01,2013-04-05 04:42:00,
2013-04-05 00:43:00,39.7,36.2,30.00,NE,47,8.7,8.7,87,0.16,,---,0.12,VWS V14.01,2013-04-05 04:43:00,
2013-04-05 00:44:00,39.7,36.2,30.00,NNE,24,10.1,10.1,87,0.16,,---,0.12,VWS V14.01,2013-04-05 04:44:00,
2013-04-05 00:45:00,39.7,36.2,30.00,NE,51,4.9,4.9,87,0.12,,---,0.12,VWS V14.01,2013-04-05 04:45:00,
2013-04-05 00:46:00,39.7,36.2,30.00,NNE,23,6.3,6.3,87,0.12,,---,0.12,VWS V14.01,2013-04-05 04:46:00,
2013-04-05 00:47:00,39.9,36.4,30.00,NNE,30,5.4,5.4,87,0.12,,---,0.12,VWS V14.01,2013-04-05 04:47:00,
2013-04-05 00:48:00,39.7,36.2,30.00,NNE,16,8.7,8.7,87,0.12,,---,0.12,VWS V14.01,2013-04-05 04:48:00,
2013-04-05 00:49:00,39.9,36.4,30.00,North,10,2.7,2.7,87,0.12,,---,0.12,VWS V14.01,2013-04-05 04:49:00,
2013-04-05 00:50:00,39.9,36.4,30.00,NNW,343,4.0,4.0,87,0.12,,---,0.12,VWS V14.01,2013-04-05 04:50:00,
2013-04-05 00:51:00,39.9,36.4,30.00,NNW,348,6.3,6.3,87,0.12,,---,0.12,VWS V14.01,2013-04-05 04:51:00,
2013-04-05 00:52:00,39.9,36.4,30.00,NNE,22,5.4,5.4,87,0.12,,---,0.12,VWS V14.01,2013-04-05 04:52:00,
2013-04-05 00:53:00,39.9,36.4,30.00,NE,38,6.3,6.3,87,0.12,,---,0.12,VWS V14.01,2013-04-05 04:53:00,
2013-04-05 00:54:00,39.9,36.4,30.00,NNW,335,8.3,8.3,87,0.12,,---,0.12,VWS V14.01,2013-04-05 04:54:00,
2013-04-05 00:55:00,39.9,36.4,30.00,NNW,331,5.4,5.4,87,0.12,,---,0.12,VWS V14.01,2013-04-05 04:55:00,
2013-04-05 00:56:00,39.9,36.4,30.00,NNE,28,5.8,5.8,87,0.12,,---,0.12,VWS V14.01,2013-04-05 04:56:00,
2013-04-05 00:57:00,39.9,36.4,30.00,NNE,18,5.4,5.4,87,0.12,,---,0.12,VWS V14.01,2013-04-05 04:57:00,
2013-04-05 00:58:00,39.9,36.4,30.00,NE,34,5.8,5.8,87,0.12,,---,0.12,VWS V14.01,2013-04-05 04:58:00,
2013-04-05 00:59:00,39.9,36.4,30.00,East,92,8.3,8.3,87,0.12,,---,0.12,VWS V14.01,2013-04-05 04:59:00,
2013-04-05 01:00:00,39.9,36.4,30.00,NE,50,5.4,5.4,87,0.12,,---,0.12,VWS V14.01,2013-04-05 05:00:00,
2013-04-05 01:01:00,39.9,36.4,30.00,NNE,19,6.3,6.3,87,0.12,,---,0.12,VWS V14.01,2013-04-05 05:01:00,
2013-04-05 01:02:00,40.1,36.5,30.00,NNE,31,4.0,4.0,87,0.12,,---,0.12,VWS V14.01,2013-04-05 05:02:00,
2013-04-05 01:03:00,40.1,36.5,30.00,North,2,3.1,3.1,87,0.12,,---,0.12,VWS V14.01,2013-04-05 05:03:00,
2013-04-05 01:04:00,40.1,36.5,30.00,NE,36,5.4,5.4,87,0.12,,---,0.12,VWS V14.01,2013-04-05 05:04:00,
2013-04-05 01:05:00,40.1,36.5,30.00,NNE,25,4.9,4.9,87,0.12,,---,0.12,VWS V14.01,2013-04-05 05:05:00,
2013-04-05 01:06:00,40.1,36.5,30.00,North,11,3.6,3.6,87,0.12,,---,0.12,VWS V14.01,2013-04-05 05:06:00,
2013-04-05 01:07:00,40.1,36.5,30.00,NE,56,4.0,4.0,87,0.12,,---,0.12,VWS V14.01,2013-04-05 05:07:00,
2013-04-05 01:08:00,40.1,36.5,30.00,NNE,32,3.6,3.6,87,0.12,,---,0.12,VWS V14.01,2013-04-05 05:08:00,
2013-04-05 01:09:00,40.1,36.5,30.00,North,0,5.4,5.4,87,0.12,,---,0.12,VWS V14.01,2013-04-05 05:09:00,
2013-04-05 01:10:00,40.1,36.5,30.00,NE,49,6.3,6.3,87,0.12,,---,0.12,VWS V14.01,2013-04-05 05:10:00,
2013-04-05 01:11:00,40.3,36.7,30.00,NE,49,4.9,4.9,87,0.08,,---,0.12,VWS V14.01,2013-04-05 05:11:00,
2013-04-05 01:12:00,40.1,36.5,30.00,North,357,8.3,8.3,87,0.08,,---,0.12,VWS V14.01,2013-04-05 05:12:00,
2013-04-05 01:13:00,40.3,36.7,29.97,NNE,23,12.8,12.8,87,0.08,,---,0.12,VWS V14.01,2013-04-05 05:13:00,
2013-04-05 01:14:00,40.3,36.7,29.97,NE,49,5.4,5.4,87,0.08,,---,0.12,VWS V14.01,2013-04-05 05:14:00,
2013-04-05 01:15:00,40.3,36.7,29.97,NNE,21,5.4,5.4,87,0.08,,---,0.12,VWS V14.01,2013-04-05 05:15:00,
2013-04-05 01:16:00,40.3,36.7,29.97,NNE,29,7.6,7.6,87,0.08,,---,0.12,VWS V14.01,2013-04-05 05:16:00,
2013-04-05 01:17:00,40.3,36.7,29.97,North,1,7.2,7.2,87,0.08,,---,0.12,VWS V14.01,2013-04-05 05:17:00,
2013-04-05 01:18:00,40.3,36.7,29.97,ESE,106,4.0,4.0,87,0.08,,---,0.12,VWS V14.01,2013-04-05 05:18:00,
2013-04-05 01:19:00,40.3,37.0,29.97,North,3,5.8,5.8,88,0.08,,---,0.12,VWS V14.01,2013-04-05 05:19:00,
2013-04-05 01:20:00,40.3,36.7,29.97,NNE,25,6.3,6.3,87,0.08,,---,0.12,VWS V14.01,2013-04-05 05:20:00,
2013-04-05 01:21:00,40.3,37.0,29.97,North,3,3.6,3.6,88,0.08,,---,0.12,VWS V14.01,2013-04-05 05:21:00,
2013-04-05 01:22:00,40.3,37.0,29.97,NNE,29,4.9,4.9,88,0.08,,---,0.12,VWS V14.01,2013-04-05 05:22:00,
2013-04-05 01:23:00,40.3,37.0,29.97,NNE,19,4.0,4.0,88,0.08,,---,0.12,VWS V14.01,2013-04-05 05:23:00,
2013-04-05 01:24:00,40.3,37.0,29.97,NE,36,4.9,4.9,88,0.08,,---,0.12,VWS V14.01,2013-04-05 05:24:00,
2013-04-05 01:25:00,40.3,37.0,29.97,NE,41,5.4,5.4,88,0.08,,---,0.12,VWS V14.01,2013-04-05 05:25:00,
2013-04-05 01:26:00,40.3,37.0,29.97,NNE,19,6.3,6.3,88,0.04,,---,0.12,VWS V14.01,2013-04-05 05:26:00,
2013-04-05 01:27:00,40.3,37.0,29.97,NNE,23,8.3,8.3,88,0.04,,---,0.12,VWS V14.01,2013-04-05 05:27:00,
2013-04-05 01:28:00,40.3,37.0,29.97,NNE,29,3.6,3.6,88,0.04,,---,0.12,VWS V14.01,2013-04-05 05:28:00,
2013-04-05 01:29:00,40.3,37.0,29.97,NNE,22,7.2,7.2,88,0.04,,---,0.12,VWS V14.01,2013-04-05 05:29:00,
2013-04-05 01:30:00,40.3,37.0,29.97,North,353,5.8,5.8,88,0.04,,---,0.12,VWS V14.01,2013-04-05 05:30:00,
2013-04-05 01:31:00,40.3,37.0,29.97,North,357,4.0,4.0,88,0.04,,---,0.12,VWS V14.01,2013-04-05 05:31:00,
2013-04-05 01:32:00,40.3,37.0,29.97,North,357,4.0,4.0,88,0.04,,---,0.12,VWS V14.01,2013-04-05 05:32:00,
2013-04-05 01:33:00,40.3,37.0,29.97,NNE,12,5.4,5.4,88,0.04,,---,0.12,VWS V14.01,2013-04-05 05:33:00,
2013-04-05 01:34:00,40.3,37.0,29.97,NE,34,4.9,4.9,88,0.04,,---,0.12,VWS V14.01,2013-04-05 05:34:00,
2013-04-05 01:35:00,40.3,37.0,29.97,NNE,29,8.1,8.1,88,0.04,,---,0.12,VWS V14.01,2013-04-05 05:35:00,
2013-04-05 01:36:00,40.3,37.0,29.97,NE,36,3.1,3.1,88,0.08,,---,0.16,VWS V14.01,2013-04-05 05:36:00,
2013-04-05 01:37:00,40.3,37.0,29.97,NNE,22,5.4,5.4,88,0.08,,---,0.16,VWS V14.01,2013-04-05 05:37:00,
2013-04-05 01:38:00,40.3,37.0,29.97,ENE,59,4.0,4.0,88,0.08,,---,0.16,VWS V14.01,2013-04-05 05:38:00,
2013-04-05 01:39:00,40.3,37.0,29.97,NE,45,6.3,6.3,88,0.08,,---,0.16,VWS V14.01,2013-04-05 05:39:00,
2013-04-05 01:40:00,40.3,37.0,29.97,NNE,23,5.4,5.4,88,0.08,,---,0.16,VWS V14.01,2013-04-05 05:40:00,
2013-04-05 01:41:00,40.3,37.0,29.97,NE,38,8.1,8.1,88,0.04,,---,0.16,VWS V14.01,2013-04-05 05:41:00,
2013-04-05 01:42:00,40.3,37.0,29.97,NE,38,8.1,8.1,88,0.04,,---,0.16,VWS V14.01,2013-04-05 05:42:00,
2013-04-05 01:43:00,40.3,37.0,29.94,NNE,30,10.5,10.5,88,0.04,,---,0.16,VWS V14.01,2013-04-05 05:43:00,
2013-04-05 01:44:00,40.3,37.0,29.94,NNE,20,6.3,6.3,88,0.04,,---,0.16,VWS V14.01,2013-04-05 05:44:00,
2013-04-05 01:45:00,40.3,37.0,29.94,NNE,13,9.6,9.6,88,0.04,,---,0.16,VWS V14.01,2013-04-05 05:45:00,
2013-04-05 01:46:00,40.3,37.0,29.94,NNE,31,11.0,11.0,88,0.04,,---,0.16,VWS V14.01,2013-04-05 05:46:00,
2013-04-05 01:47:00,40.3,37.0,29.94,NNE,31,11.0,11.0,88,0.04,,---,0.16,VWS V14.01,2013-04-05 05:47:00,
2013-04-05 01:48:00,40.1,36.8,29.94,North,3,5.4,5.4,88,0.04,,---,0.16,VWS V14.01,2013-04-05 05:48:00,
2013-04-05 01:49:00,40.1,36.8,29.94,NE,35,8.7,8.7,88,0.04,,---,0.16,VWS V14.01,2013-04-05 05:49:00,
2013-04-05 01:50:00,40.1,36.8,29.94,NNW,330,10.5,10.5,88,0.04,,---,0.16,VWS V14.01,2013-04-05 05:50:00,
2013-04-05 01:51:00,40.1,36.8,29.94,NNE,22,8.1,8.1,88,0.04,,---,0.16,VWS V14.01,2013-04-05 05:51:00,
2013-04-05 01:52:00,40.1,36.8,29.94,ENE,59,10.5,10.5,88,0.04,,---,0.16,VWS V14.01,2013-04-05 05:52:00,
2013-04-05 01:53:00,39.9,36.7,29.94,NE,52,7.2,7.2,88,0.04,,---,0.16,VWS V14.01,2013-04-05 05:53:00,
2013-04-05 01:54:00,39.9,36.7,29.94,NNE,31,5.8,5.8,88,0.04,,---,0.16,VWS V14.01,2013-04-05 05:54:00,
2013-04-05 01:55:00,39.9,36.4,29.94,North,357,8.1,8.1,87,0.04,,---,0.16,VWS V14.01,2013-04-05 05:55:00,
2013-04-05 01:56:00,39.9,36.4,29.94,NNE,33,8.7,8.7,87,0.04,,---,0.16,VWS V14.01,2013-04-05 05:56:00,
2013-04-05 01:57:00,39.9,36.4,29.94,NNE,18,6.3,6.3,87,0.04,,---,0.16,VWS V14.01,2013-04-05 05:57:00,
2013-04-05 01:58:00,39.9,36.4,29.94,NNE,16,3.6,3.6,87,0.04,,---,0.16,VWS V14.01,2013-04-05 05:58:00,
2013-04-05 01:59:00,39.9,36.4,29.94,NNE,23,4.0,4.0,87,0.04,,---,0.16,VWS V14.01,2013-04-05 05:59:00,
2013-04-05 02:00:00,39.9,36.4,29.94,NNE,14,7.6,7.6,87,0.04,,---,0.16,VWS V14.01,2013-04-05 06:00:00,
2013-04-05 02:01:00,39.7,36.2,29.94,NNE,26,7.2,7.2,87,0.04,,---,0.16,VWS V14.01,2013-04-05 06:01:00,
2013-04-05 02:02:00,39.7,36.2,29.94,NNE,18,3.6,3.6,87,0.04,,---,0.16,VWS V14.01,2013-04-05 06:02:00,
2013-04-05 02:03:00,39.7,36.2,29.94,NE,45,5.8,5.8,87,0.04,,---,0.16,VWS V14.01,2013-04-05 06:03:00,
2013-04-05 02:04:00,39.7,36.2,29.94,NE,41,4.0,4.0,87,0.04,,---,0.16,VWS V14.01,2013-04-05 06:04:00,
2013-04-05 02:05:00,39.7,36.2,29.94,North,4,4.0,4.0,87,0.04,,---,0.16,VWS V14.01,2013-04-05 06:05:00,
2013-04-05 02:06:00,39.7,36.2,29.94,NNE,18,4.0,4.0,87,0.04,,---,0.16,VWS V14.01,2013-04-05 06:06:00,
2013-04-05 02:07:00,39.7,36.2,29.94,NNE,29,5.8,5.8,87,0.04,,---,0.16,VWS V14.01,2013-04-05 06:07:00,
2013-04-05 02:08:00,39.7,36.2,29.94,North,3,4.9,4.9,87,0.04,,---,0.16,VWS V14.01,2013-04-05 06:08:00,
2013-04-05 02:09:00,39.7,36.2,29.94,NNW,340,3.6,3.6,87,0.04,,---,0.16,VWS V14.01,2013-04-05 06:09:00,
2013-04-05 02:10:00,39.7,36.2,29.94,North,353,3.6,3.6,87,0.04,,---,0.16,VWS V14.01,2013-04-05 06:10:00,
2013-04-05 02:11:00,39.7,36.2,29.94,North,0,7.6,7.6,87,0.04,,---,0.16,VWS V14.01,2013-04-05 06:11:00,
2013-04-05 02:12:00,39.7,36.5,29.94,NNE,33,6.3,6.3,88,0.04,,---,0.16,VWS V14.01,2013-04-05 06:12:00,
2013-04-05 02:13:00,39.7,36.5,29.94,NE,40,8.1,8.1,88,0.04,,---,0.16,VWS V14.01,2013-04-05 06:13:00,
2013-04-05 02:14:00,39.7,36.5,29.94,NNE,19,7.6,7.6,88,0.04,,---,0.16,VWS V14.01,2013-04-05 06:14:00,
2013-04-05 02:15:00,39.7,36.5,29.94,North,4,4.9,4.9,88,0.04,,---,0.16,VWS V14.01,2013-04-05 06:15:00,
2013-04-05 02:16:00,39.7,36.5,29.94,NNE,19,5.4,5.4,88,0.04,,---,0.16,VWS V14.01,2013-04-05 06:16:00,
2013-04-05 02:17:00,39.7,36.5,29.94,NNW,336,5.8,5.8,88,0.04,,---,0.16,VWS V14.01,2013-04-05 06:17:00,
2013-04-05 02:18:00,39.7,36.5,29.94,NNE,23,6.3,6.3,88,0.04,,---,0.16,VWS V14.01,2013-04-05 06:18:00,
2013-04-05 02:19:00,39.7,36.5,29.94,NNW,345,5.4,5.4,88,0.04,,---,0.16,VWS V14.01,2013-04-05 06:19:00,
2013-04-05 02:20:00,39.7,36.5,29.94,North,4,7.6,7.6,88,0.04,,---,0.16,VWS V14.01,2013-04-05 06:20:00,
2013-04-05 02:21:00,39.7,36.5,29.94,North,357,4.9,4.9,88,0.04,,---,0.16,VWS V14.01,2013-04-05 06:21:00,
2013-04-05 02:22:00,39.7,36.5,29.94,NNW,333,5.4,5.4,88,0.04,,---,0.16,VWS V14.01,2013-04-05 06:22:00,
2013-04-05 02:23:00,39.7,36.5,29.94,North,0,5.8,5.8,88,0.04,,---,0.16,VWS V14.01,2013-04-05 06:23:00,
2013-04-05 02:24:00,39.7,36.5,29.94,North,350,3.1,3.1,88,0.04,,---,0.16,VWS V14.01,2013-04-05 06:24:00,
2013-04-05 02:25:00,39.7,36.5,29.94,NNE,27,5.8,5.8,88,0.04,,---,0.16,VWS V14.01,2013-04-05 06:25:00,
2013-04-05 02:26:00,39.7,36.5,29.94,NNW,344,6.3,6.3,88,0.04,,---,0.16,VWS V14.01,2013-04-05 06:26:00,
2013-04-05 02:27:00,39.7,36.5,29.94,NNE,32,4.0,4.0,88,0.04,,---,0.16,VWS V14.01,2013-04-05 06:27:00,
2013-04-05 02:28:00,39.7,36.5,29.94,North,353,3.1,3.1,88,0.04,,---,0.16,VWS V14.01,2013-04-05 06:28:00,
2013-04-05 02:29:00,39.7,36.5,29.94,NNE,12,3.1,3.1,88,0.04,,---,0.16,VWS V14.01,2013-04-05 06:29:00,
2013-04-05 02:30:00,39.7,36.5,29.94,NNW,345,3.1,3.1,88,0.04,,---,0.16,VWS V14.01,2013-04-05 06:30:00,
2013-04-05 02:31:00,39.7,36.5,29.94,North,357,4.0,4.0,88,0.04,,---,0.16,VWS V14.01,2013-04-05 06:31:00,
2013-04-05 02:32:00,39.7,36.5,29.94,NE,39,4.0,4.0,88,0.04,,---,0.16,VWS V14.01,2013-04-05 06:32:00,
2013-04-05 02:33:00,39.7,36.5,29.94,NW,323,5.4,5.4,88,0.04,,---,0.16,VWS V14.01,2013-04-05 06:33:00,
2013-04-05 02:34:00,39.7,36.5,29.94,North,353,5.4,5.4,88,0.04,,---,0.16,VWS V14.01,2013-04-05 06:34:00,
2013-04-05 02:35:00,39.7,36.5,29.94,North,0,4.0,4.0,88,0.04,,---,0.16,VWS V14.01,2013-04-05 06:35:00,
2013-04-05 02:36:00,39.7,36.5,29.94,NE,37,4.0,4.0,88,0.04,,---,0.16,VWS V14.01,2013-04-05 06:36:00,
2013-04-05 02:37:00,39.7,36.5,29.94,North,4,4.0,4.0,88,0.00,,---,0.16,VWS V14.01,2013-04-05 06:37:00,
2013-04-05 02:38:00,39.7,36.5,29.94,NNE,15,4.0,4.0,88,0.00,,---,0.16,VWS V14.01,2013-04-05 06:38:00,
2013-04-05 02:39:00,39.7,36.5,29.94,NNW,340,5.4,5.4,88,0.00,,---,0.16,VWS V14.01,2013-04-05 06:39:00,
2013-04-05 02:40:00,39.7,36.5,29.94,North,357,8.1,8.1,88,0.00,,---,0.16,VWS V14.01,2013-04-05 06:40:00,
2013-04-05 02:41:00,39.7,36.5,29.94,North,353,8.1,8.1,88,0.00,,---,0.16,VWS V14.01,2013-04-05 06:41:00,
2013-04-05 02:42:00,39.7,36.5,29.94,NW,322,5.4,5.4,88,0.00,,---,0.16,VWS V14.01,2013-04-05 06:42:00,
2013-04-05 02:43:00,39.7,36.5,29.94,North,353,5.4,5.4,88,0.00,,---,0.16,VWS V14.01,2013-04-05 06:43:00,
2013-04-05 02:44:00,39.7,36.5,29.94,NW,325,8.3,8.3,88,0.00,,---,0.16,VWS V14.01,2013-04-05 06:44:00,
2013-04-05 02:45:00,39.7,36.5,29.94,NNW,342,7.6,7.6,88,0.00,,---,0.16,VWS V14.01,2013-04-05 06:45:00,
2013-04-05 02:46:00,39.6,36.3,29.94,NNW,333,5.4,5.4,88,0.00,,---,0.16,VWS V14.01,2013-04-05 06:46:00,
2013-04-05 02:47:00,39.6,36.3,29.94,North,353,6.3,6.3,88,0.00,,---,0.16,VWS V14.01,2013-04-05 06:47:00,
2013-04-05 02:48:00,39.6,36.3,29.94,NNE,12,4.0,4.0,88,0.00,,---,0.16,VWS V14.01,2013-04-05 06:48:00,
2013-04-05 02:49:00,39.6,36.3,29.94,NNE,14,5.4,5.4,88,0.00,,---,0.16,VWS V14.01,2013-04-05 06:49:00,
2013-04-05 02:50:00,39.6,36.3,29.94,NNE,14,6.3,6.3,88,0.00,,---,0.16,VWS V14.01,2013-04-05 06:50:00,
2013-04-05 02:51:00,39.6,36.3,29.94,NNE,20,5.4,5.4,88,0.00,,---,0.16,VWS V14.01,2013-04-05 06:51:00,
2013-04-05 02:52:00,39.6,36.3,29.94,North,1,8.1,8.1,88,0.00,,---,0.16,VWS V14.01,2013-04-05 06:52:00,
2013-04-05 02:53:00,39.6,36.3,29.94,NNW,348,5.4,5.4,88,0.00,,---,0.16,VWS V14.01,2013-04-05 06:53:00,
2013-04-05 02:54:00,39.6,36.3,29.94,North,353,8.1,8.1,88,0.00,,---,0.16,VWS V14.01,2013-04-05 06:54:00,
2013-04-05 02:55:00,39.6,36.3,29.94,North,357,6.7,6.7,88,0.00,,---,0.16,VWS V14.01,2013-04-05 06:55:00,
2013-04-05 02:56:00,39.6,36.3,29.94,North,357,4.0,4.0,88,0.00,,---,0.16,VWS V14.01,2013-04-05 06:56:00,
2013-04-05 02:57:00,39.6,36.3,29.94,North,0,6.3,6.3,88,0.00,,---,0.16,VWS V14.01,2013-04-05 06:57:00,
2013-04-05 02:58:00,39.6,36.3,29.94,North,357,5.8,5.8,88,0.00,,---,0.16,VWS V14.01,2013-04-05 06:58:00,
2013-04-05 02:59:00,39.6,36.3,29.94,NNW,343,5.8,5.8,88,0.00,,---,0.16,VWS V14.01,2013-04-05 06:59:00,
2013-04-05 03:00:00,39.6,36.3,29.94,North,353,7.6,7.6,88,0.00,,---,0.16,VWS V14.01,2013-04-05 07:00:00,
2013-04-05 03:01:00,39.6,36.3,29.94,NNW,348,7.6,7.6,88,0.00,,---,0.16,VWS V14.01,2013-04-05 07:01:00,
2013-04-05 03:02:00,39.6,36.3,29.94,NNW,330,9.2,9.2,88,0.00,,---,0.16,VWS V14.01,2013-04-05 07:02:00,
2013-04-05 03:03:00,39.6,36.3,29.94,North,0,4.0,4.0,88,0.00,,---,0.16,VWS V14.01,2013-04-05 07:03:00,
2013-04-05 03:04:00,39.6,36.3,29.94,North,2,5.4,5.4,88,0.00,,---,0.16,VWS V14.01,2013-04-05 07:04:00,
2013-04-05 03:05:00,39.6,36.3,29.94,NNE,21,5.8,5.8,88,0.00,,---,0.16,VWS V14.01,2013-04-05 07:05:00,
2013-04-05 03:06:00,39.6,36.3,29.94,NW,323,5.8,5.8,88,0.00,,---,0.16,VWS V14.01,2013-04-05 07:06:00,
2013-04-05 03:07:00,39.6,36.3,29.94,North,0,6.3,6.3,88,0.00,,---,0.16,VWS V14.01,2013-04-05 07:07:00,
2013-04-05 03:08:00,39.6,36.3,29.94,North,353,8.1,8.1,88,0.00,,---,0.16,VWS V14.01,2013-04-05 07:08:00,
2013-04-05 03:09:00,39.6,36.3,29.94,North,0,6.7,6.7,88,0.00,,---,0.16,VWS V14.01,2013-04-05 07:09:00,
2013-04-05 03:10:00,39.6,36.3,29.94,NNW,345,5.4,5.4,88,0.00,,---,0.16,VWS V14.01,2013-04-05 07:10:00,
2013-04-05 03:11:00,39.6,36.3,29.94,NNW,342,4.9,4.9,88,0.00,,---,0.16,VWS V14.01,2013-04-05 07:11:00,
2013-04-05 03:12:00,39.6,36.3,29.94,NNW,338,5.4,5.4,88,0.00,,---,0.16,VWS V14.01,2013-04-05 07:12:00,
2013-04-05 03:13:00,39.6,36.3,29.94,NNW,340,6.3,6.3,88,0.00,,---,0.16,VWS V14.01,2013-04-05 07:13:00,
2013-04-05 03:14:00,39.6,36.3,29.94,North,353,4.0,4.0,88,0.00,,---,0.16,VWS V14.01,2013-04-05 07:14:00,
2013-04-05 03:15:00,39.6,36.3,29.94,NNW,338,5.4,5.4,88,0.00,,---,0.16,VWS V14.01,2013-04-05 07:15:00,
2013-04-05 03:16:00,39.6,36.3,29.94,North,353,5.8,5.8,88,0.00,,---,0.16,VWS V14.01,2013-04-05 07:16:00,
2013-04-05 03:17:00,39.6,36.3,29.94,NNW,339,8.1,8.1,88,0.00,,---,0.16,VWS V14.01,2013-04-05 07:17:00,
2013-04-05 03:18:00,39.6,36.3,29.94,North,353,7.2,7.2,88,0.00,,---,0.16,VWS V14.01,2013-04-05 07:18:00,
2013-04-05 03:19:00,39.6,36.3,29.94,NNW,341,8.1,8.1,88,0.00,,---,0.16,VWS V14.01,2013-04-05 07:19:00,
2013-04-05 03:20:00,39.6,36.3,29.94,NW,317,5.8,5.8,88,0.00,,---,0.16,VWS V14.01,2013-04-05 07:20:00,
2013-04-05 03:21:00,39.6,36.3,29.94,NNW,348,5.4,5.4,88,0.00,,---,0.16,VWS V14.01,2013-04-05 07:21:00,
2013-04-05 03:22:00,39.6,36.3,29.94,North,357,5.8,5.8,88,0.00,,---,0.16,VWS V14.01,2013-04-05 07:22:00,
2013-04-05 03:23:00,39.6,36.3,29.94,NNW,332,6.3,6.3,88,0.00,,---,0.16,VWS V14.01,2013-04-05 07:23:00,
2013-04-05 03:24:00,39.6,36.3,29.94,NNW,332,7.6,7.6,88,0.00,,---,0.16,VWS V14.01,2013-04-05 07:24:00,
2013-04-05 03:25:00,39.4,36.1,29.94,NNW,333,5.4,5.4,88,0.00,,---,0.16,VWS V14.01,2013-04-05 07:25:00,
2013-04-05 03:26:00,39.4,36.1,29.94,NNW,343,4.0,4.0,88,0.00,,---,0.16,VWS V14.01,2013-04-05 07:26:00,
2013-04-05 03:27:00,39.6,36.3,29.94,NE,38,5.4,5.4,88,0.00,,---,0.16,VWS V14.01,2013-04-05 07:27:00,
2013-04-05 03:28:00,39.6,36.3,29.91,NNE,29,4.9,4.9,88,0.00,,---,0.16,VWS V14.01,2013-04-05 07:28:00,
2013-04-05 03:29:00,39.6,36.3,29.91,NNE,14,7.6,7.6,88,0.00,,---,0.16,VWS V14.01,2013-04-05 07:29:00,
2013-04-05 03:30:00,39.6,36.3,29.91,NNE,26,3.6,3.6,88,0.00,,---,0.16,VWS V14.01,2013-04-05 07:30:00,
2013-04-05 03:31:00,39.6,36.3,29.91,NNW,342,4.0,4.0,88,0.00,,---,0.16,VWS V14.01,2013-04-05 07:31:00,
2013-04-05 03:32:00,39.6,36.3,29.91,North,2,8.1,8.1,88,0.00,,---,0.16,VWS V14.01,2013-04-05 07:32:00,
2013-04-05 03:33:00,39.6,36.3,29.91,NNE,22,4.0,4.0,88,0.00,,---,0.16,VWS V14.01,2013-04-05 07:33:00,
2013-04-05 03:34:00,39.6,36.3,29.91,North,7,8.7,8.7,88,0.00,,---,0.16,VWS V14.01,2013-04-05 07:34:00,
2013-04-05 03:35:00,39.6,36.3,29.91,NNW,341,5.8,5.8,88,0.00,,---,0.16,VWS V14.01,2013-04-05 07:35:00,
2013-04-05 03:36:00,39.6,36.3,29.91,NNW,342,5.8,5.8,88,0.00,,---,0.16,VWS V14.01,2013-04-05 07:36:00,
2013-04-05 03:37:00,39.6,36.3,29.91,NW,318,8.3,8.3,88,0.00,,---,0.16,VWS V14.01,2013-04-05 07:37:00,
2013-04-05 03:38:00,39.6,36.3,29.91,NNW,339,5.4,5.4,88,0.00,,---,0.16,VWS V14.01,2013-04-05 07:38:00,
2013-04-05 03:39:00,39.6,36.3,29.91,NNW,336,6.3,6.3,88,0.00,,---,0.16,VWS V14.01,2013-04-05 07:39:00,
2013-04-05 03:40:00,39.6,36.3,29.91,North,353,6.3,6.3,88,0.00,,---,0.16,VWS V14.01,2013-04-05 07:40:00,
2013-04-05 03:41:00,39.6,36.6,29.91,NNW,338,8.7,8.7,89,0.00,,---,0.16,VWS V14.01,2013-04-05 07:41:00,
2013-04-05 03:42:00,39.6,36.6,29.91,NNW,340,6.3,6.3,89,0.00,,---,0.16,VWS V14.01,2013-04-05 07:42:00,
2013-04-05 03:43:00,39.6,36.6,29.94,NW,326,5.8,5.8,89,0.00,,---,0.16,VWS V14.01,2013-04-05 07:43:00,
2013-04-05 03:44:00,39.6,36.6,29.94,NNW,328,7.6,7.6,89,0.00,,---,0.16,VWS V14.01,2013-04-05 07:44:00,
2013-04-05 03:45:00,39.6,36.6,29.94,NNW,328,6.3,6.3,89,0.00,,---,0.16,VWS V14.01,2013-04-05 07:45:00,
2013-04-05 03:46:00,39.6,36.6,29.94,NNW,340,5.4,5.4,89,0.00,,---,0.16,VWS V14.01,2013-04-05 07:46:00,
2013-04-05 03:47:00,39.6,36.6,29.94,North,353,5.4,5.4,89,0.00,,---,0.16,VWS V14.01,2013-04-05 07:47:00,
2013-04-05 03:48:00,39.4,36.4,29.94,NW,318,5.4,5.4,89,0.00,,---,0.16,VWS V14.01,2013-04-05 07:48:00,
2013-04-05 03:49:00,39.4,36.4,29.94,NNW,344,4.9,4.9,89,0.00,,---,0.16,VWS V14.01,2013-04-05 07:49:00,
2013-04-05 03:50:00,39.4,36.4,29.94,North,353,8.3,8.3,89,0.00,,---,0.16,VWS V14.01,2013-04-05 07:50:00,
2013-04-05 03:51:00,39.4,36.4,29.94,NW,321,7.6,7.6,89,0.00,,---,0.16,VWS V14.01,2013-04-05 07:51:00,
2013-04-05 03:52:00,39.4,36.4,29.94,NNW,344,8.1,8.1,89,0.00,,---,0.16,VWS V14.01,2013-04-05 07:52:00,
2013-04-05 03:53:00,39.4,36.4,29.94,NW,318,8.3,8.3,89,0.00,,---,0.16,VWS V14.01,2013-04-05 07:53:00,
2013-04-05 03:54:00,39.4,36.4,29.94,NNW,330,5.8,5.8,89,0.00,,---,0.16,VWS V14.01,2013-04-05 07:54:00,
2013-04-05 03:55:00,39.4,36.4,29.94,NW,319,6.3,6.3,89,0.00,,---,0.16,VWS V14.01,2013-04-05 07:55:00,
2013-04-05 03:56:00,39.4,36.4,29.94,West,274,5.4,5.4,89,0.00,,---,0.16,VWS V14.01,2013-04-05 07:56:00,
2013-04-05 03:57:00,39.4,36.4,29.94,NW,312,7.6,7.6,89,0.00,,---,0.16,VWS V14.01,2013-04-05 07:57:00,
2013-04-05 03:58:00,39.4,36.4,29.94,NW,316,6.7,6.7,89,0.00,,---,0.16,VWS V14.01,2013-04-05 07:58:00,
2013-04-05 03:59:00,39.6,36.6,29.94,WNW,303,7.6,7.6,89,0.00,,---,0.16,VWS V14.01,2013-04-05 07:59:00,
2013-04-05 04:00:00,39.6,36.6,29.94,NNW,327,8.1,8.1,89,0.00,,---,0.16,VWS V14.01,2013-04-05 08:00:00,
2013-04-05 04:01:00,39.6,36.6,29.94,NW,320,7.6,7.6,89,0.00,,---,0.16,VWS V14.01,2013-04-05 08:01:00,
2013-04-05 04:02:00,39.6,36.6,29.94,NW,325,8.3,8.3,89,0.00,,---,0.16,VWS V14.01,2013-04-05 08:02:00,
2013-04-05 04:03:00,39.6,36.6,29.94,North,0,8.3,8.3,89,0.00,,---,0.16,VWS V14.01,2013-04-05 08:03:00,
2013-04-05 04:04:00,39.6,36.6,29.94,WNW,301,7.6,7.6,89,0.00,,---,0.16,VWS V14.01,2013-04-05 08:04:00,
2013-04-05 04:05:00,39.6,36.6,29.94,NNW,337,7.6,7.6,89,0.00,,---,0.16,VWS V14.01,2013-04-05 08:05:00,
2013-04-05 04:06:00,39.6,36.6,29.94,NNW,331,8.7,8.7,89,0.00,,---,0.16,VWS V14.01,2013-04-05 08:06:00,
2013-04-05 04:07:00,39.6,36.6,29.94,NNW,348,6.3,6.3,89,0.00,,---,0.16,VWS V14.01,2013-04-05 08:07:00,
2013-04-05 04:08:00,39.6,36.6,29.94,NNW,337,8.7,8.7,89,0.00,,---,0.16,VWS V14.01,2013-04-05 08:08:00,
2013-04-05 04:09:00,39.6,36.6,29.94,NNW,335,7.6,7.6,89,0.00,,---,0.16,VWS V14.01,2013-04-05 08:09:00,
2013-04-05 04:10:00,39.6,36.9,29.94,North,0,4.9,4.9,90,0.00,,---,0.16,VWS V14.01,2013-04-05 08:10:00,
2013-04-05 04:11:00,39.6,36.9,29.94,NNW,342,5.8,5.8,90,0.00,,---,0.16,VWS V14.01,2013-04-05 08:11:00,
2013-04-05 04:12:00,39.7,37.0,29.94,NNW,346,8.1,8.1,90,0.00,,---,0.16,VWS V14.01,2013-04-05 08:12:00,
2013-04-05 04:13:00,39.7,37.0,29.94,NNW,332,8.1,8.1,90,0.00,,---,0.16,VWS V14.01,2013-04-05 08:13:00,
2013-04-05 04:14:00,39.7,37.0,29.94,North,0,5.8,5.8,90,0.00,,---,0.16,VWS V14.01,2013-04-05 08:14:00,
2013-04-05 04:15:00,39.7,37.0,29.94,North,350,5.8,5.8,90,0.00,,---,0.16,VWS V14.01,2013-04-05 08:15:00,
2013-04-05 04:16:00,39.7,37.0,29.94,NW,315,8.1,8.1,90,0.00,,---,0.16,VWS V14.01,2013-04-05 08:16:00,
2013-04-05 04:17:00,39.7,37.0,29.94,NNW,340,8.7,8.7,90,0.00,,---,0.16,VWS V14.01,2013-04-05 08:17:00,
2013-04-05 04:18:00,39.7,37.0,29.94,NNW,338,6.3,6.3,90,0.00,,---,0.16,VWS V14.01,2013-04-05 08:18:00,
2013-04-05 04:19:00,39.7,37.0,29.94,NNW,340,5.8,5.8,90,0.00,,---,0.16,VWS V14.01,2013-04-05 08:19:00,
2013-04-05 04:20:00,39.7,37.0,29.94,North,349,6.3,6.3,90,0.00,,---,0.16,VWS V14.01,2013-04-05 08:20:00,
2013-04-05 04:21:00,39.7,37.0,29.94,NNW,339,5.4,5.4,90,0.00,,---,0.16,VWS V14.01,2013-04-05 08:21:00,
2013-04-05 04:22:00,39.7,37.0,29.94,NNW,328,8.3,8.3,90,0.00,,---,0.16,VWS V14.01,2013-04-05 08:22:00,
2013-04-05 04:23:00,39.7,37.0,29.94,NW,325,8.3,8.3,90,0.00,,---,0.16,VWS V14.01,2013-04-05 08:23:00,
2013-04-05 04:24:00,39.7,37.0,29.94,NNW,338,4.0,4.0,90,0.00,,---,0.16,VWS V14.01,2013-04-05 08:24:00,
2013-04-05 04:25:00,39.7,37.0,29.94,NW,322,8.3,8.3,90,0.00,,---,0.16,VWS V14.01,2013-04-05 08:25:00,
2013-04-05 04:26:00,39.7,37.0,29.94,NNW,333,8.3,8.3,90,0.00,,---,0.16,VWS V14.01,2013-04-05 08:26:00,
2013-04-05 04:27:00,39.7,37.0,29.94,NNW,346,6.3,6.3,90,0.00,,---,0.16,VWS V14.01,2013-04-05 08:27:00,
2013-04-05 04:28:00,39.7,37.0,29.94,NNW,342,8.3,8.3,90,0.00,,---,0.16,VWS V14.01,2013-04-05 08:28:00,
2013-04-05 04:29:00,39.7,37.0,29.94,NNW,343,5.8,5.8,90,0.00,,---,0.16,VWS V14.01,2013-04-05 08:29:00,
2013-04-05 04:30:00,39.7,37.0,29.94,NNW,334,8.1,8.1,90,0.00,,---,0.16,VWS V14.01,2013-04-05 08:30:00,
2013-04-05 04:31:00,39.7,37.0,29.94,North,353,3.6,3.6,90,0.00,,---,0.16,VWS V14.01,2013-04-05 08:31:00,
2013-04-05 04:32:00,39.7,37.0,29.94,NNW,344,6.3,6.3,90,0.00,,---,0.16,VWS V14.01,2013-04-05 08:32:00,
2013-04-05 04:33:00,39.7,37.0,29.94,NNW,346,5.8,5.8,90,0.00,,---,0.16,VWS V14.01,2013-04-05 08:33:00,
2013-04-05 04:34:00,39.7,37.0,29.94,North,349,5.8,5.8,90,0.00,,---,0.16,VWS V14.01,2013-04-05 08:34:00,
2013-04-05 04:35:00,39.7,37.3,29.94,NNW,334,7.6,7.6,91,0.00,,---,0.16,VWS V14.01,2013-04-05 08:35:00,
2013-04-05 04:36:00,39.7,37.3,29.94,NNW,334,5.8,5.8,91,0.00,,---,0.16,VWS V14.01,2013-04-05 08:36:00,
2013-04-05 04:37:00,39.7,37.3,29.94,NNW,332,7.6,7.6,91,0.00,,---,0.16,VWS V14.01,2013-04-05 08:37:00,
2013-04-05 04:38:00,39.7,37.3,29.94,NNW,346,7.6,7.6,91,0.00,,---,0.16,VWS V14.01,2013-04-05 08:38:00,
2013-04-05 04:39:00,39.7,37.3,29.94,NNW,331,6.3,6.3,91,0.00,,---,0.16,VWS V14.01,2013-04-05 08:39:00,
2013-04-05 04:40:00,39.9,37.5,29.94,North,357,5.8,5.8,91,0.00,,---,0.16,VWS V14.01,2013-04-05 08:40:00,
2013-04-05 04:41:00,39.7,37.3,29.94,North,6,5.8,5.8,91,0.00,,---,0.16,VWS V14.01,2013-04-05 08:41:00,
2013-04-05 04:42:00,39.9,37.5,29.94,NNW,341,5.8,5.8,91,0.00,,---,0.16,VWS V14.01,2013-04-05 08:42:00,
2013-04-05 04:43:00,39.9,37.5,29.94,NNW,332,6.3,6.3,91,0.00,,---,0.16,VWS V14.01,2013-04-05 08:43:00,
2013-04-05 04:44:00,39.9,37.5,29.94,NNW,338,8.3,8.3,91,0.00,,---,0.16,VWS V14.01,2013-04-05 08:44:00,
2013-04-05 04:45:00,39.9,37.5,29.94,NW,307,13.2,13.2,91,0.00,,---,0.16,VWS V14.01,2013-04-05 08:45:00,
2013-04-05 04:46:00,39.9,37.5,29.94,NNW,339,7.6,7.6,91,0.00,,---,0.16,VWS V14.01,2013-04-05 08:46:00,
2013-04-05 04:47:00,39.7,37.3,29.94,NNW,344,5.4,5.4,91,0.00,,---,0.16,VWS V14.01,2013-04-05 08:47:00,
2013-04-05 04:48:00,39.7,37.3,29.94,NNW,340,4.9,4.9,91,0.00,,---,0.16,VWS V14.01,2013-04-05 08:48:00,
2013-04-05 04:49:00,39.7,37.3,29.94,NNW,340,3.1,3.1,91,0.00,,---,0.16,VWS V14.01,2013-04-05 08:49:00,
2013-04-05 04:50:00,39.7,37.3,29.94,North,350,6.3,6.3,91,0.00,,---,0.16,VWS V14.01,2013-04-05 08:50:00,
2013-04-05 04:51:00,39.7,37.3,29.94,NNW,335,8.3,8.3,91,0.00,,---,0.16,VWS V14.01,2013-04-05 08:51:00,
2013-04-05 04:52:00,39.9,37.5,29.94,NW,326,8.3,8.3,91,0.00,,---,0.16,VWS V14.01,2013-04-05 08:52:00,
2013-04-05 04:53:00,39.9,37.5,29.94,NNW,343,10.1,10.1,91,0.00,,---,0.16,VWS V14.01,2013-04-05 08:53:00,
2013-04-05 04:54:00,39.9,37.5,29.94,North,353,7.6,7.6,91,0.00,,---,0.16,VWS V14.01,2013-04-05 08:54:00,
2013-04-05 04:55:00,39.9,37.5,29.94,North,350,5.8,5.8,91,0.00,,---,0.16,VWS V14.01,2013-04-05 08:55:00,
2013-04-05 04:56:00,39.7,37.3,29.94,NNE,20,9.2,9.2,91,0.00,,---,0.16,VWS V14.01,2013-04-05 08:56:00,
2013-04-05 04:57:00,39.9,37.5,29.94,NNW,339,5.4,5.4,91,0.00,,---,0.16,VWS V14.01,2013-04-05 08:57:00,
2013-04-05 04:58:00,39.9,37.5,29.94,NNW,337,5.4,5.4,91,0.00,,---,0.16,VWS V14.01,2013-04-05 08:58:00,
2013-04-05 04:59:00,39.7,37.3,29.94,North,357,6.3,6.3,91,0.00,,---,0.16,VWS V14.01,2013-04-05 08:59:00,
2013-04-05 05:00:00,39.7,37.3,29.94,North,353,4.0,4.0,91,0.00,,---,0.16,VWS V14.01,2013-04-05 09:00:00,
2013-04-05 05:01:00,39.7,37.3,29.94,NNW,337,5.8,5.8,91,0.00,,---,0.16,VWS V14.01,2013-04-05 09:01:00,
2013-04-05 05:02:00,39.7,37.3,29.94,North,353,5.4,5.4,91,0.00,,---,0.16,VWS V14.01,2013-04-05 09:02:00,
2013-04-05 05:03:00,39.7,37.3,29.94,North,353,3.1,3.1,91,0.00,,---,0.16,VWS V14.01,2013-04-05 09:03:00,
2013-04-05 05:04:00,39.7,37.3,29.94,North,349,3.6,3.6,91,0.00,,---,0.16,VWS V14.01,2013-04-05 09:04:00,
2013-04-05 05:05:00,39.7,37.3,29.94,NNW,341,3.6,3.6,91,0.00,,---,0.16,VWS V14.01,2013-04-05 09:05:00,
2013-04-05 05:06:00,39.7,37.3,29.94,NNW,332,4.9,4.9,91,0.00,,---,0.16,VWS V14.01,2013-04-05 09:06:00,
2013-04-05 05:07:00,39.7,37.3,29.94,North,357,5.8,5.8,91,0.00,,---,0.16,VWS V14.01,2013-04-05 09:07:00,
2013-04-05 05:08:00,39.7,37.3,29.94,NNW,338,4.9,4.9,91,0.00,,---,0.16,VWS V14.01,2013-04-05 09:08:00,
2013-04-05 05:09:00,39.7,37.3,29.94,NNW,330,5.8,5.8,91,0.00,,---,0.16,VWS V14.01,2013-04-05 09:09:00,
2013-04-05 05:10:00,39.9,37.5,29.94,NNW,329,4.5,4.5,91,0.00,,---,0.16,VWS V14.01,2013-04-05 09:10:00,
2013-04-05 05:11:00,39.9,37.8,29.94,North,353,5.8,5.8,92,0.00,,---,0.16,VWS V14.01,2013-04-05 09:11:00,
2013-04-05 05:12:00,39.9,37.8,29.94,NNW,338,6.3,6.3,92,0.00,,---,0.16,VWS V14.01,2013-04-05 09:12:00,
2013-04-05 05:13:00,39.9,37.8,29.94,NNE,14,4.0,4.0,92,0.00,,---,0.16,VWS V14.01,2013-04-05 09:13:00,
2013-04-05 05:14:00,39.9,37.8,29.94,NNW,342,6.3,6.3,92,0.00,,---,0.16,VWS V14.01,2013-04-05 09:14:00,
2013-04-05 05:15:00,39.9,37.8,29.94,North,353,6.7,6.7,92,0.00,,---,0.16,VWS V14.01,2013-04-05 09:15:00,
2013-04-05 05:16:00,39.9,37.8,29.94,NNW,341,4.0,4.0,92,0.00,,---,0.16,VWS V14.01,2013-04-05 09:16:00,
2013-04-05 05:17:00,39.9,37.8,29.94,NNW,332,5.8,5.8,92,0.00,,---,0.16,VWS V14.01,2013-04-05 09:17:00,
2013-04-05 05:18:00,39.9,37.8,29.94,NNW,331,6.3,6.3,92,0.00,,---,0.16,VWS V14.01,2013-04-05 09:18:00,
2013-04-05 05:19:00,39.9,37.8,29.94,North,0,4.0,4.0,92,0.00,,---,0.16,VWS V14.01,2013-04-05 09:19:00,
2013-04-05 05:20:00,39.9,37.8,29.94,NNW,341,4.0,4.0,92,0.00,,---,0.16,VWS V14.01,2013-04-05 09:20:00,
2013-04-05 05:21:00,39.9,37.8,29.94,NNW,334,4.0,4.0,92,0.00,,---,0.16,VWS V14.01,2013-04-05 09:21:00,
2013-04-05 05:22:00,39.9,37.8,29.94,NNW,343,6.7,6.7,92,0.00,,---,0.16,VWS V14.01,2013-04-05 09:22:00,
2013-04-05 05:23:00,39.9,37.8,29.94,North,11,5.4,5.4,92,0.00,,---,0.16,VWS V14.01,2013-04-05 09:23:00,
2013-04-05 05:24:00,39.9,37.8,29.94,NNW,335,5.4,5.4,92,0.00,,---,0.16,VWS V14.01,2013-04-05 09:24:00,
2013-04-05 05:25:00,39.9,37.8,29.94,NNW,348,5.8,5.8,92,0.00,,---,0.16,VWS V14.01,2013-04-05 09:25:00,
2013-04-05 05:26:00,39.9,37.8,29.94,NNW,345,5.8,5.8,92,0.00,,---,0.16,VWS V14.01,2013-04-05 09:26:00,
2013-04-05 05:27:00,39.9,37.8,29.94,NNW,332,3.6,3.6,92,0.00,,---,0.16,VWS V14.01,2013-04-05 09:27:00,
2013-04-05 05:28:00,39.9,37.8,29.94,NNW,329,5.8,5.8,92,0.00,,---,0.16,VWS V14.01,2013-04-05 09:28:00,
2013-04-05 05:29:00,39.9,37.8,29.94,North,3,5.8,5.8,92,0.00,,---,0.16,VWS V14.01,2013-04-05 09:29:00,
2013-04-05 05:30:00,39.9,37.8,29.94,NW,311,5.4,5.4,92,0.00,,---,0.16,VWS V14.01,2013-04-05 09:30:00,
2013-04-05 05:31:00,39.9,37.8,29.94,NNW,346,4.9,4.9,92,0.00,,---,0.16,VWS V14.01,2013-04-05 09:31:00,
2013-04-05 05:32:00,39.9,37.8,29.94,NW,322,7.6,7.6,92,0.00,,---,0.16,VWS V14.01,2013-04-05 09:32:00,
2013-04-05 05:33:00,39.9,37.8,29.94,NNW,327,6.3,6.3,92,0.00,,---,0.16,VWS V14.01,2013-04-05 09:33:00,
2013-04-05 05:34:00,39.9,37.8,29.94,NW,325,10.1,10.1,92,0.00,,---,0.16,VWS V14.01,2013-04-05 09:34:00,
2013-04-05 05:35:00,39.9,37.8,29.94,NNW,344,5.8,5.8,92,0.00,,---,0.16,VWS V14.01,2013-04-05 09:35:00,
2013-04-05 05:36:00,39.9,37.8,29.94,NW,323,6.3,6.3,92,0.00,,---,0.16,VWS V14.01,2013-04-05 09:36:00,
2013-04-05 05:37:00,39.9,37.8,29.94,North,350,5.8,5.8,92,0.00,,---,0.16,VWS V14.01,2013-04-05 09:37:00,
2013-04-05 05:38:00,39.9,37.8,29.94,NW,326,8.7,8.7,92,0.00,,---,0.16,VWS V14.01,2013-04-05 09:38:00,
2013-04-05 05:39:00,39.9,37.8,29.94,NE,41,5.8,5.8,92,0.00,,---,0.16,VWS V14.01,2013-04-05 09:39:00,
2013-04-05 05:40:00,39.9,37.8,29.94,North,349,5.4,5.4,92,0.00,,---,0.16,VWS V14.01,2013-04-05 09:40:00,
2013-04-05 05:41:00,39.9,37.8,29.94,NNW,332,7.2,7.2,92,0.00,,---,0.16,VWS V14.01,2013-04-05 09:41:00,
2013-04-05 05:42:00,39.9,37.8,29.94,NNW,338,5.4,5.4,92,0.00,,---,0.16,VWS V14.01,2013-04-05 09:42:00,
2013-04-05 05:43:00,39.9,37.8,29.94,NNW,341,5.4,5.4,92,0.00,,---,0.16,VWS V14.01,2013-04-05 09:43:00,
2013-04-05 05:44:00,39.9,37.8,29.94,NNW,336,7.6,7.6,92,0.00,,---,0.16,VWS V14.01,2013-04-05 09:44:00,
2013-04-05 05:45:00,39.9,37.8,29.94,NNW,341,6.3,6.3,92,0.00,,---,0.16,VWS V14.01,2013-04-05 09:45:00,
2013-04-05 05:46:00,39.9,37.8,29.94,NNW,334,7.6,7.6,92,0.00,,---,0.16,VWS V14.01,2013-04-05 09:46:00,
2013-04-05 05:47:00,39.9,37.8,29.94,NNW,333,5.8,5.8,92,0.00,,---,0.16,VWS V14.01,2013-04-05 09:47:00,
2013-04-05 05:48:00,39.9,37.8,29.94,NNW,342,3.6,3.6,92,0.00,,---,0.16,VWS V14.01,2013-04-05 09:48:00,
2013-04-05 05:49:00,39.9,37.8,29.94,North,357,7.6,7.6,92,0.00,,---,0.16,VWS V14.01,2013-04-05 09:49:00,
2013-04-05 05:50:00,39.9,37.8,29.94,NNW,336,8.1,8.1,92,0.00,,---,0.16,VWS V14.01,2013-04-05 09:50:00,
2013-04-05 05:51:00,39.9,37.8,29.94,NNW,335,5.4,5.4,92,0.00,,---,0.16,VWS V14.01,2013-04-05 09:51:00,
2013-04-05 05:52:00,39.9,37.8,29.94,NNW,341,8.1,8.1,92,0.00,,---,0.16,VWS V14.01,2013-04-05 09:52:00,
2013-04-05 05:53:00,39.9,37.8,29.94,NNW,343,6.3,6.3,92,0.00,,---,0.16,VWS V14.01,2013-04-05 09:53:00,
2013-04-05 05:54:00,39.9,37.8,29.94,North,353,6.3,6.3,92,0.00,,---,0.16,VWS V14.01,2013-04-05 09:54:00,
2013-04-05 05:55:00,39.9,37.8,29.94,NNW,330,5.8,5.8,92,0.00,,---,0.16,VWS V14.01,2013-04-05 09:55:00,
2013-04-05 05:56:00,39.9,37.8,29.94,North,9,5.4,5.4,92,0.00,,---,0.16,VWS V14.01,2013-04-05 09:56:00,
2013-04-05 05:57:00,39.9,37.8,29.94,NNW,334,6.7,6.7,92,0.00,,---,0.16,VWS V14.01,2013-04-05 09:57:00,
2013-04-05 05:58:00,39.9,37.8,29.97,NNW,333,4.9,4.9,92,0.00,,---,0.16,VWS V14.01,2013-04-05 09:58:00,
2013-04-05 05:59:00,39.9,38.1,29.97,NNW,337,3.6,3.6,93,0.00,,---,0.16,VWS V14.01,2013-04-05 09:59:00,
2013-04-05 06:00:00,39.9,38.1,29.97,NNW,341,5.4,5.4,93,0.00,,---,0.16,VWS V14.01,2013-04-05 10:00:00,
2013-04-05 06:01:00,39.9,38.1,29.97,NNW,329,5.8,5.8,93,0.00,,---,0.16,VWS V14.01,2013-04-05 10:01:00,
2013-04-05 06:02:00,39.9,38.1,29.97,NW,324,5.4,5.4,93,0.00,,---,0.16,VWS V14.01,2013-04-05 10:02:00,
2013-04-05 06:03:00,39.9,38.1,29.97,NW,318,4.9,4.9,93,0.00,,---,0.16,VWS V14.01,2013-04-05 10:03:00,
2013-04-05 06:04:00,39.9,38.1,29.97,NW,312,4.0,4.0,93,0.00,,---,0.16,VWS V14.01,2013-04-05 10:04:00,
2013-04-05 06:05:00,39.9,38.1,29.97,NW,323,5.4,5.4,93,0.00,,---,0.16,VWS V14.01,2013-04-05 10:05:00,
2013-04-05 06:06:00,39.9,38.1,29.97,NNW,327,3.6,3.6,93,0.00,,---,0.16,VWS V14.01,2013-04-05 10:06:00,
2013-04-05 06:07:00,39.9,38.1,29.97,NNW,345,4.9,4.9,93,0.00,,---,0.16,VWS V14.01,2013-04-05 10:07:00,
2013-04-05 06:08:00,39.9,38.1,29.97,NW,322,5.4,5.4,93,0.00,,---,0.16,VWS V14.01,2013-04-05 10:08:00,
2013-04-05 06:09:00,39.9,38.1,29.97,North,10,6.3,6.3,93,0.00,,---,0.16,VWS V14.01,2013-04-05 10:09:00,
2013-04-05 06:10:00,39.9,38.1,29.97,NNW,334,5.4,5.4,93,0.00,,---,0.16,VWS V14.01,2013-04-05 10:10:00,
2013-04-05 06:11:00,39.9,38.1,29.97,NNW,335,5.8,5.8,93,0.00,,---,0.16,VWS V14.01,2013-04-05 10:11:00,
2013-04-05 06:12:00,39.9,38.1,29.97,NNW,341,7.6,7.6,93,0.00,,---,0.16,VWS V14.01,2013-04-05 10:12:00,
2013-04-05 06:13:00,39.9,38.1,29.94,NNW,332,6.3,6.3,93,0.00,,---,0.16,VWS V14.01,2013-04-05 10:13:00,
2013-04-05 06:14:00,39.9,38.1,29.94,NNW,334,7.6,7.6,93,0.00,,---,0.16,VWS V14.01,2013-04-05 10:14:00,
2013-04-05 06:15:00,39.9,38.1,29.94,NNW,330,5.4,5.4,93,0.00,,---,0.16,VWS V14.01,2013-04-05 10:15:00,
2013-04-05 06:16:00,39.9,38.1,29.94,North,353,5.4,5.4,93,0.00,,---,0.16,VWS V14.01,2013-04-05 10:16:00,
2013-04-05 06:17:00,39.9,38.1,29.94,NNW,345,5.4,5.4,93,0.00,,---,0.16,VWS V14.01,2013-04-05 10:17:00,
2013-04-05 06:18:00,39.9,38.1,29.94,NNW,334,6.3,6.3,93,0.00,,---,0.16,VWS V14.01,2013-04-05 10:18:00,
2013-04-05 06:19:00,39.9,38.1,29.94,NW,325,8.1,8.1,93,0.00,,---,0.16,VWS V14.01,2013-04-05 10:19:00,
2013-04-05 06:20:00,39.9,38.1,29.94,NNW,341,6.7,6.7,93,0.00,,---,0.16,VWS V14.01,2013-04-05 10:20:00,
2013-04-05 06:21:00,39.9,38.1,29.94,North,349,7.6,7.6,93,0.00,,---,0.16,VWS V14.01,2013-04-05 10:21:00,
2013-04-05 06:22:00,39.9,38.1,29.94,NNW,341,4.0,4.0,93,0.00,,---,0.16,VWS V14.01,2013-04-05 10:22:00,
2013-04-05 06:23:00,39.9,38.1,29.94,North,353,6.3,6.3,93,0.00,,---,0.16,VWS V14.01,2013-04-05 10:23:00,
2013-04-05 06:24:00,39.9,38.1,29.94,NNW,335,5.4,5.4,93,0.00,,---,0.16,VWS V14.01,2013-04-05 10:24:00,
2013-04-05 06:25:00,39.9,38.1,29.94,NW,320,6.3,6.3,93,0.00,,---,0.16,VWS V14.01,2013-04-05 10:25:00,
2013-04-05 06:26:00,39.9,38.1,29.94,NNW,341,4.9,4.9,93,0.00,,---,0.16,VWS V14.01,2013-04-05 10:26:00,
2013-04-05 06:27:00,39.9,38.1,29.94,NNW,340,5.4,5.4,93,0.00,,---,0.16,VWS V14.01,2013-04-05 10:27:00,
2013-04-05 06:28:00,39.9,38.1,29.94,NNW,340,5.8,5.8,93,0.00,,---,0.16,VWS V14.01,2013-04-05 10:28:00,
2013-04-05 06:29:00,39.9,38.1,29.94,NW,306,5.8,5.8,93,0.00,,---,0.16,VWS V14.01,2013-04-05 10:29:00,
2013-04-05 06:30:00,39.9,38.1,29.94,NW,326,5.8,5.8,93,0.00,,---,0.16,VWS V14.01,2013-04-05 10:30:00,
2013-04-05 06:31:00,39.9,38.1,29.94,North,0,5.4,5.4,93,0.00,,---,0.16,VWS V14.01,2013-04-05 10:31:00,
2013-04-05 06:32:00,39.9,38.1,29.94,NNW,327,7.2,7.2,93,0.00,,---,0.16,VWS V14.01,2013-04-05 10:32:00,
2013-04-05 06:33:00,39.9,38.1,29.94,NNW,331,8.1,8.1,93,0.00,,---,0.16,VWS V14.01,2013-04-05 10:33:00,
2013-04-05 06:34:00,39.9,38.1,29.94,North,353,5.8,5.8,93,0.00,,---,0.16,VWS V14.01,2013-04-05 10:34:00,
2013-04-05 06:35:00,39.9,38.1,29.94,NNW,334,5.8,5.8,93,0.00,,---,0.16,VWS V14.01,2013-04-05 10:35:00,
2013-04-05 06:36:00,39.9,38.1,29.94,NNW,339,5.4,5.4,93,0.00,,---,0.16,VWS V14.01,2013-04-05 10:36:00,
2013-04-05 06:37:00,39.9,38.1,29.94,NNW,330,5.8,5.8,93,0.00,,---,0.16,VWS V14.01,2013-04-05 10:37:00,
2013-04-05 06:38:00,39.9,38.1,29.94,NNW,335,5.8,5.8,93,0.00,,---,0.16,VWS V14.01,2013-04-05 10:38:00,
2013-04-05 06:39:00,39.9,38.1,29.94,NNW,343,6.3,6.3,93,0.00,,---,0.16,VWS V14.01,2013-04-05 10:39:00,
2013-04-05 06:40:00,39.9,38.1,29.94,NNW,340,6.3,6.3,93,0.00,,---,0.16,VWS V14.01,2013-04-05 10:40:00,
2013-04-05 06:41:00,39.9,38.1,29.94,NNW,339,5.8,5.8,93,0.00,,---,0.16,VWS V14.01,2013-04-05 10:41:00,
2013-04-05 06:42:00,39.9,38.1,29.94,North,0,5.8,5.8,93,0.00,,---,0.16,VWS V14.01,2013-04-05 10:42:00,
2013-04-05 06:43:00,39.9,38.1,29.94,North,0,5.4,5.4,93,0.00,,---,0.16,VWS V14.01,2013-04-05 10:43:00,
2013-04-05 06:44:00,39.9,38.1,29.94,North,353,4.0,4.0,93,0.00,,---,0.16,VWS V14.01,2013-04-05 10:44:00,
2013-04-05 06:45:00,39.9,38.1,29.94,North,353,5.4,5.4,93,0.00,,---,0.16,VWS V14.01,2013-04-05 10:45:00,
2013-04-05 06:46:00,39.9,38.1,29.94,NNW,344,3.6,3.6,93,0.00,,---,0.16,VWS V14.01,2013-04-05 10:46:00,
2013-04-05 06:47:00,39.9,38.1,29.94,NNW,329,5.8,5.8,93,0.00,,---,0.16,VWS V14.01,2013-04-05 10:47:00,
2013-04-05 06:48:00,39.9,38.1,29.94,NNW,342,7.6,7.6,93,0.00,,---,0.16,VWS V14.01,2013-04-05 10:48:00,
2013-04-05 06:49:00,39.9,38.1,29.94,NNW,340,5.4,5.4,93,0.00,,---,0.16,VWS V14.01,2013-04-05 10:49:00,
2013-04-05 06:50:00,40.1,38.2,29.94,NW,322,4.9,4.9,93,0.00,,---,0.16,VWS V14.01,2013-04-05 10:50:00,
2013-04-05 06:51:00,40.1,38.2,29.94,NW,321,6.3,6.3,93,0.00,,---,0.16,VWS V14.01,2013-04-05 10:51:00,
2013-04-05 06:52:00,40.1,38.2,29.94,NNW,342,3.6,3.6,93,0.00,,---,0.16,VWS V14.01,2013-04-05 10:52:00,
2013-04-05 06:53:00,40.1,38.2,29.94,NNW,336,6.3,6.3,93,0.00,,---,0.16,VWS V14.01,2013-04-05 10:53:00,
2013-04-05 06:54:00,40.1,38.2,29.94,NNW,333,6.3,6.3,93,0.00,,---,0.16,VWS V14.01,2013-04-05 10:54:00,
2013-04-05 06:55:00,40.1,38.2,29.94,NW,321,7.2,7.2,93,0.00,,---,0.16,VWS V14.01,2013-04-05 10:55:00,
2013-04-05 06:56:00,40.1,38.2,29.94,NNW,331,8.7,8.7,93,0.00,,---,0.16,VWS V14.01,2013-04-05 10:56:00,
2013-04-05 06:57:00,40.1,38.2,29.94,WNW,285,4.0,4.0,93,0.00,,---,0.16,VWS V14.01,2013-04-05 10:57:00,
2013-04-05 06:58:00,40.1,38.2,29.97,NNW,331,4.9,4.9,93,0.00,,---,0.16,VWS V14.01,2013-04-05 10:58:00,
2013-04-05 06:59:00,40.1,38.2,29.97,NNW,327,3.6,3.6,93,0.00,,---,0.16,VWS V14.01,2013-04-05 10:59:00,
2013-04-05 07:00:00,40.1,38.2,29.97,NNW,335,4.0,4.0,93,0.00,,---,0.16,VWS V14.01,2013-04-05 11:00:00,
2013-04-05 07:01:00,40.1,38.2,29.97,NW,314,5.4,5.4,93,0.00,,---,0.16,VWS V14.01,2013-04-05 11:01:00,
2013-04-05 07:02:00,40.1,38.2,29.97,NNW,343,4.0,4.0,93,0.00,,---,0.16,VWS V14.01,2013-04-05 11:02:00,
2013-04-05 07:03:00,40.1,38.2,29.97,NW,321,5.8,5.8,93,0.00,,---,0.16,VWS V14.01,2013-04-05 11:03:00,
2013-04-05 07:04:00,40.1,38.2,29.97,NNW,339,5.8,5.8,93,0.00,,---,0.16,VWS V14.01,2013-04-05 11:04:00,
2013-04-05 07:05:00,40.1,38.2,29.97,NNW,338,5.8,5.8,93,0.00,,---,0.16,VWS V14.01,2013-04-05 11:05:00,
2013-04-05 07:06:00,40.1,38.2,29.97,NNW,340,5.8,5.8,93,0.00,,---,0.16,VWS V14.01,2013-04-05 11:06:00,
2013-04-05 07:07:00,40.1,38.2,29.97,WNW,295,4.0,4.0,93,0.00,,---,0.16,VWS V14.01,2013-04-05 11:07:00,
2013-04-05 07:08:00,40.1,38.2,29.97,NNW,339,6.3,6.3,93,0.00,,---,0.16,VWS V14.01,2013-04-05 11:08:00,
2013-04-05 07:09:00,40.3,38.4,29.97,NW,308,4.5,4.5,93,0.00,,---,0.16,VWS V14.01,2013-04-05 11:09:00,
2013-04-05 07:10:00,40.3,38.4,29.97,NNW,340,3.6,3.6,93,0.00,,---,0.16,VWS V14.01,2013-04-05 11:10:00,
2013-04-05 07:11:00,40.3,38.4,29.97,NNW,348,6.3,6.3,93,0.00,,---,0.16,VWS V14.01,2013-04-05 11:11:00,
2013-04-05 07:12:00,40.3,38.7,29.97,NW,317,5.8,5.8,94,0.00,,---,0.16,VWS V14.01,2013-04-05 11:12:00,
2013-04-05 07:13:00,40.3,38.7,29.97,NNW,333,5.4,5.4,94,0.00,,---,0.16,VWS V14.01,2013-04-05 11:13:00,
2013-04-05 07:14:00,40.3,38.7,29.97,NW,319,5.4,5.4,94,0.00,,---,0.16,VWS V14.01,2013-04-05 11:14:00,
2013-04-05 07:15:00,40.3,38.7,29.97,NNW,334,8.1,8.1,94,0.00,,---,0.16,VWS V14.01,2013-04-05 11:15:00,
2013-04-05 07:16:00,40.3,38.7,29.97,NNW,329,7.2,7.2,94,0.00,,---,0.16,VWS V14.01,2013-04-05 11:16:00,
2013-04-05 07:17:00,40.3,38.7,29.97,NW,326,5.8,5.8,94,0.00,,---,0.16,VWS V14.01,2013-04-05 11:17:00,
2013-04-05 07:18:00,40.3,38.7,29.97,NNW,341,8.1,8.1,94,0.00,,---,0.16,VWS V14.01,2013-04-05 11:18:00,
2013-04-05 07:19:00,40.3,38.7,29.97,NNW,337,5.4,5.4,94,0.00,,---,0.16,VWS V14.01,2013-04-05 11:19:00,
2013-04-05 07:20:00,40.3,38.7,29.97,NNW,333,5.4,5.4,94,0.00,,---,0.16,VWS V14.01,2013-04-05 11:20:00,
2013-04-05 07:21:00,40.3,38.7,29.97,NNW,342,5.8,5.8,94,0.00,,---,0.16,VWS V14.01,2013-04-05 11:21:00,
2013-04-05 07:22:00,40.1,38.5,29.97,NNW,332,10.1,10.1,94,0.00,,---,0.16,VWS V14.01,2013-04-05 11:22:00,
2013-04-05 07:23:00,40.1,38.5,29.97,NW,320,7.6,7.6,94,0.00,,---,0.16,VWS V14.01,2013-04-05 11:23:00,
2013-04-05 07:24:00,40.1,38.5,29.97,NNW,336,6.3,6.3,94,0.00,,---,0.16,VWS V14.01,2013-04-05 11:24:00,
2013-04-05 07:25:00,40.1,38.5,29.97,NNW,338,8.1,8.1,94,0.00,,---,0.16,VWS V14.01,2013-04-05 11:25:00,
2013-04-05 07:26:00,40.1,38.5,29.97,NNW,329,7.6,7.6,94,0.00,,---,0.16,VWS V14.01,2013-04-05 11:26:00,
2013-04-05 07:27:00,40.1,38.5,29.97,NNW,340,8.1,8.1,94,0.00,,---,0.16,VWS V14.01,2013-04-05 11:27:00,
2013-04-05 07:28:00,40.1,38.5,29.97,NNW,340,6.3,6.3,94,0.00,,---,0.16,VWS V14.01,2013-04-05 11:28:00,
2013-04-05 07:29:00,40.1,38.5,29.97,NNW,345,8.3,8.3,94,0.00,,---,0.16,VWS V14.01,2013-04-05 11:29:00,
2013-04-05 07:30:00,40.1,38.5,29.97,WNW,300,7.6,7.6,94,0.00,,---,0.16,VWS V14.01,2013-04-05 11:30:00,
2013-04-05 07:31:00,40.1,38.5,29.97,North,349,8.1,8.1,94,0.00,,---,0.16,VWS V14.01,2013-04-05 11:31:00,
2013-04-05 07:33:00,40.1,38.5,29.97,NNW,343,5.8,5.8,94,0.00,,---,0.16,VWS V14.01,2013-04-05 11:33:00,
2013-04-05 07:34:00,40.1,38.5,29.97,NW,323,6.3,6.3,94,0.00,,---,0.16,VWS V14.01,2013-04-05 11:34:00,
2013-04-05 07:35:00,40.1,38.5,29.97,NW,319,4.0,4.0,94,0.00,,---,0.16,VWS V14.01,2013-04-05 11:35:00,
2013-04-05 07:36:00,40.1,38.5,29.97,NNW,330,3.6,3.6,94,0.00,,---,0.16,VWS V14.01,2013-04-05 11:36:00,
2013-04-05 07:37:00,40.1,38.5,29.97,NNW,331,5.8,5.8,94,0.00,,---,0.16,VWS V14.01,2013-04-05 11:37:00,
2013-04-05 07:38:00,40.1,38.5,29.97,North,3,8.1,8.1,94,0.00,,---,0.16,VWS V14.01,2013-04-05 11:38:00,
2013-04-05 07:39:00,40.1,38.5,29.97,North,353,5.8,5.8,94,0.00,,---,0.16,VWS V14.01,2013-04-05 11:39:00,
2013-04-05 07:40:00,40.1,38.5,29.97,NNW,335,5.8,5.8,94,0.00,,---,0.16,VWS V14.01,2013-04-05 11:40:00,
2013-04-05 07:41:00,40.1,38.5,29.97,NNW,335,5.4,5.4,94,0.00,,---,0.16,VWS V14.01,2013-04-05 11:41:00,
2013-04-05 07:42:00,40.1,38.5,29.97,NNW,339,7.6,7.6,94,0.00,,---,0.16,VWS V14.01,2013-04-05 11:42:00,
2013-04-05 07:43:00,40.1,38.5,29.97,North,353,7.6,7.6,94,0.00,,---,0.16,VWS V14.01,2013-04-05 11:43:00,
2013-04-05 07:44:00,40.1,38.5,29.97,NNW,340,7.6,7.6,94,0.00,,---,0.16,VWS V14.01,2013-04-05 11:44:00,
2013-04-05 07:45:00,40.1,38.5,29.97,NNW,334,8.7,8.7,94,0.00,,---,0.16,VWS V14.01,2013-04-05 11:45:00,
2013-04-05 07:46:00,40.1,38.5,29.97,NW,326,8.3,8.3,94,0.00,,---,0.16,VWS V14.01,2013-04-05 11:46:00,
2013-04-05 07:47:00,40.1,38.5,29.97,North,350,5.8,5.8,94,0.00,,---,0.16,VWS V14.01,2013-04-05 11:47:00,
2013-04-05 07:48:00,40.1,38.5,29.97,NNW,343,8.7,8.7,94,0.00,,---,0.16,VWS V14.01,2013-04-05 11:48:00,
2013-04-05 07:49:00,40.1,38.5,29.97,NNW,346,8.7,8.7,94,0.00,,---,0.16,VWS V14.01,2013-04-05 11:49:00,
2013-04-05 07:50:00,40.1,38.5,29.97,NNW,340,8.1,8.1,94,0.00,,---,0.16,VWS V14.01,2013-04-05 11:50:00,
2013-04-05 07:51:00,40.1,38.5,29.97,NNW,340,7.6,7.6,94,0.00,,---,0.16,VWS V14.01,2013-04-05 11:51:00,
2013-04-05 07:52:00,40.1,38.5,29.97,NNW,345,6.3,6.3,94,0.00,,---,0.16,VWS V14.01,2013-04-05 11:52:00,
2013-04-05 07:53:00,40.1,38.5,29.97,NNW,327,7.6,7.6,94,0.00,,---,0.16,VWS V14.01,2013-04-05 11:53:00,
2013-04-05 07:54:00,40.1,38.5,29.97,NNW,346,7.6,7.6,94,0.00,,---,0.16,VWS V14.01,2013-04-05 11:54:00,
2013-04-05 07:55:00,40.1,38.5,29.97,NNW,331,6.3,6.3,94,0.00,,---,0.16,VWS V14.01,2013-04-05 11:55:00,
2013-04-05 07:56:00,40.3,38.7,29.97,NNW,329,5.8,5.8,94,0.00,,---,0.16,VWS V14.01,2013-04-05 11:56:00,
2013-04-05 07:57:00,40.3,38.7,29.97,NW,315,3.1,3.1,94,0.00,,---,0.16,VWS V14.01,2013-04-05 11:57:00,
2013-04-05 07:58:00,40.3,38.7,29.97,NNW,331,5.8,5.8,94,0.00,,---,0.16,VWS V14.01,2013-04-05 11:58:00,
2013-04-05 07:59:00,40.3,38.7,29.97,North,349,5.8,5.8,94,0.00,,---,0.16,VWS V14.01,2013-04-05 11:59:00,
2013-04-05 08:00:00,40.3,38.7,29.97,NNW,341,4.0,4.0,94,0.00,,---,0.16,VWS V14.01,2013-04-05 12:00:00,
2013-04-05 08:01:00,40.3,38.7,29.97,North,353,4.9,4.9,94,0.00,,---,0.16,VWS V14.01,2013-04-05 12:01:00,
2013-04-05 08:02:00,40.3,38.7,29.97,NNW,330,8.1,8.1,94,0.00,,---,0.16,VWS V14.01,2013-04-05 12:02:00,
2013-04-05 08:03:00,40.3,38.7,29.97,NNW,348,5.4,5.4,94,0.00,,---,0.16,VWS V14.01,2013-04-05 12:03:00,
2013-04-05 08:04:00,40.1,38.5,29.97,NNW,327,8.1,8.1,94,0.00,,---,0.16,VWS V14.01,2013-04-05 12:04:00,
2013-04-05 08:05:00,40.1,38.5,29.97,NNW,338,8.3,8.3,94,0.00,,---,0.16,VWS V14.01,2013-04-05 12:05:00,
2013-04-05 08:06:00,40.1,38.5,29.97,NNW,335,8.7,8.7,94,0.00,,---,0.16,VWS V14.01,2013-04-05 12:06:00,
2013-04-05 08:07:00,40.1,38.5,29.97,North,353,6.3,6.3,94,0.00,,---,0.16,VWS V14.01,2013-04-05 12:07:00,
2013-04-05 08:08:00,40.1,38.5,29.97,North,6,8.3,8.3,94,0.00,,---,0.16,VWS V14.01,2013-04-05 12:08:00,
2013-04-05 08:09:00,40.1,38.5,29.97,NNW,332,5.8,5.8,94,0.00,,---,0.16,VWS V14.01,2013-04-05 12:09:00,
2013-04-05 08:10:00,40.1,38.5,29.97,NNW,333,7.6,7.6,94,0.00,,---,0.16,VWS V14.01,2013-04-05 12:10:00,
2013-04-05 08:11:00,40.1,38.5,29.97,NNW,341,6.7,6.7,94,0.00,,---,0.16,VWS V14.01,2013-04-05 12:11:00,
2013-04-05 08:12:00,40.1,38.5,29.97,NW,323,5.4,5.4,94,0.00,,---,0.16,VWS V14.01,2013-04-05 12:12:00,
2013-04-05 08:13:00,40.1,38.5,29.97,NNW,338,5.4,5.4,94,0.00,,---,0.16,VWS V14.01,2013-04-05 12:13:00,
2013-04-05 08:14:00,40.1,38.5,29.97,NNW,341,4.0,4.0,94,0.00,,---,0.16,VWS V14.01,2013-04-05 12:14:00,
2013-04-05 08:15:00,40.1,38.5,29.97,NNW,346,4.0,4.0,94,0.00,,---,0.16,VWS V14.01,2013-04-05 12:15:00,
2013-04-05 08:16:00,40.1,38.5,29.97,North,353,5.4,5.4,94,0.00,,---,0.16,VWS V14.01,2013-04-05 12:16:00,
2013-04-05 08:17:00,40.1,38.5,29.97,North,357,5.8,5.8,94,0.00,,---,0.16,VWS V14.01,2013-04-05 12:17:00,
2013-04-05 08:18:00,40.1,38.5,29.97,NNW,337,6.7,6.7,94,0.00,,---,0.16,VWS V14.01,2013-04-05 12:18:00,
2013-04-05 08:19:00,40.1,38.5,29.97,NNW,329,6.3,6.3,94,0.00,,---,0.16,VWS V14.01,2013-04-05 12:19:00,
2013-04-05 08:20:00,40.1,38.5,29.97,NNW,345,8.1,8.1,94,0.00,,---,0.16,VWS V14.01,2013-04-05 12:20:00,
2013-04-05 08:21:00,40.3,38.7,29.97,North,0,7.6,7.6,94,0.00,,---,0.16,VWS V14.01,2013-04-05 12:21:00,
2013-04-05 08:22:00,40.3,38.7,29.97,North,11,6.3,6.3,94,0.00,,---,0.16,VWS V14.01,2013-04-05 12:22:00,
2013-04-05 08:23:00,40.3,38.7,29.97,NNW,336,7.6,7.6,94,0.00,,---,0.16,VWS V14.01,2013-04-05 12:23:00,
2013-04-05 08:24:00,40.3,38.7,29.97,North,5,3.1,3.1,94,0.00,,---,0.16,VWS V14.01,2013-04-05 12:24:00,
2013-04-05 08:25:00,40.3,38.7,29.97,NNE,17,2.7,2.7,94,0.00,,---,0.16,VWS V14.01,2013-04-05 12:25:00,
2013-04-05 08:26:00,40.3,38.7,29.97,NNW,339,5.4,5.4,94,0.00,,---,0.16,VWS V14.01,2013-04-05 12:26:00,
2013-04-05 08:27:00,40.3,38.7,29.97,NNW,342,5.8,5.8,94,0.00,,---,0.16,VWS V14.01,2013-04-05 12:27:00,
2013-04-05 08:28:00,40.5,38.9,29.97,NNW,332,4.0,4.0,94,0.00,,---,0.16,VWS V14.01,2013-04-05 12:28:00,
2013-04-05 08:29:00,40.5,38.9,29.97,NNW,331,6.7,6.7,94,0.00,,---,0.16,VWS V14.01,2013-04-05 12:29:00,
2013-04-05 08:30:00,40.5,38.9,29.97,NNW,331,6.3,6.3,94,0.00,,---,0.16,VWS V14.01,2013-04-05 12:30:00,
2013-04-05 08:31:00,40.5,38.9,29.97,North,357,5.4,5.4,94,0.00,,---,0.16,VWS V14.01,2013-04-05 12:31:00,
2013-04-05 08:32:00,40.5,39.1,29.97,NNW,344,4.9,4.9,95,0.00,,---,0.16,VWS V14.01,2013-04-05 12:32:00,
2013-04-05 08:33:00,40.6,39.3,29.97,North,0,5.8,5.8,95,0.00,,---,0.16,VWS V14.01,2013-04-05 12:33:00,
2013-04-05 08:34:00,40.6,39.3,29.97,North,349,5.8,5.8,95,0.00,,---,0.16,VWS V14.01,2013-04-05 12:34:00,
2013-04-05 08:35:00,40.6,39.3,29.97,NNW,333,5.8,5.8,95,0.00,,---,0.16,VWS V14.01,2013-04-05 12:35:00,
2013-04-05 08:36:00,40.8,39.5,29.97,NNW,346,8.1,8.1,95,0.00,,---,0.16,VWS V14.01,2013-04-05 12:36:00,
2013-04-05 08:37:00,40.8,39.5,29.97,NNW,339,6.3,6.3,95,0.00,,---,0.16,VWS V14.01,2013-04-05 12:37:00,
2013-04-05 08:38:00,41.0,39.4,29.97,North,0,6.3,6.3,94,0.00,,---,0.16,VWS V14.01,2013-04-05 12:38:00,
2013-04-05 08:39:00,41.0,39.4,29.97,NNE,29,8.7,8.7,94,0.00,,---,0.16,VWS V14.01,2013-04-05 12:39:00,
2013-04-05 08:40:00,41.0,39.4,29.97,North,0,6.3,6.3,94,0.00,,---,0.16,VWS V14.01,2013-04-05 12:40:00,
2013-04-05 08:41:00,41.0,39.4,29.97,NNE,32,5.4,5.4,94,0.00,,---,0.16,VWS V14.01,2013-04-05 12:41:00,
2013-04-05 08:42:00,41.0,39.4,29.97,North,349,6.3,6.3,94,0.00,,---,0.16,VWS V14.01,2013-04-05 12:42:00,
2013-04-05 08:43:00,41.0,39.4,29.97,NNW,338,6.3,6.3,94,0.00,,---,0.16,VWS V14.01,2013-04-05 12:43:00,
2013-04-05 08:44:00,41.0,39.4,29.97,North,350,8.3,8.3,94,0.00,,---,0.16,VWS V14.01,2013-04-05 12:44:00,
2013-04-05 08:45:00,41.0,39.4,29.97,NNW,345,8.1,8.1,94,0.00,,---,0.16,VWS V14.01,2013-04-05 12:45:00,
2013-04-05 08:46:00,41.0,39.4,29.97,North,0,5.8,5.8,94,0.00,,---,0.16,VWS V14.01,2013-04-05 12:46:00,
2013-04-05 08:47:00,41.0,39.4,29.97,NNW,331,5.4,5.4,94,0.00,,---,0.16,VWS V14.01,2013-04-05 12:47:00,
2013-04-05 08:48:00,41.0,39.4,29.97,NNW,345,5.8,5.8,94,0.00,,---,0.16,VWS V14.01,2013-04-05 12:48:00,
2013-04-05 08:49:00,41.0,39.7,29.97,NNW,343,7.6,7.6,95,0.00,,---,0.16,VWS V14.01,2013-04-05 12:49:00,
2013-04-05 08:50:00,41.0,39.7,29.97,NNW,348,6.3,6.3,95,0.00,,---,0.16,VWS V14.01,2013-04-05 12:50:00,
2013-04-05 08:51:00,41.0,39.7,29.97,NE,42,3.6,3.6,95,0.00,,---,0.16,VWS V14.01,2013-04-05 12:51:00,
2013-04-05 08:52:00,41.0,39.7,29.97,North,357,3.6,3.6,95,0.00,,---,0.16,VWS V14.01,2013-04-05 12:52:00,
2013-04-05 08:53:00,41.0,39.7,29.97,North,8,6.3,6.3,95,0.00,,---,0.16,VWS V14.01,2013-04-05 12:53:00,
2013-04-05 08:54:00,41.0,39.7,29.97,NNW,346,3.1,3.1,95,0.00,,---,0.16,VWS V14.01,2013-04-05 12:54:00,
2013-04-05 08:55:00,41.0,39.7,29.97,North,4,5.4,5.4,95,0.00,,---,0.16,VWS V14.01,2013-04-05 12:55:00,
2013-04-05 08:56:00,41.0,39.7,29.97,North,357,6.3,6.3,95,0.00,,---,0.16,VWS V14.01,2013-04-05 12:56:00,
2013-04-05 08:57:00,41.0,39.7,29.97,NNW,333,5.4,5.4,95,0.00,,---,0.16,VWS V14.01,2013-04-05 12:57:00,
2013-04-05 08:58:00,41.2,39.9,30.00,NNW,336,6.3,6.3,95,0.00,,---,0.16,VWS V14.01,2013-04-05 12:58:00,
2013-04-05 08:59:00,41.2,39.9,30.00,NNW,332,8.1,8.1,95,0.00,,---,0.16,VWS V14.01,2013-04-05 12:59:00,
2013-04-05 09:00:00,41.2,39.9,30.00,NNW,338,10.5,10.5,95,0.00,,---,0.16,VWS V14.01,2013-04-05 13:00:00,
2013-04-05 09:02:00,41.2,39.9,30.00,NNW,330,5.4,5.4,95,0.00,,---,0.16,VWS V14.01,2013-04-05 13:02:00,
2013-04-05 09:03:00,41.2,39.9,30.00,NNW,340,8.3,8.3,95,0.00,,---,0.16,VWS V14.01,2013-04-05 13:03:00,
2013-04-05 09:04:00,41.2,39.9,30.00,NW,325,5.4,5.4,95,0.00,,---,0.16,VWS V14.01,2013-04-05 13:04:00,
2013-04-05 09:05:00,41.2,39.9,30.00,North,353,5.4,5.4,95,0.00,,---,0.16,VWS V14.01,2013-04-05 13:05:00,
2013-04-05 09:06:00,41.2,39.9,30.00,NNW,337,5.8,5.8,95,0.00,,---,0.16,VWS V14.01,2013-04-05 13:06:00,
2013-04-05 09:07:00,41.2,39.9,30.00,NNW,329,7.6,7.6,95,0.00,,---,0.16,VWS V14.01,2013-04-05 13:07:00,
2013-04-05 09:08:00,41.4,40.0,30.00,NNW,330,8.3,8.3,95,0.00,,---,0.16,VWS V14.01,2013-04-05 13:08:00,
2013-04-05 09:09:00,41.4,40.0,30.00,North,353,5.4,5.4,95,0.00,,---,0.16,VWS V14.01,2013-04-05 13:09:00,
2013-04-05 09:10:00,41.4,40.0,30.00,NW,324,5.4,5.4,95,0.00,,---,0.16,VWS V14.01,2013-04-05 13:10:00,
2013-04-05 09:11:00,41.4,40.0,30.00,NNW,331,6.3,6.3,95,0.00,,---,0.16,VWS V14.01,2013-04-05 13:11:00,
2013-04-05 09:12:00,41.5,40.2,30.00,NNW,341,5.4,5.4,95,0.00,,---,0.16,VWS V14.01,2013-04-05 13:12:00,
2013-04-05 09:13:00,41.5,40.2,30.00,NNW,340,7.6,7.6,95,0.00,,---,0.16,VWS V14.01,2013-04-05 13:13:00,
2013-04-05 09:14:00,41.5,40.2,30.00,NW,320,6.3,6.3,95,0.00,,---,0.16,VWS V14.01,2013-04-05 13:14:00,
2013-04-05 09:15:00,41.7,40.4,30.00,NW,323,4.9,4.9,95,0.00,,---,0.16,VWS V14.01,2013-04-05 13:15:00,
2013-04-05 09:16:00,41.7,40.4,30.00,NNW,338,6.3,6.3,95,0.00,,---,0.16,VWS V14.01,2013-04-05 13:16:00,
2013-04-05 09:17:00,41.7,40.4,30.00,NW,325,7.6,7.6,95,0.00,,---,0.16,VWS V14.01,2013-04-05 13:17:00,
2013-04-05 09:18:00,41.7,40.4,30.00,NNW,332,5.8,5.8,95,0.00,,---,0.16,VWS V14.01,2013-04-05 13:18:00,
2013-04-05 09:19:00,41.9,40.6,30.00,NNW,329,8.1,8.1,95,0.00,,---,0.16,VWS V14.01,2013-04-05 13:19:00,
2013-04-05 09:20:00,41.9,40.6,30.00,NNW,341,8.1,8.1,95,0.00,,---,0.16,VWS V14.01,2013-04-05 13:20:00,
2013-04-05 09:21:00,42.1,40.8,30.00,NNW,336,5.8,5.8,95,0.00,,---,0.16,VWS V14.01,2013-04-05 13:21:00,
2013-04-05 09:22:00,42.1,40.8,30.00,North,0,6.3,6.3,95,0.00,,---,0.16,VWS V14.01,2013-04-05 13:22:00,
2013-04-05 09:23:00,42.1,40.8,30.00,WNW,292,8.3,8.3,95,0.00,,---,0.16,VWS V14.01,2013-04-05 13:23:00,
2013-04-05 09:24:00,42.1,40.8,30.00,NNW,327,7.6,7.6,95,0.00,,---,0.16,VWS V14.01,2013-04-05 13:24:00,
2013-04-05 09:25:00,42.1,40.8,30.00,NNW,327,7.6,7.6,95,0.00,,---,0.16,VWS V14.01,2013-04-05 13:25:00,
2013-04-05 09:26:00,42.1,40.8,30.00,NW,307,6.3,6.3,95,0.00,,---,0.16,VWS V14.01,2013-04-05 13:26:00,
2013-04-05 09:27:00,42.3,41.2,30.00,North,353,8.7,8.7,96,0.00,,---,0.16,VWS V14.01,2013-04-05 13:27:00,
2013-04-05 09:28:00,42.3,41.2,29.97,NNW,341,5.8,5.8,96,0.00,,---,0.16,VWS V14.01,2013-04-05 13:28:00,
2013-04-05 09:29:00,42.3,41.2,29.97,NNW,346,10.1,10.1,96,0.00,,---,0.16,VWS V14.01,2013-04-05 13:29:00,
2013-04-05 09:30:00,42.3,41.2,29.97,NNW,336,8.1,8.1,96,0.00,,---,0.16,VWS V14.01,2013-04-05 13:30:00,
2013-04-05 09:31:00,42.3,41.2,29.97,NNW,341,8.1,8.1,96,0.00,,---,0.16,VWS V14.01,2013-04-05 13:31:00,
2013-04-05 09:32:00,42.3,41.2,29.97,NNW,333,11.0,11.0,96,0.00,,---,0.16,VWS V14.01,2013-04-05 13:32:00,
2013-04-05 09:33:00,42.3,41.2,29.97,North,353,8.3,8.3,96,0.00,,---,0.16,VWS V14.01,2013-04-05 13:33:00,
2013-04-05 09:34:00,42.3,41.2,29.97,North,349,10.5,10.5,96,0.00,,---,0.16,VWS V14.01,2013-04-05 13:34:00,
2013-04-05 09:35:00,42.3,41.2,29.97,NNW,346,8.7,8.7,96,0.00,,---,0.16,VWS V14.01,2013-04-05 13:35:00,
2013-04-05 09:36:00,42.3,41.2,29.97,NNW,345,5.8,5.8,96,0.00,,---,0.16,VWS V14.01,2013-04-05 13:36:00,
2013-04-05 09:37:00,42.3,41.2,29.97,NW,326,8.3,8.3,96,0.00,,---,0.16,VWS V14.01,2013-04-05 13:37:00,
2013-04-05 09:38:00,42.4,41.4,29.97,NNW,327,10.1,10.1,96,0.00,,---,0.16,VWS V14.01,2013-04-05 13:38:00,
2013-04-05 09:39:00,42.4,41.4,29.97,NW,320,6.3,6.3,96,0.00,,---,0.16,VWS V14.01,2013-04-05 13:39:00,
2013-04-05 09:40:00,42.4,41.4,29.97,NW,317,7.6,7.6,96,0.00,,---,0.16,VWS V14.01,2013-04-05 13:40:00,
2013-04-05 09:41:00,42.6,41.6,29.97,North,353,7.2,7.2,96,0.00,,---,0.16,VWS V14.01,2013-04-05 13:41:00,
2013-04-05 09:42:00,42.6,41.6,29.97,NNW,343,5.4,5.4,96,0.00,,---,0.16,VWS V14.01,2013-04-05 13:42:00,
2013-04-05 09:43:00,42.6,41.6,30.00,NNE,32,6.7,6.7,96,0.00,,---,0.16,VWS V14.01,2013-04-05 13:43:00,
2013-04-05 09:44:00,42.8,41.5,30.00,NW,316,3.1,3.1,95,0.00,,---,0.16,VWS V14.01,2013-04-05 13:44:00,
2013-04-05 09:45:00,42.8,41.5,30.00,North,0,0.0,0.0,95,0.00,,---,0.16,VWS V14.01,2013-04-05 13:45:00,
2013-04-05 09:46:00,42.8,41.5,30.00,NW,324,5.4,5.4,95,0.00,,---,0.16,VWS V14.01,2013-04-05 13:46:00,
2013-04-05 09:47:00,43.0,41.7,30.00,NW,310,4.9,4.9,95,0.00,,---,0.16,VWS V14.01,2013-04-05 13:47:00,
2013-04-05 09:48:00,43.0,41.9,30.00,NNW,345,3.1,3.1,96,0.00,,---,0.16,VWS V14.01,2013-04-05 13:48:00,
2013-04-05 09:49:00,43.2,42.1,30.00,NNW,329,0.0,0.0,96,0.00,,---,0.16,VWS V14.01,2013-04-05 13:49:00,
2013-04-05 09:50:00,43.3,42.3,30.00,NNW,329,0.0,0.0,96,0.00,,---,0.16,VWS V14.01,2013-04-05 13:50:00,
2013-04-05 09:51:00,43.3,42.3,30.00,NNW,329,0.0,0.0,96,0.00,,---,0.16,VWS V14.01,2013-04-05 13:51:00,
2013-04-05 09:52:00,43.5,42.5,30.00,WNW,284,0.0,0.0,96,0.00,,---,0.16,VWS V14.01,2013-04-05 13:52:00,
2013-04-05 09:53:00,43.5,42.5,30.00,NNW,327,3.6,3.6,96,0.00,,---,0.16,VWS V14.01,2013-04-05 13:53:00,
2013-04-05 09:54:00,43.7,42.6,30.00,NNW,327,3.6,3.6,96,0.00,,---,0.16,VWS V14.01,2013-04-05 13:54:00,
2013-04-05 09:55:00,43.7,42.6,30.00,NNW,344,4.0,4.0,96,0.00,,---,0.16,VWS V14.01,2013-04-05 13:55:00,
2013-04-05 09:56:00,43.9,42.8,30.00,NNW,332,4.0,4.0,96,0.00,,---,0.16,VWS V14.01,2013-04-05 13:56:00,
2013-04-05 09:57:00,44.1,43.0,30.00,North,357,5.8,5.8,96,0.00,,---,0.16,VWS V14.01,2013-04-05 13:57:00,
2013-04-05 09:58:00,44.1,43.0,30.00,NNW,333,5.4,5.4,96,0.00,,---,0.16,VWS V14.01,2013-04-05 13:58:00,
2013-04-05 09:59:00,44.2,43.2,30.00,NW,311,7.6,7.6,96,0.00,,---,0.16,VWS V14.01,2013-04-05 13:59:00,
2013-04-05 10:00:00,44.2,43.2,30.00,NNW,335,5.8,5.8,96,0.00,,---,0.16,VWS V14.01,2013-04-05 14:00:00,
2013-04-05 10:01:00,44.4,43.3,30.00,NNW,348,6.3,6.3,96,0.00,,---,0.16,VWS V14.01,2013-04-05 14:01:00,
2013-04-05 10:02:00,44.4,43.3,30.00,NNW,331,8.3,8.3,96,0.00,,---,0.16,VWS V14.01,2013-04-05 14:02:00,
2013-04-05 10:03:00,44.4,43.3,30.00,NW,323,5.4,5.4,96,0.00,,---,0.16,VWS V14.01,2013-04-05 14:03:00,
2013-04-05 10:04:00,44.4,43.3,30.00,NNW,342,8.3,8.3,96,0.00,,---,0.16,VWS V14.01,2013-04-05 14:04:00,
2013-04-05 10:05:00,44.6,43.5,30.00,NNW,344,7.2,7.2,96,0.00,,---,0.16,VWS V14.01,2013-04-05 14:05:00,
2013-04-05 10:06:00,44.6,43.5,30.00,NNW,342,6.3,6.3,96,0.00,,---,0.16,VWS V14.01,2013-04-05 14:06:00,
2013-04-05 10:07:00,44.8,43.7,30.00,NNW,333,6.3,6.3,96,0.00,,---,0.16,VWS V14.01,2013-04-05 14:07:00,
2013-04-05 10:08:00,44.8,43.7,30.00,North,357,3.6,3.6,96,0.00,,---,0.16,VWS V14.01,2013-04-05 14:08:00,
2013-04-05 10:09:00,45.0,43.9,30.00,NNW,333,7.6,7.6,96,0.00,,---,0.16,VWS V14.01,2013-04-05 14:09:00,
2013-04-05 10:10:00,45.0,43.9,30.00,NNW,327,6.7,6.7,96,0.00,,---,0.16,VWS V14.01,2013-04-05 14:10:00,
2013-04-05 10:11:00,45.0,43.9,30.00,NNW,342,8.1,8.1,96,0.00,,---,0.16,VWS V14.01,2013-04-05 14:11:00,
2013-04-05 10:12:00,45.0,43.9,30.00,NNW,338,7.6,7.6,96,0.00,,---,0.16,VWS V14.01,2013-04-05 14:12:00,
2013-04-05 10:13:00,45.0,43.9,30.00,WNW,290,5.4,5.4,96,0.00,,---,0.16,VWS V14.01,2013-04-05 14:13:00,
2013-04-05 10:14:00,45.0,43.9,30.00,NNW,339,8.3,8.3,96,0.00,,---,0.16,VWS V14.01,2013-04-05 14:14:00,
2013-04-05 10:15:00,45.0,43.9,30.00,NW,312,7.6,7.6,96,0.00,,---,0.16,VWS V14.01,2013-04-05 14:15:00,
2013-04-05 10:16:00,45.0,43.9,30.00,NW,321,8.1,8.1,96,0.00,,---,0.16,VWS V14.01,2013-04-05 14:16:00,
2013-04-05 10:17:00,45.1,44.1,30.00,West,278,5.8,5.8,96,0.00,,---,0.16,VWS V14.01,2013-04-05 14:17:00,
2013-04-05 10:18:00,45.3,44.0,30.00,NNW,344,6.3,6.3,95,0.00,,---,0.16,VWS V14.01,2013-04-05 14:18:00,
2013-04-05 10:19:00,45.3,44.0,30.00,WNW,292,3.6,3.6,95,0.00,,---,0.16,VWS V14.01,2013-04-05 14:19:00,
2013-04-05 10:20:00,45.5,44.4,30.00,NNW,328,4.0,4.0,96,0.00,,---,0.16,VWS V14.01,2013-04-05 14:20:00,
2013-04-05 10:21:00,45.7,44.6,30.00,NNW,331,6.3,6.3,96,0.00,,---,0.16,VWS V14.01,2013-04-05 14:21:00,
2013-04-05 10:22:00,45.9,44.8,30.00,North,357,5.4,5.4,96,0.00,,---,0.16,VWS V14.01,2013-04-05 14:22:00,
2013-04-05 10:23:00,45.9,44.5,30.00,NNW,348,7.6,7.6,95,0.00,,---,0.16,VWS V14.01,2013-04-05 14:23:00,
2013-04-05 10:24:00,45.9,44.5,30.00,NNW,348,5.4,5.4,95,0.00,,---,0.16,VWS V14.01,2013-04-05 14:24:00,
2013-04-05 10:25:00,46.0,44.7,30.00,NNW,344,5.4,5.4,95,0.00,,---,0.16,VWS V14.01,2013-04-05 14:25:00,
2013-04-05 10:26:00,46.0,44.7,30.00,NE,36,6.3,6.3,95,0.00,,---,0.16,VWS V14.01,2013-04-05 14:26:00,
2013-04-05 10:27:00,46.0,44.7,30.00,NNW,346,8.1,8.1,95,0.00,,---,0.16,VWS V14.01,2013-04-05 14:27:00,
2013-04-05 10:28:00,46.2,44.9,30.00,NW,323,5.4,5.4,95,0.00,,---,0.16,VWS V14.01,2013-04-05 14:28:00,
2013-04-05 10:29:00,46.4,44.8,30.00,North,6,3.1,3.1,94,0.00,,---,0.16,VWS V14.01,2013-04-05 14:29:00,
2013-04-05 10:30:00,46.4,44.8,30.00,NNE,16,3.1,3.1,94,0.00,,---,0.16,VWS V14.01,2013-04-05 14:30:00,
2013-04-05 10:31:00,46.6,45.0,30.00,NNW,336,6.3,6.3,94,0.00,,---,0.16,VWS V14.01,2013-04-05 14:31:00,
2013-04-05 10:32:00,46.8,45.1,30.00,NNW,340,5.8,5.8,94,0.00,,---,0.16,VWS V14.01,2013-04-05 14:32:00,
2013-04-05 10:33:00,46.8,45.1,30.00,NW,325,4.0,4.0,94,0.00,,---,0.16,VWS V14.01,2013-04-05 14:33:00,
2013-04-05 10:34:00,46.9,45.3,30.00,North,8,2.2,2.2,94,0.00,,---,0.16,VWS V14.01,2013-04-05 14:34:00,
2013-04-05 10:35:00,47.1,45.5,30.00,North,5,0.0,0.0,94,0.00,,---,0.16,VWS V14.01,2013-04-05 14:35:00,
2013-04-05 10:36:00,47.3,45.7,30.00,NNE,16,0.0,0.0,94,0.00,,---,0.16,VWS V14.01,2013-04-05 14:36:00,
2013-04-05 10:37:00,47.5,45.8,30.00,West,266,0.0,0.0,94,0.00,,---,0.16,VWS V14.01,2013-04-05 14:37:00,
2013-04-05 10:38:00,47.5,45.6,30.00,WNW,282,5.4,5.4,93,0.00,,---,0.16,VWS V14.01,2013-04-05 14:38:00,
2013-04-05 10:39:00,47.8,46.2,30.00,NW,323,6.3,6.3,94,0.00,,---,0.16,VWS V14.01,2013-04-05 14:39:00,
2013-04-05 10:40:00,48.0,46.1,30.00,North,357,5.8,5.8,93,0.00,,---,0.16,VWS V14.01,2013-04-05 14:40:00,
2013-04-05 10:41:00,48.0,46.1,30.00,North,353,4.0,4.0,93,0.00,,---,0.16,VWS V14.01,2013-04-05 14:41:00,
2013-04-05 10:42:00,48.2,46.3,30.00,NNW,348,0.0,0.0,93,0.00,,---,0.16,VWS V14.01,2013-04-05 14:42:00,
2013-04-05 10:43:00,48.4,46.5,30.00,NNE,26,0.0,0.0,93,0.00,,---,0.16,VWS V14.01,2013-04-05 14:43:00,
2013-04-05 10:44:00,48.4,46.5,30.00,NNE,22,4.0,4.0,93,0.00,,---,0.16,VWS V14.01,2013-04-05 14:44:00,
2013-04-05 10:45:00,48.6,46.3,30.00,North,7,3.1,3.1,92,0.00,,---,0.16,VWS V14.01,2013-04-05 14:45:00,
2013-04-05 10:46:00,48.6,46.3,30.00,North,0,2.2,2.2,92,0.00,,---,0.16,VWS V14.01,2013-04-05 14:46:00,
2013-04-05 10:47:00,48.6,46.3,30.00,North,0,0.0,0.0,92,0.00,,---,0.16,VWS V14.01,2013-04-05 14:47:00,
2013-04-05 10:48:00,48.7,46.5,30.00,NNW,339,0.0,0.0,92,0.00,,---,0.16,VWS V14.01,2013-04-05 14:48:00,
2013-04-05 10:49:00,48.6,46.1,30.00,North,11,5.8,5.8,91,0.00,,---,0.16,VWS V14.01,2013-04-05 14:49:00,
2013-04-05 10:50:00,48.4,45.6,30.00,North,8,5.4,5.4,90,0.00,,---,0.16,VWS V14.01,2013-04-05 14:50:00,
2013-04-05 10:51:00,48.2,45.1,30.00,NNW,346,3.6,3.6,89,0.00,,---,0.16,VWS V14.01,2013-04-05 14:51:00,
2013-04-05 10:52:00,48.4,44.4,30.00,NW,317,3.6,3.6,86,0.00,,---,0.16,VWS V14.01,2013-04-05 14:52:00,
2013-04-05 10:53:00,48.7,44.4,30.00,NNE,15,2.2,2.2,85,0.00,,---,0.16,VWS V14.01,2013-04-05 14:53:00,
2013-04-05 10:54:00,48.9,44.0,30.00,WNW,293,0.0,0.0,83,0.00,,---,0.16,VWS V14.01,2013-04-05 14:54:00,
2013-04-05 10:55:00,49.1,43.5,30.00,West,280,5.4,5.4,81,0.00,,---,0.16,VWS V14.01,2013-04-05 14:55:00,
2013-04-05 10:56:00,49.1,43.5,30.00,WSW,251,5.4,5.4,81,0.00,,---,0.16,VWS V14.01,2013-04-05 14:56:00,
2013-04-05 10:57:00,49.1,43.5,30.00,West,260,0.0,0.0,81,0.00,,---,0.16,VWS V14.01,2013-04-05 14:57:00,
2013-04-05 10:58:00,49.1,43.2,30.00,West,269,4.0,4.0,80,0.00,,---,0.16,VWS V14.01,2013-04-05 14:58:00,
2013-04-05 10:59:00,49.1,43.2,30.00,NW,317,5.4,5.4,80,0.00,,---,0.16,VWS V14.01,2013-04-05 14:59:00,
2013-04-05 11:00:00,49.3,42.7,30.00,WNW,303,5.8,5.8,78,0.00,,---,0.16,VWS V14.01,2013-04-05 15:00:00,
2013-04-05 11:01:00,49.3,42.7,30.00,WNW,301,4.9,4.9,78,0.00,,---,0.16,VWS V14.01,2013-04-05 15:01:00,
2013-04-05 11:02:00,49.1,41.9,30.00,WNW,303,3.1,3.1,76,0.00,,---,0.16,VWS V14.01,2013-04-05 15:02:00,
2013-04-05 11:03:00,49.1,41.2,30.00,West,274,3.1,3.1,74,0.00,,---,0.16,VWS V14.01,2013-04-05 15:03:00,
2013-04-05 11:04:00,49.3,40.7,30.00,West,274,0.0,0.0,72,0.00,,---,0.16,VWS V14.01,2013-04-05 15:04:00,
2013-04-05 11:05:00,49.5,39.3,30.00,WNW,300,3.1,3.1,68,0.00,,---,0.16,VWS V14.01,2013-04-05 15:05:00,
2013-04-05 11:06:00,49.5,39.3,30.00,WNW,300,0.0,0.0,68,0.00,,---,0.16,VWS V14.01,2013-04-05 15:06:00,
2013-04-05 11:07:00,49.6,38.8,30.00,WNW,294,0.0,0.0,66,0.00,,---,0.16,VWS V14.01,2013-04-05 15:07:00,
2013-04-05 11:08:00,49.8,38.9,30.00,West,279,7.2,7.2,66,0.00,,---,0.16,VWS V14.01,2013-04-05 15:08:00,
2013-04-05 11:09:00,49.6,38.4,30.00,West,278,5.4,5.4,65,0.00,,---,0.16,VWS V14.01,2013-04-05 15:09:00,
2013-04-05 11:10:00,49.3,32.4,30.00,WSW,246,5.4,5.4,52,0.00,,---,0.16,VWS V14.01,2013-04-05 15:10:00,
2013-04-05 11:11:00,49.5,32.1,30.00,SW,214,4.9,4.9,51,0.00,,---,0.16,VWS V14.01,2013-04-05 15:11:00,
2013-04-05 11:12:00,49.5,32.1,30.00,SW,229,4.0,4.0,51,0.00,,---,0.16,VWS V14.01,2013-04-05 15:12:00,
2013-04-05 11:13:00,49.5,31.6,30.00,SSW,208,5.8,5.8,50,0.00,,---,0.16,VWS V14.01,2013-04-05 15:13:00,
2013-04-05 11:14:00,49.6,31.8,30.00,WSW,257,3.6,3.6,50,0.00,,---,0.16,VWS V14.01,2013-04-05 15:14:00,
2013-04-05 11:15:00,49.5,30.1,30.00,West,266,4.5,4.5,47,0.00,,---,0.16,VWS V14.01,2013-04-05 15:15:00,
2013-04-05 11:16:00,49.5,30.6,30.00,WNW,283,3.6,3.6,48,0.00,,---,0.16,VWS V14.01,2013-04-05 15:16:00,
2013-04-05 11:17:00,49.5,30.1,30.00,WSW,251,4.0,4.0,47,0.00,,---,0.16,VWS V14.01,2013-04-05 15:17:00,
2013-04-05 11:18:00,49.6,30.8,30.00,WSW,251,0.0,0.0,48,0.00,,---,0.16,VWS V14.01,2013-04-05 15:18:00,
2013-04-05 11:19:00,49.6,30.8,30.00,WSW,254,0.0,0.0,48,0.00,,---,0.16,VWS V14.01,2013-04-05 15:19:00,
2013-04-05 11:20:00,49.8,31.4,30.00,SE,125,0.0,0.0,49,0.00,,---,0.16,VWS V14.01,2013-04-05 15:20:00,
2013-04-05 11:21:00,49.8,31.4,30.00,SE,125,0.0,0.0,49,0.00,,---,0.16,VWS V14.01,2013-04-05 15:21:00,
2013-04-05 11:22:00,50.2,31.8,30.00,SE,125,0.0,0.0,49,0.00,,---,0.16,VWS V14.01,2013-04-05 15:22:00,
2013-04-05 11:23:00,50.2,31.8,30.00,NNE,32,0.0,0.0,49,0.00,,---,0.16,VWS V14.01,2013-04-05 15:23:00,
2013-04-05 11:24:00,50.4,31.4,30.00,East,95,0.0,0.0,48,0.00,,---,0.16,VWS V14.01,2013-04-05 15:24:00,
2013-04-05 11:25:00,50.5,31.6,30.00,East,89,0.0,0.0,48,0.00,,---,0.16,VWS V14.01,2013-04-05 15:25:00,
2013-04-05 11:26:00,50.5,31.6,30.00,East,89,0.0,0.0,48,0.00,,---,0.16,VWS V14.01,2013-04-05 15:26:00,
2013-04-05 11:27:00,50.7,31.8,30.00,East,89,0.0,0.0,48,0.00,,---,0.16,VWS V14.01,2013-04-05 15:27:00,
2013-04-05 11:28:00,50.9,32.4,30.00,NNE,16,0.0,0.0,49,0.00,,---,0.16,VWS V14.01,2013-04-05 15:28:00,
2013-04-05 11:29:00,51.1,32.6,30.00,ENE,65,0.0,0.0,49,0.00,,---,0.16,VWS V14.01,2013-04-05 15:29:00,
2013-04-05 11:30:00,51.3,30.7,30.00,WNW,284,0.0,0.0,45,0.00,,---,0.16,VWS V14.01,2013-04-05 15:30:00,
2013-04-05 11:31:00,51.3,30.7,30.00,WNW,295,3.6,3.6,45,0.00,,---,0.16,VWS V14.01,2013-04-05 15:31:00,
2013-04-05 11:32:00,51.4,31.4,30.00,NW,314,4.9,4.9,46,0.00,,---,0.16,VWS V14.01,2013-04-05 15:32:00,
2013-04-05 11:33:00,51.6,31.5,30.00,NW,317,3.1,3.1,46,0.00,,---,0.16,VWS V14.01,2013-04-05 15:33:00,
2013-04-05 11:34:00,51.6,30.4,30.00,NW,319,4.5,4.5,44,0.00,,---,0.16,VWS V14.01,2013-04-05 15:34:00,
2013-04-05 11:35:00,51.8,28.9,30.00,WNW,288,0.0,0.0,41,0.00,,---,0.16,VWS V14.01,2013-04-05 15:35:00,
2013-04-05 11:36:00,51.8,28.9,30.00,WNW,288,0.0,0.0,41,0.00,,---,0.16,VWS V14.01,2013-04-05 15:36:00,
2013-04-05 11:37:00,52.2,29.8,30.00,WNW,303,4.0,4.0,42,0.00,,---,0.16,VWS V14.01,2013-04-05 15:37:00,
2013-04-05 11:38:00,52.2,29.8,30.00,NW,313,5.4,5.4,42,0.00,,---,0.16,VWS V14.01,2013-04-05 15:38:00,
2013-04-05 11:39:00,52.3,28.8,30.00,WNW,298,3.6,3.6,40,0.00,,---,0.16,VWS V14.01,2013-04-05 15:39:00,
2013-04-05 11:40:00,52.7,29.1,30.00,WSW,247,3.1,3.1,40,0.00,,---,0.16,VWS V14.01,2013-04-05 15:40:00,
2013-04-05 11:41:00,52.7,29.1,30.00,WSW,247,0.0,0.0,40,0.00,,---,0.16,VWS V14.01,2013-04-05 15:41:00,
2013-04-05 11:42:00,52.7,29.1,30.00,West,269,2.7,2.7,40,0.00,,---,0.16,VWS V14.01,2013-04-05 15:42:00,
2013-04-05 11:43:00,52.9,29.2,30.00,NW,314,4.0,4.0,40,0.00,,---,0.16,VWS V14.01,2013-04-05 15:43:00,
2013-04-05 11:44:00,53.1,30.0,30.00,NW,317,4.0,4.0,41,0.00,,---,0.16,VWS V14.01,2013-04-05 15:44:00,
2013-04-05 11:45:00,53.2,30.8,30.00,WNW,291,5.8,5.8,42,0.00,,---,0.16,VWS V14.01,2013-04-05 15:45:00,
2013-04-05 11:46:00,53.1,30.6,30.00,NNW,341,3.1,3.1,42,0.00,,---,0.16,VWS V14.01,2013-04-05 15:46:00,
2013-04-05 11:47:00,53.1,28.1,30.00,NNW,345,6.3,6.3,38,0.00,,---,0.16,VWS V14.01,2013-04-05 15:47:00,
2013-04-05 11:48:00,53.2,28.3,30.00,North,353,3.6,3.6,38,0.00,,---,0.16,VWS V14.01,2013-04-05 15:48:00,
2013-04-05 11:49:00,53.2,28.3,30.00,NNE,17,2.7,2.7,38,0.00,,---,0.16,VWS V14.01,2013-04-05 15:49:00,
2013-04-05 11:50:00,53.2,27.7,30.00,NNE,20,0.0,0.0,37,0.00,,---,0.16,VWS V14.01,2013-04-05 15:50:00,
2013-04-05 11:51:00,53.2,27.7,30.00,NW,320,2.7,2.7,37,0.00,,---,0.16,VWS V14.01,2013-04-05 15:51:00,
2013-04-05 11:52:00,53.2,27.7,30.00,NNW,342,0.0,0.0,37,0.00,,---,0.16,VWS V14.01,2013-04-05 15:52:00,
2013-04-05 11:53:00,53.2,27.7,30.00,NNW,342,0.0,0.0,37,0.00,,---,0.16,VWS V14.01,2013-04-05 15:53:00,
2013-04-05 11:54:00,53.8,28.1,30.00,NNW,345,5.4,5.4,37,0.00,,---,0.16,VWS V14.01,2013-04-05 15:54:00,
2013-04-05 11:55:00,53.6,28.0,30.00,NNE,23,5.8,5.8,37,0.00,,---,0.16,VWS V14.01,2013-04-05 15:55:00,
2013-04-05 11:56:00,53.2,27.7,30.00,NNW,348,3.1,3.1,37,0.00,,---,0.16,VWS V14.01,2013-04-05 15:56:00,
2013-04-05 11:57:00,53.4,27.8,30.00,NW,313,0.0,0.0,37,0.00,,---,0.16,VWS V14.01,2013-04-05 15:57:00,
2013-04-05 11:58:00,53.6,27.3,30.00,WNW,290,6.3,6.3,36,0.00,,---,0.16,VWS V14.01,2013-04-05 15:58:00,
2013-04-05 11:59:00,53.8,27.5,30.00,North,7,3.6,3.6,36,0.00,,---,0.16,VWS V14.01,2013-04-05 15:59:00,
2013-04-05 12:00:00,54.0,27.6,30.00,NE,38,5.8,5.8,36,0.00,,---,0.16,VWS V14.01,2013-04-05 16:00:00,
2013-04-05 12:01:00,54.0,27.6,30.00,North,353,8.7,8.7,36,0.00,,---,0.16,VWS V14.01,2013-04-05 16:01:00,
2013-04-05 12:02:00,54.0,27.6,30.00,North,349,7.2,7.2,36,0.00,,---,0.16,VWS V14.01,2013-04-05 16:02:00,
2013-04-05 12:03:00,54.0,27.6,30.00,NNW,341,4.0,4.0,36,0.00,,---,0.16,VWS V14.01,2013-04-05 16:03:00,
2013-04-05 12:04:00,54.3,28.0,30.00,NNW,346,8.1,8.1,36,0.00,,---,0.16,VWS V14.01,2013-04-05 16:04:00,
2013-04-05 12:05:00,54.1,27.8,30.00,NNW,342,6.3,6.3,36,0.00,,---,0.16,VWS V14.01,2013-04-05 16:05:00,
2013-04-05 12:06:00,54.5,28.1,30.00,NNW,340,5.4,5.4,36,0.00,,---,0.16,VWS V14.01,2013-04-05 16:06:00,
2013-04-05 12:07:00,54.7,28.3,30.00,NNW,340,5.4,5.4,36,0.00,,---,0.16,VWS V14.01,2013-04-05 16:07:00,
2013-04-05 12:08:00,54.7,28.3,30.00,NW,308,7.6,7.6,36,0.00,,---,0.16,VWS V14.01,2013-04-05 16:08:00,
2013-04-05 12:09:00,54.9,28.4,30.00,NNE,20,5.4,5.4,36,0.00,,---,0.16,VWS V14.01,2013-04-05 16:09:00,
2013-04-05 12:10:00,54.9,28.4,30.00,NW,325,5.4,5.4,36,0.00,,---,0.16,VWS V14.01,2013-04-05 16:10:00,
2013-04-05 12:11:00,55.2,28.8,30.00,NNW,344,10.1,10.1,36,0.00,,---,0.16,VWS V14.01,2013-04-05 16:11:00,
2013-04-05 12:12:00,55.2,28.8,30.00,NNW,338,8.7,8.7,36,0.00,,---,0.16,VWS V14.01,2013-04-05 16:12:00,
2013-04-05 12:13:00,55.4,28.9,29.97,NE,39,5.8,5.8,36,0.00,,---,0.16,VWS V14.01,2013-04-05 16:13:00,
2013-04-05 12:14:00,55.2,28.8,29.97,NE,43,8.3,8.3,36,0.00,,---,0.16,VWS V14.01,2013-04-05 16:14:00,
2013-04-05 12:15:00,55.6,29.1,29.97,NNW,332,5.4,5.4,36,0.00,,---,0.16,VWS V14.01,2013-04-05 16:15:00,
2013-04-05 12:16:00,55.4,28.9,29.97,NNW,330,5.8,5.8,36,0.00,,---,0.16,VWS V14.01,2013-04-05 16:16:00,
2013-04-05 12:17:00,55.4,28.2,29.97,NNW,341,7.6,7.6,35,0.00,,---,0.16,VWS V14.01,2013-04-05 16:17:00,
2013-04-05 12:18:00,55.8,29.2,29.97,NW,326,4.5,4.5,36,0.00,,---,0.16,VWS V14.01,2013-04-05 16:18:00,
2013-04-05 12:19:00,55.6,29.1,29.97,NW,320,6.3,6.3,36,0.00,,---,0.16,VWS V14.01,2013-04-05 16:19:00,
2013-04-05 12:20:00,55.8,29.2,29.97,WNW,296,5.4,5.4,36,0.00,,---,0.16,VWS V14.01,2013-04-05 16:20:00,
2013-04-05 12:21:00,55.9,29.4,29.97,WNW,286,6.3,6.3,36,0.00,,---,0.16,VWS V14.01,2013-04-05 16:21:00,
2013-04-05 12:22:00,55.9,29.4,29.97,NW,316,5.4,5.4,36,0.00,,---,0.16,VWS V14.01,2013-04-05 16:22:00,
2013-04-05 12:23:00,55.9,29.4,29.97,NNW,327,8.1,8.1,36,0.00,,---,0.16,VWS V14.01,2013-04-05 16:23:00,
2013-04-05 12:24:00,56.1,29.5,29.97,WNW,289,5.8,5.8,36,0.00,,---,0.16,VWS V14.01,2013-04-05 16:24:00,
2013-04-05 12:25:00,56.1,28.9,29.97,North,0,4.9,4.9,35,0.00,,---,0.16,VWS V14.01,2013-04-05 16:25:00,
2013-04-05 12:26:00,56.3,29.0,29.97,North,357,2.7,2.7,35,0.00,,---,0.16,VWS V14.01,2013-04-05 16:26:00,
2013-04-05 12:27:00,56.5,29.2,29.97,NNE,19,6.3,6.3,35,0.00,,---,0.16,VWS V14.01,2013-04-05 16:27:00,
2013-04-05 12:28:00,56.3,29.0,29.97,North,5,5.4,5.4,35,0.00,,---,0.16,VWS V14.01,2013-04-05 16:28:00,
2013-04-05 12:29:00,56.7,30.0,29.97,NNW,329,4.0,4.0,36,0.00,,---,0.16,VWS V14.01,2013-04-05 16:29:00,
2013-04-05 12:30:00,56.7,30.0,29.97,NNE,33,4.0,4.0,36,0.00,,---,0.16,VWS V14.01,2013-04-05 16:30:00,
2013-04-05 12:31:00,56.7,30.0,29.97,NNE,29,2.2,2.2,36,0.00,,---,0.16,VWS V14.01,2013-04-05 16:31:00,
2013-04-05 12:32:00,56.8,30.2,29.97,NNW,341,4.0,4.0,36,0.00,,---,0.16,VWS V14.01,2013-04-05 16:32:00,
2013-04-05 12:33:00,56.8,29.5,29.97,North,353,6.3,6.3,35,0.00,,---,0.16,VWS V14.01,2013-04-05 16:33:00,
2013-04-05 12:34:00,57.0,29.7,29.97,North,357,7.6,7.6,35,0.00,,---,0.16,VWS V14.01,2013-04-05 16:34:00,
2013-04-05 12:35:00,57.0,29.7,29.97,NE,46,6.3,6.3,35,0.00,,---,0.16,VWS V14.01,2013-04-05 16:35:00,
2013-04-05 12:36:00,57.0,29.7,29.97,NNE,28,5.8,5.8,35,0.00,,---,0.16,VWS V14.01,2013-04-05 16:36:00,
2013-04-05 12:37:00,57.2,29.8,29.97,ENE,67,10.1,10.1,35,0.00,,---,0.16,VWS V14.01,2013-04-05 16:37:00,
2013-04-05 12:38:00,57.2,29.8,29.97,NNE,20,3.6,3.6,35,0.00,,---,0.16,VWS V14.01,2013-04-05 16:38:00,
2013-04-05 12:39:00,57.2,29.8,29.97,NNW,337,6.3,6.3,35,0.00,,---,0.16,VWS V14.01,2013-04-05 16:39:00,
2013-04-05 12:40:00,57.4,30.0,29.97,NNE,12,8.1,8.1,35,0.00,,---,0.16,VWS V14.01,2013-04-05 16:40:00,
2013-04-05 12:41:00,57.4,30.0,29.97,North,2,8.3,8.3,35,0.00,,---,0.16,VWS V14.01,2013-04-05 16:41:00,
2013-04-05 12:42:00,57.2,29.8,29.97,NNW,343,8.1,8.1,35,0.00,,---,0.16,VWS V14.01,2013-04-05 16:42:00,
2013-04-05 12:43:00,57.2,29.8,29.97,North,353,8.3,8.3,35,0.00,,---,0.16,VWS V14.01,2013-04-05 16:43:00,
2013-04-05 12:44:00,57.2,29.8,29.97,NW,316,5.8,5.8,35,0.00,,---,0.16,VWS V14.01,2013-04-05 16:44:00,
2013-04-05 12:45:00,57.4,30.0,29.97,NW,319,3.1,3.1,35,0.00,,---,0.16,VWS V14.01,2013-04-05 16:45:00,
2013-04-05 12:46:00,57.4,30.0,29.97,ENE,57,5.8,5.8,35,0.00,,---,0.16,VWS V14.01,2013-04-05 16:46:00,
2013-04-05 12:47:00,57.4,30.0,29.97,North,4,8.3,8.3,35,0.00,,---,0.16,VWS V14.01,2013-04-05 16:47:00,
2013-04-05 12:48:00,57.4,30.0,29.97,North,9,8.3,8.3,35,0.00,,---,0.16,VWS V14.01,2013-04-05 16:48:00,
2013-04-05 12:49:00,57.6,30.1,29.97,North,357,8.7,8.7,35,0.00,,---,0.16,VWS V14.01,2013-04-05 16:49:00,
2013-04-05 12:50:00,57.7,30.3,29.97,NW,309,8.1,8.1,35,0.00,,---,0.16,VWS V14.01,2013-04-05 16:50:00,
2013-04-05 12:51:00,57.7,30.3,29.97,North,353,14.1,14.1,35,0.00,,---,0.16,VWS V14.01,2013-04-05 16:51:00,
2013-04-05 12:52:00,57.7,30.3,29.97,NNW,337,8.7,8.7,35,0.00,,---,0.16,VWS V14.01,2013-04-05 16:52:00,
2013-04-05 12:53:00,57.7,30.3,29.97,NE,50,4.0,4.0,35,0.00,,---,0.16,VWS V14.01,2013-04-05 16:53:00,
2013-04-05 12:54:00,57.6,30.1,29.97,NNW,343,12.8,12.8,35,0.00,,---,0.16,VWS V14.01,2013-04-05 16:54:00,
2013-04-05 12:55:00,57.7,30.3,29.97,NNW,336,8.7,8.7,35,0.00,,---,0.16,VWS V14.01,2013-04-05 16:55:00,
2013-04-05 12:56:00,57.6,30.1,29.97,NNW,330,13.2,13.2,35,0.00,,---,0.16,VWS V14.01,2013-04-05 16:56:00,
2013-04-05 12:57:00,57.6,30.1,29.97,NNW,333,10.5,10.5,35,0.00,,---,0.16,VWS V14.01,2013-04-05 16:57:00,
2013-04-05 12:58:00,57.7,30.3,29.97,North,357,8.1,8.1,35,0.00,,---,0.16,VWS V14.01,2013-04-05 16:58:00,
2013-04-05 12:59:00,57.6,30.1,29.97,North,349,2.7,2.7,35,0.00,,---,0.16,VWS V14.01,2013-04-05 16:59:00,
2013-04-05 13:00:00,57.6,30.1,29.97,NNE,26,12.3,12.3,35,0.00,,---,0.16,VWS V14.01,2013-04-05 17:00:00,
2013-04-05 13:01:00,57.6,30.1,29.97,NNE,27,10.1,10.1,35,0.00,,---,0.16,VWS V14.01,2013-04-05 17:01:00,
2013-04-05 13:02:00,57.7,30.3,29.97,NNW,335,7.2,7.2,35,0.00,,---,0.16,VWS V14.01,2013-04-05 17:02:00,
2013-04-05 13:03:00,57.7,30.3,29.97,NNE,17,5.8,5.8,35,0.00,,---,0.16,VWS V14.01,2013-04-05 17:03:00,
2013-04-05 13:04:00,57.7,30.3,29.97,North,357,5.4,5.4,35,0.00,,---,0.16,VWS V14.01,2013-04-05 17:04:00,
2013-04-05 13:05:00,57.9,30.5,29.97,NNW,340,8.1,8.1,35,0.00,,---,0.16,VWS V14.01,2013-04-05 17:05:00,
2013-04-05 13:06:00,57.9,30.5,29.97,NNE,32,12.3,12.3,35,0.00,,---,0.16,VWS V14.01,2013-04-05 17:06:00,
2013-04-05 13:07:00,58.1,30.6,29.97,North,9,5.8,5.8,35,0.00,,---,0.16,VWS V14.01,2013-04-05 17:07:00,
2013-04-05 13:08:00,58.1,30.6,29.97,NNW,331,5.4,5.4,35,0.00,,---,0.16,VWS V14.01,2013-04-05 17:08:00,
2013-04-05 13:09:00,58.1,30.6,29.97,NNW,341,4.9,4.9,35,0.00,,---,0.16,VWS V14.01,2013-04-05 17:09:00,
2013-04-05 13:10:00,58.3,30.8,29.97,NNE,27,8.1,8.1,35,0.00,,---,0.16,VWS V14.01,2013-04-05 17:10:00,
2013-04-05 13:11:00,58.3,30.8,29.97,NNE,14,10.1,10.1,35,0.00,,---,0.16,VWS V14.01,2013-04-05 17:11:00,
2013-04-05 13:12:00,58.1,30.6,29.97,NNW,340,4.0,4.0,35,0.00,,---,0.16,VWS V14.01,2013-04-05 17:12:00,
2013-04-05 13:13:00,58.1,30.6,29.97,NNW,344,8.1,8.1,35,0.00,,---,0.16,VWS V14.01,2013-04-05 17:13:00,
2013-04-05 13:14:00,58.3,30.8,29.97,NNE,23,8.7,8.7,35,0.00,,---,0.16,VWS V14.01,2013-04-05 17:14:00,
2013-04-05 13:15:00,58.5,30.9,29.97,NNE,22,6.3,6.3,35,0.00,,---,0.16,VWS V14.01,2013-04-05 17:15:00,
2013-04-05 13:16:00,58.5,30.9,29.97,NNW,345,8.3,8.3,35,0.00,,---,0.16,VWS V14.01,2013-04-05 17:16:00,
2013-04-05 13:17:00,58.5,30.9,29.97,North,0,5.8,5.8,35,0.00,,---,0.16,VWS V14.01,2013-04-05 17:17:00,
2013-04-05 13:18:00,58.5,30.9,29.97,NNW,343,5.8,5.8,35,0.00,,---,0.16,VWS V14.01,2013-04-05 17:18:00,
2013-04-05 13:19:00,58.5,30.9,29.97,NNW,343,2.2,2.2,35,0.00,,---,0.16,VWS V14.01,2013-04-05 17:19:00,
2013-04-05 13:20:00,58.5,30.9,29.97,North,3,0.0,0.0,35,0.00,,---,0.16,VWS V14.01,2013-04-05 17:20:00,
2013-04-05 13:21:00,58.6,31.1,29.97,NNW,333,0.0,0.0,35,0.00,,---,0.16,VWS V14.01,2013-04-05 17:21:00,
2013-04-05 13:22:00,58.8,31.2,29.97,North,1,10.1,10.1,35,0.00,,---,0.16,VWS V14.01,2013-04-05 17:22:00,
2013-04-05 13:23:00,58.8,31.2,29.97,North,357,7.2,7.2,35,0.00,,---,0.16,VWS V14.01,2013-04-05 17:23:00,
2013-04-05 13:24:00,58.8,31.2,29.97,NNE,29,6.3,6.3,35,0.00,,---,0.16,VWS V14.01,2013-04-05 17:24:00,
2013-04-05 13:25:00,58.8,31.2,29.97,North,357,6.3,6.3,35,0.00,,---,0.16,VWS V14.01,2013-04-05 17:25:00,
2013-04-05 13:26:00,58.8,31.2,29.97,NNW,334,7.6,7.6,35,0.00,,---,0.16,VWS V14.01,2013-04-05 17:26:00,
2013-04-05 13:27:00,58.8,31.2,29.97,NNE,19,3.6,3.6,35,0.00,,---,0.16,VWS V14.01,2013-04-05 17:27:00,
2013-04-05 13:28:00,58.8,31.2,29.97,NNW,344,3.1,3.1,35,0.00,,---,0.16,VWS V14.01,2013-04-05 17:28:00,
2013-04-05 13:29:00,59.0,31.4,29.97,NNE,13,4.0,4.0,35,0.00,,---,0.16,VWS V14.01,2013-04-05 17:29:00,
2013-04-05 13:30:00,59.0,31.4,29.97,North,0,8.3,8.3,35,0.00,,---,0.16,VWS V14.01,2013-04-05 17:30:00,
2013-04-05 13:31:00,59.0,31.4,29.97,NE,50,6.3,6.3,35,0.00,,---,0.16,VWS V14.01,2013-04-05 17:31:00,
2013-04-05 13:32:00,59.2,31.6,29.97,NW,318,8.7,8.7,35,0.00,,---,0.16,VWS V14.01,2013-04-05 17:32:00,
2013-04-05 13:33:00,59.2,31.6,29.97,NW,322,8.1,8.1,35,0.00,,---,0.16,VWS V14.01,2013-04-05 17:33:00,
2013-04-05 13:34:00,59.4,31.7,29.97,West,275,8.1,8.1,35,0.00,,---,0.16,VWS V14.01,2013-04-05 17:34:00,
2013-04-05 13:35:00,59.4,31.7,29.97,NNW,333,7.6,7.6,35,0.00,,---,0.16,VWS V14.01,2013-04-05 17:35:00,
2013-04-05 13:36:00,59.5,31.9,29.97,NW,322,10.1,10.1,35,0.00,,---,0.16,VWS V14.01,2013-04-05 17:36:00,
2013-04-05 13:37:00,59.7,32.0,29.97,North,353,8.7,8.7,35,0.00,,---,0.16,VWS V14.01,2013-04-05 17:37:00,
2013-04-05 13:38:00,59.7,32.0,29.97,North,350,5.4,5.4,35,0.00,,---,0.16,VWS V14.01,2013-04-05 17:38:00,
2013-04-05 13:39:00,60.1,32.4,29.97,NNW,341,5.4,5.4,35,0.00,,---,0.16,VWS V14.01,2013-04-05 17:39:00,
2013-04-05 13:40:00,60.1,32.4,29.97,West,274,6.3,6.3,35,0.00,,---,0.16,VWS V14.01,2013-04-05 17:40:00,
2013-04-05 13:41:00,60.1,32.4,29.97,NNW,346,4.0,4.0,35,0.00,,---,0.16,VWS V14.01,2013-04-05 17:41:00,
2013-04-05 13:42:00,60.4,32.7,29.94,North,349,8.1,8.1,35,0.00,,---,0.16,VWS V14.01,2013-04-05 17:42:00,
2013-04-05 13:43:00,60.4,32.7,29.94,North,3,8.1,8.1,35,0.00,,---,0.16,VWS V14.01,2013-04-05 17:43:00,
2013-04-05 13:44:00,60.4,32.7,29.94,NNE,23,8.3,8.3,35,0.00,,---,0.16,VWS V14.01,2013-04-05 17:44:00,
2013-04-05 13:45:00,60.4,32.7,29.94,North,5,7.6,7.6,35,0.00,,---,0.16,VWS V14.01,2013-04-05 17:45:00,
2013-04-05 13:46:00,60.6,32.8,29.94,NW,311,0.0,0.0,35,0.00,,---,0.16,VWS V14.01,2013-04-05 17:46:00,
2013-04-05 13:47:00,60.6,32.8,29.94,NE,37,3.6,3.6,35,0.00,,---,0.16,VWS V14.01,2013-04-05 17:47:00,
2013-04-05 13:48:00,60.6,32.8,29.94,NNE,33,5.4,5.4,35,0.00,,---,0.16,VWS V14.01,2013-04-05 17:48:00,
2013-04-05 13:49:00,60.6,32.8,29.94,NNW,334,3.1,3.1,35,0.00,,---,0.16,VWS V14.01,2013-04-05 17:49:00,
2013-04-05 13:50:00,60.6,32.8,29.94,NNE,14,0.0,0.0,35,0.00,,---,0.16,VWS V14.01,2013-04-05 17:50:00,
2013-04-05 13:51:00,60.6,32.8,29.94,ENE,63,0.0,0.0,35,0.00,,---,0.16,VWS V14.01,2013-04-05 17:51:00,
2013-04-05 13:52:00,60.6,32.8,29.94,NNW,335,0.0,0.0,35,0.00,,---,0.16,VWS V14.01,2013-04-05 17:52:00,
2013-04-05 13:53:00,60.6,32.8,29.94,NNW,335,0.0,0.0,35,0.00,,---,0.16,VWS V14.01,2013-04-05 17:53:00,
2013-04-05 13:54:00,60.6,32.8,29.94,NNW,344,8.3,8.3,35,0.00,,---,0.16,VWS V14.01,2013-04-05 17:54:00,
2013-04-05 13:55:00,60.6,32.8,29.94,West,269,3.6,3.6,35,0.00,,---,0.16,VWS V14.01,2013-04-05 17:55:00,
2013-04-05 13:56:00,60.6,32.8,29.94,WNW,292,6.3,6.3,35,0.00,,---,0.16,VWS V14.01,2013-04-05 17:56:00,
2013-04-05 13:57:00,60.6,32.8,29.97,West,274,6.3,6.3,35,0.00,,---,0.16,VWS V14.01,2013-04-05 17:57:00,
2013-04-05 13:58:00,60.6,32.8,29.97,West,274,6.3,6.3,35,0.00,,---,0.16,VWS V14.01,2013-04-05 17:58:00,
2013-04-05 13:59:00,60.6,32.8,29.97,South,186,3.6,3.6,35,0.00,,---,0.16,VWS V14.01,2013-04-05 17:59:00,
2013-04-05 14:00:00,60.6,32.8,29.97,East,97,0.0,0.0,35,0.00,,---,0.16,VWS V14.01,2013-04-05 18:00:00,
2013-04-05 14:01:00,60.6,32.8,29.97,WNW,283,0.0,0.0,35,0.00,,---,0.16,VWS V14.01,2013-04-05 18:01:00,
2013-04-05 14:02:00,60.6,32.8,29.97,West,280,5.8,5.8,35,0.00,,---,0.16,VWS V14.01,2013-04-05 18:02:00,
2013-04-05 14:03:00,60.6,32.8,29.97,NW,313,5.8,5.8,35,0.00,,---,0.16,VWS V14.01,2013-04-05 18:03:00,
2013-04-05 14:04:00,60.6,32.8,29.97,NNW,335,7.6,7.6,35,0.00,,---,0.16,VWS V14.01,2013-04-05 18:04:00,
2013-04-05 14:05:00,60.6,32.8,29.97,North,0,2.7,2.7,35,0.00,,---,0.16,VWS V14.01,2013-04-05 18:05:00,
2013-04-05 14:06:00,60.6,32.8,29.97,NNE,15,3.1,3.1,35,0.00,,---,0.16,VWS V14.01,2013-04-05 18:06:00,
2013-04-05 14:07:00,60.6,32.8,29.97,West,267,0.0,0.0,35,0.00,,---,0.16,VWS V14.01,2013-04-05 18:07:00,
2013-04-05 14:08:00,60.6,32.8,29.97,West,267,0.0,0.0,35,0.00,,---,0.16,VWS V14.01,2013-04-05 18:08:00,
2013-04-05 14:09:00,60.6,32.8,29.97,West,259,0.0,0.0,35,0.00,,---,0.16,VWS V14.01,2013-04-05 18:09:00,
2013-04-05 14:10:00,60.8,32.3,29.97,SSE,167,0.0,0.0,34,0.00,,---,0.16,VWS V14.01,2013-04-05 18:10:00,
2013-04-05 14:11:00,60.8,32.3,29.97,SE,141,0.0,0.0,34,0.00,,---,0.16,VWS V14.01,2013-04-05 18:11:00,
2013-04-05 14:12:00,61.0,32.4,29.94,ENE,66,0.0,0.0,34,0.00,,---,0.16,VWS V14.01,2013-04-05 18:12:00,
2013-04-05 14:13:00,61.0,32.4,29.94,ENE,66,0.0,0.0,34,0.00,,---,0.16,VWS V14.01,2013-04-05 18:13:00,
2013-04-05 14:14:00,61.2,32.6,29.94,North,353,5.8,5.8,34,0.00,,---,0.16,VWS V14.01,2013-04-05 18:14:00,
2013-04-05 14:15:00,61.3,32.8,29.94,NNW,328,8.1,8.1,34,0.00,,---,0.16,VWS V14.01,2013-04-05 18:15:00,
2013-04-05 14:16:00,61.3,32.8,29.94,NW,315,0.0,0.0,34,0.00,,---,0.16,VWS V14.01,2013-04-05 18:16:00,
2013-04-05 14:17:00,61.3,32.8,29.94,WNW,294,4.9,4.9,34,0.00,,---,0.16,VWS V14.01,2013-04-05 18:17:00,
2013-04-05 14:18:00,61.5,32.9,29.94,NW,316,0.0,0.0,34,0.00,,---,0.16,VWS V14.01,2013-04-05 18:18:00,
2013-04-05 14:19:00,61.7,33.1,29.94,NW,314,0.0,0.0,34,0.00,,---,0.16,VWS V14.01,2013-04-05 18:19:00,
2013-04-05 14:20:00,61.9,33.2,29.94,NNE,31,2.7,2.7,34,0.00,,---,0.16,VWS V14.01,2013-04-05 18:20:00,
2013-04-05 14:21:00,61.9,33.2,29.94,WNW,302,6.3,6.3,34,0.00,,---,0.16,VWS V14.01,2013-04-05 18:21:00,
2013-04-05 14:22:00,61.9,33.2,29.94,West,271,4.9,4.9,34,0.00,,---,0.16,VWS V14.01,2013-04-05 18:22:00,
2013-04-05 14:23:00,62.1,33.4,29.94,WNW,292,5.4,5.4,34,0.00,,---,0.16,VWS V14.01,2013-04-05 18:23:00,
2013-04-05 14:24:00,62.2,33.5,29.94,SW,218,2.7,2.7,34,0.00,,---,0.16,VWS V14.01,2013-04-05 18:24:00,
2013-04-05 14:25:00,62.2,33.5,29.94,WSW,255,5.8,5.8,34,0.00,,---,0.16,VWS V14.01,2013-04-05 18:25:00,
2013-04-05 14:26:00,62.2,33.5,29.94,WSW,251,5.4,5.4,34,0.00,,---,0.16,VWS V14.01,2013-04-05 18:26:00,
2013-04-05 14:27:00,62.4,33.7,29.94,West,259,7.6,7.6,34,0.00,,---,0.16,VWS V14.01,2013-04-05 18:27:00,
2013-04-05 14:28:00,62.6,33.9,29.94,NW,312,5.8,5.8,34,0.00,,---,0.16,VWS V14.01,2013-04-05 18:28:00,
2013-04-05 14:29:00,62.6,33.9,29.94,West,271,8.7,8.7,34,0.00,,---,0.16,VWS V14.01,2013-04-05 18:29:00,
2013-04-05 14:30:00,62.8,34.0,29.94,NNW,341,10.1,10.1,34,0.00,,---,0.16,VWS V14.01,2013-04-05 18:30:00,
2013-04-05 14:31:00,62.8,34.0,29.94,North,353,9.2,9.2,34,0.00,,---,0.16,VWS V14.01,2013-04-05 18:31:00,
2013-04-05 14:32:00,62.8,34.0,29.94,NNW,339,8.3,8.3,34,0.00,,---,0.16,VWS V14.01,2013-04-05 18:32:00,
2013-04-05 14:33:00,62.8,34.0,29.94,North,353,4.0,4.0,34,0.00,,---,0.16,VWS V14.01,2013-04-05 18:33:00,
2013-04-05 14:34:00,62.8,34.0,29.94,North,353,4.0,4.0,34,0.00,,---,0.16,VWS V14.01,2013-04-05 18:34:00,
2013-04-05 14:35:00,62.6,33.9,29.94,North,349,0.0,0.0,34,0.00,,---,0.16,VWS V14.01,2013-04-05 18:35:00,
2013-04-05 14:36:00,62.6,33.9,29.94,NNW,331,10.1,10.1,34,0.00,,---,0.16,VWS V14.01,2013-04-05 18:36:00,
2013-04-05 14:37:00,62.6,33.9,29.94,NNW,329,5.8,5.8,34,0.00,,---,0.16,VWS V14.01,2013-04-05 18:37:00,
2013-04-05 14:38:00,62.6,33.9,29.94,NNE,21,4.0,4.0,34,0.00,,---,0.16,VWS V14.01,2013-04-05 18:38:00,
2013-04-05 14:39:00,62.6,33.9,29.94,NNE,21,6.3,6.3,34,0.00,,---,0.16,VWS V14.01,2013-04-05 18:39:00,
2013-04-05 14:40:00,62.4,33.7,29.94,NNE,21,7.6,7.6,34,0.00,,---,0.16,VWS V14.01,2013-04-05 18:40:00,
2013-04-05 14:41:00,62.6,33.9,29.94,North,357,6.3,6.3,34,0.00,,---,0.16,VWS V14.01,2013-04-05 18:41:00,
2013-04-05 14:42:00,62.6,33.9,29.94,NNE,23,3.1,3.1,34,0.00,,---,0.16,VWS V14.01,2013-04-05 18:42:00,
2013-04-05 14:43:00,62.6,33.9,29.94,NNE,14,3.1,3.1,34,0.00,,---,0.16,VWS V14.01,2013-04-05 18:43:00,
2013-04-05 14:44:00,62.6,33.9,29.94,NE,38,3.1,3.1,34,0.00,,---,0.16,VWS V14.01,2013-04-05 18:44:00,
2013-04-05 14:45:00,62.8,34.0,29.94,NNW,341,6.3,6.3,34,0.00,,---,0.16,VWS V14.01,2013-04-05 18:45:00,
2013-04-05 14:46:00,62.8,34.0,29.94,NNW,330,5.8,5.8,34,0.00,,---,0.16,VWS V14.01,2013-04-05 18:46:00,
2013-04-05 14:47:00,63.0,34.2,29.94,NNE,15,3.1,3.1,34,0.00,,---,0.16,VWS V14.01,2013-04-05 18:47:00,
2013-04-05 14:48:00,63.0,34.2,29.94,NW,313,7.6,7.6,34,0.00,,---,0.16,VWS V14.01,2013-04-05 18:48:00,
2013-04-05 14:49:00,63.1,34.3,29.94,NNW,328,0.0,0.0,34,0.00,,---,0.16,VWS V14.01,2013-04-05 18:49:00,
2013-04-05 14:50:00,63.0,34.2,29.94,North,4,0.0,0.0,34,0.00,,---,0.16,VWS V14.01,2013-04-05 18:50:00,
2013-04-05 14:51:00,63.1,34.3,29.94,NNE,18,5.8,5.8,34,0.00,,---,0.16,VWS V14.01,2013-04-05 18:51:00,
2013-04-05 14:52:00,63.3,34.5,29.94,NNW,336,9.2,9.2,34,0.00,,---,0.16,VWS V14.01,2013-04-05 18:52:00,
2013-04-05 14:53:00,63.5,34.7,29.94,North,0,8.1,8.1,34,0.00,,---,0.16,VWS V14.01,2013-04-05 18:53:00,
2013-04-05 14:54:00,63.5,34.7,29.94,NNE,15,6.3,6.3,34,0.00,,---,0.16,VWS V14.01,2013-04-05 18:54:00,
2013-04-05 14:55:00,63.5,34.7,29.94,NNW,333,5.4,5.4,34,0.00,,---,0.16,VWS V14.01,2013-04-05 18:55:00,
2013-04-05 14:56:00,63.5,34.7,29.94,NE,35,5.4,5.4,34,0.00,,---,0.16,VWS V14.01,2013-04-05 18:56:00,
2013-04-05 14:57:00,63.7,34.8,29.94,NW,326,5.8,5.8,34,0.00,,---,0.16,VWS V14.01,2013-04-05 18:57:00,
2013-04-05 14:58:00,63.7,34.8,29.94,NNW,330,8.3,8.3,34,0.00,,---,0.16,VWS V14.01,2013-04-05 18:58:00,
2013-04-05 14:59:00,63.7,34.8,29.94,North,349,7.6,7.6,34,0.00,,---,0.16,VWS V14.01,2013-04-05 18:59:00,
2013-04-05 15:00:00,63.9,35.0,29.94,NNE,19,5.4,5.4,34,0.00,,---,0.16,VWS V14.01,2013-04-05 19:00:00,
2013-04-05 15:01:00,63.9,35.0,29.94,NNW,340,5.8,5.8,34,0.00,,---,0.16,VWS V14.01,2013-04-05 19:01:00,
2013-04-05 15:02:00,63.9,35.0,29.94,North,0,6.3,6.3,34,0.00,,---,0.16,VWS V14.01,2013-04-05 19:02:00,
2013-04-05 15:03:00,63.7,34.8,29.94,NE,41,7.6,7.6,34,0.00,,---,0.16,VWS V14.01,2013-04-05 19:03:00,
2013-04-05 15:04:00,63.5,34.7,29.94,NE,40,7.6,7.6,34,0.00,,---,0.16,VWS V14.01,2013-04-05 19:04:00,
2013-04-05 15:05:00,63.5,34.7,29.94,NNE,14,3.6,3.6,34,0.00,,---,0.16,VWS V14.01,2013-04-05 19:05:00,
2013-04-05 15:06:00,63.5,34.7,29.94,NE,48,3.1,3.1,34,0.00,,---,0.16,VWS V14.01,2013-04-05 19:06:00,
2013-04-05 15:07:00,63.3,34.5,29.94,NE,47,0.0,0.0,34,0.00,,---,0.16,VWS V14.01,2013-04-05 19:07:00,
2013-04-05 15:08:00,63.5,34.7,29.94,North,353,5.4,5.4,34,0.00,,---,0.16,VWS V14.01,2013-04-05 19:08:00,
2013-04-05 15:09:00,63.5,34.7,29.94,North,353,8.7,8.7,34,0.00,,---,0.16,VWS V14.01,2013-04-05 19:09:00,
2013-04-05 15:10:00,63.5,34.7,29.94,West,273,7.6,7.6,34,0.00,,---,0.16,VWS V14.01,2013-04-05 19:10:00,
2013-04-05 15:11:00,63.5,34.7,29.94,NNW,332,3.1,3.1,34,0.00,,---,0.16,VWS V14.01,2013-04-05 19:11:00,
2013-04-05 15:12:00,63.5,34.7,29.94,NW,323,3.6,3.6,34,0.00,,---,0.16,VWS V14.01,2013-04-05 19:12:00,
2013-04-05 15:13:00,63.5,34.7,29.94,NW,321,8.7,8.7,34,0.00,,---,0.16,VWS V14.01,2013-04-05 19:13:00,
2013-04-05 15:14:00,63.7,34.8,29.94,NW,312,4.9,4.9,34,0.00,,---,0.16,VWS V14.01,2013-04-05 19:14:00,
2013-04-05 15:15:00,63.9,35.0,29.94,West,260,2.7,2.7,34,0.00,,---,0.16,VWS V14.01,2013-04-05 19:15:00,
2013-04-05 15:16:00,63.9,35.0,29.94,NW,315,7.6,7.6,34,0.00,,---,0.16,VWS V14.01,2013-04-05 19:16:00,
2013-04-05 15:17:00,64.0,35.1,29.94,North,357,6.3,6.3,34,0.00,,---,0.16,VWS V14.01,2013-04-05 19:17:00,
2013-04-05 15:18:00,64.0,35.1,29.94,NW,310,6.3,6.3,34,0.00,,---,0.16,VWS V14.01,2013-04-05 19:18:00,
2013-04-05 15:19:00,64.2,35.3,29.94,North,350,5.4,5.4,34,0.00,,---,0.16,VWS V14.01,2013-04-05 19:19:00,
2013-04-05 15:20:00,64.2,35.3,29.94,NNW,346,6.3,6.3,34,0.00,,---,0.16,VWS V14.01,2013-04-05 19:20:00,
2013-04-05 15:21:00,64.2,35.3,29.94,West,261,3.1,3.1,34,0.00,,---,0.16,VWS V14.01,2013-04-05 19:21:00,
2013-04-05 15:22:00,64.2,35.3,29.94,NW,322,4.0,4.0,34,0.00,,---,0.16,VWS V14.01,2013-04-05 19:22:00,
2013-04-05 15:23:00,64.2,35.3,29.94,West,260,5.8,5.8,34,0.00,,---,0.16,VWS V14.01,2013-04-05 19:23:00,
2013-04-05 15:24:00,64.2,35.3,29.94,North,6,8.3,8.3,34,0.00,,---,0.16,VWS V14.01,2013-04-05 19:24:00,
2013-04-05 15:25:00,64.4,34.7,29.94,NNW,339,7.6,7.6,33,0.00,,---,0.16,VWS V14.01,2013-04-05 19:25:00,
2013-04-05 15:26:00,64.4,34.7,29.94,NNW,346,8.3,8.3,33,0.00,,---,0.16,VWS V14.01,2013-04-05 19:26:00,
2013-04-05 15:27:00,64.4,34.7,29.94,NNW,339,11.0,11.0,33,0.00,,---,0.16,VWS V14.01,2013-04-05 19:27:00,
2013-04-05 15:28:00,64.2,35.3,29.94,North,357,5.4,5.4,34,0.00,,---,0.16,VWS V14.01,2013-04-05 19:28:00,
2013-04-05 15:29:00,64.4,34.7,29.94,NNW,335,5.8,5.8,33,0.00,,---,0.16,VWS V14.01,2013-04-05 19:29:00,
2013-04-05 15:30:00,64.2,35.3,29.94,North,353,0.0,0.0,34,0.00,,---,0.16,VWS V14.01,2013-04-05 19:30:00,
2013-04-05 15:31:00,64.2,35.3,29.94,NE,51,2.7,2.7,34,0.00,,---,0.16,VWS V14.01,2013-04-05 19:31:00,
2013-04-05 15:32:00,64.2,35.3,29.94,NW,323,0.0,0.0,34,0.00,,---,0.16,VWS V14.01,2013-04-05 19:32:00,
2013-04-05 15:33:00,64.2,35.3,29.94,NW,318,3.6,3.6,34,0.00,,---,0.16,VWS V14.01,2013-04-05 19:33:00,
2013-04-05 15:34:00,64.2,35.3,29.94,North,7,3.1,3.1,34,0.00,,---,0.16,VWS V14.01,2013-04-05 19:34:00,
2013-04-05 15:35:00,64.2,35.3,29.94,NW,323,4.0,4.0,34,0.00,,---,0.16,VWS V14.01,2013-04-05 19:35:00,
2013-04-05 15:36:00,64.2,35.3,29.94,WNW,303,5.8,5.8,34,0.00,,---,0.16,VWS V14.01,2013-04-05 19:36:00,
2013-04-05 15:37:00,64.4,34.7,29.94,NW,313,8.3,8.3,33,0.00,,---,0.16,VWS V14.01,2013-04-05 19:37:00,
2013-04-05 15:38:00,64.4,34.7,29.94,West,276,3.1,3.1,33,0.00,,---,0.16,VWS V14.01,2013-04-05 19:38:00,
2013-04-05 15:39:00,64.4,34.7,29.94,NW,317,5.8,5.8,33,0.00,,---,0.16,VWS V14.01,2013-04-05 19:39:00,
2013-04-05 15:40:00,64.6,34.8,29.94,NNW,335,10.5,10.5,33,0.00,,---,0.16,VWS V14.01,2013-04-05 19:40:00,
2013-04-05 15:41:00,64.6,34.8,29.94,NNW,338,10.5,10.5,33,0.00,,---,0.16,VWS V14.01,2013-04-05 19:41:00,
2013-04-05 15:42:00,64.6,34.8,29.94,North,353,9.2,9.2,33,0.00,,---,0.16,VWS V14.01,2013-04-05 19:42:00,
2013-04-05 15:43:00,64.4,34.7,29.94,North,349,8.3,8.3,33,0.00,,---,0.16,VWS V14.01,2013-04-05 19:43:00,
2013-04-05 15:44:00,64.4,34.7,29.94,NNW,335,6.3,6.3,33,0.00,,---,0.16,VWS V14.01,2013-04-05 19:44:00,
2013-04-05 15:45:00,64.2,35.3,29.94,NNW,342,7.6,7.6,34,0.00,,---,0.16,VWS V14.01,2013-04-05 19:45:00,
2013-04-05 15:46:00,64.2,35.3,29.94,NNW,329,10.5,10.5,34,0.00,,---,0.16,VWS V14.01,2013-04-05 19:46:00,
2013-04-05 15:47:00,64.4,34.7,29.94,North,350,8.3,8.3,33,0.00,,---,0.16,VWS V14.01,2013-04-05 19:47:00,
2013-04-05 15:48:00,64.2,35.3,29.94,North,357,8.1,8.1,34,0.00,,---,0.16,VWS V14.01,2013-04-05 19:48:00,
2013-04-05 15:49:00,64.2,35.3,29.94,NNW,342,8.1,8.1,34,0.00,,---,0.16,VWS V14.01,2013-04-05 19:49:00,
2013-04-05 15:50:00,64.2,35.3,29.94,NW,323,10.5,10.5,34,0.00,,---,0.16,VWS V14.01,2013-04-05 19:50:00,
2013-04-05 15:51:00,64.0,35.1,29.94,NW,313,5.4,5.4,34,0.00,,---,0.16,VWS V14.01,2013-04-05 19:51:00,
2013-04-05 15:52:00,64.0,35.1,29.94,North,353,6.3,6.3,34,0.00,,---,0.16,VWS V14.01,2013-04-05 19:52:00,
2013-04-05 15:53:00,64.0,35.1,29.94,WNW,290,5.8,5.8,34,0.00,,---,0.16,VWS V14.01,2013-04-05 19:53:00,
2013-04-05 15:54:00,64.2,35.3,29.94,NW,311,8.1,8.1,34,0.00,,---,0.16,VWS V14.01,2013-04-05 19:54:00,
2013-04-05 15:55:00,64.0,35.1,29.94,NNW,334,0.0,0.0,34,0.00,,---,0.16,VWS V14.01,2013-04-05 19:55:00,
2013-04-05 15:56:00,64.4,34.7,29.94,WNW,287,0.0,0.0,33,0.00,,---,0.16,VWS V14.01,2013-04-05 19:56:00,
2013-04-05 15:57:00,64.4,34.7,29.94,WNW,292,0.0,0.0,33,0.00,,---,0.16,VWS V14.01,2013-04-05 19:57:00,
2013-04-05 15:58:00,64.6,34.8,29.94,NW,305,0.0,0.0,33,0.00,,---,0.16,VWS V14.01,2013-04-05 19:58:00,
2013-04-05 15:59:00,64.8,35.0,29.94,WNW,293,5.4,5.4,33,0.00,,---,0.16,VWS V14.01,2013-04-05 19:59:00,
2013-04-05 16:00:00,64.8,35.0,29.94,West,279,2.7,2.7,33,0.00,,---,0.16,VWS V14.01,2013-04-05 20:00:00,
2013-04-05 16:01:00,64.9,35.2,29.94,WNW,293,12.8,12.8,33,0.00,,---,0.16,VWS V14.01,2013-04-05 20:01:00,
2013-04-05 16:02:00,65.1,35.3,29.94,West,276,13.2,13.2,33,0.00,,---,0.16,VWS V14.01,2013-04-05 20:02:00,
2013-04-05 16:03:00,65.3,35.5,29.94,NNW,327,8.3,8.3,33,0.00,,---,0.16,VWS V14.01,2013-04-05 20:03:00,
2013-04-05 16:04:00,65.3,35.5,29.94,NNW,345,7.6,7.6,33,0.00,,---,0.16,VWS V14.01,2013-04-05 20:04:00,
2013-04-05 16:05:00,65.3,35.5,29.94,NW,311,5.4,5.4,33,0.00,,---,0.16,VWS V14.01,2013-04-05 20:05:00,
2013-04-05 16:06:00,65.3,35.5,29.94,North,0,5.4,5.4,33,0.00,,---,0.16,VWS V14.01,2013-04-05 20:06:00,
2013-04-05 16:07:00,65.3,35.5,29.94,North,353,7.6,7.6,33,0.00,,---,0.16,VWS V14.01,2013-04-05 20:07:00,
2013-04-05 16:08:00,65.3,35.5,29.94,NNW,333,2.7,2.7,33,0.00,,---,0.16,VWS V14.01,2013-04-05 20:08:00,
2013-04-05 16:09:00,65.3,35.5,29.94,WNW,297,8.1,8.1,33,0.00,,---,0.16,VWS V14.01,2013-04-05 20:09:00,
2013-04-05 16:10:00,65.1,35.3,29.94,West,273,5.4,5.4,33,0.00,,---,0.16,VWS V14.01,2013-04-05 20:10:00,
2013-04-05 16:11:00,65.1,35.3,29.94,NW,326,5.8,5.8,33,0.00,,---,0.16,VWS V14.01,2013-04-05 20:11:00,
2013-04-05 16:12:00,65.3,35.5,29.94,West,275,5.4,5.4,33,0.00,,---,0.16,VWS V14.01,2013-04-05 20:12:00,
2013-04-05 16:13:00,65.3,35.5,29.91,WNW,298,5.8,5.8,33,0.00,,---,0.16,VWS V14.01,2013-04-05 20:13:00,
2013-04-05 16:14:00,65.3,35.5,29.91,WSW,256,4.9,4.9,33,0.00,,---,0.16,VWS V14.01,2013-04-05 20:14:00,
2013-04-05 16:15:00,65.3,35.5,29.91,SSW,203,2.7,2.7,33,0.00,,---,0.16,VWS V14.01,2013-04-05 20:15:00,
2013-04-05 16:16:00,65.3,35.5,29.91,NW,324,0.0,0.0,33,0.00,,---,0.16,VWS V14.01,2013-04-05 20:16:00,
2013-04-05 16:17:00,65.5,35.6,29.91,North,2,0.0,0.0,33,0.00,,---,0.16,VWS V14.01,2013-04-05 20:17:00,
2013-04-05 16:18:00,65.5,35.6,29.91,North,357,5.8,5.8,33,0.00,,---,0.16,VWS V14.01,2013-04-05 20:18:00,
2013-04-05 16:19:00,65.5,35.6,29.91,NNW,345,5.4,5.4,33,0.00,,---,0.16,VWS V14.01,2013-04-05 20:19:00,
2013-04-05 16:20:00,65.5,35.6,29.91,NW,312,6.3,6.3,33,0.00,,---,0.16,VWS V14.01,2013-04-05 20:20:00,
2013-04-05 16:21:00,65.5,35.6,29.91,WNW,294,7.6,7.6,33,0.00,,---,0.16,VWS V14.01,2013-04-05 20:21:00,
2013-04-05 16:22:00,65.5,35.6,29.91,NNW,340,7.6,7.6,33,0.00,,---,0.16,VWS V14.01,2013-04-05 20:22:00,
2013-04-05 16:23:00,65.5,35.6,29.91,NE,34,10.5,10.5,33,0.00,,---,0.16,VWS V14.01,2013-04-05 20:23:00,
2013-04-05 16:24:00,65.5,35.6,29.91,NNW,340,5.4,5.4,33,0.00,,---,0.16,VWS V14.01,2013-04-05 20:24:00,
2013-04-05 16:25:00,65.5,35.6,29.91,NNE,22,4.9,4.9,33,0.00,,---,0.16,VWS V14.01,2013-04-05 20:25:00,
2013-04-05 16:26:00,65.3,35.5,29.91,NNW,345,5.4,5.4,33,0.00,,---,0.16,VWS V14.01,2013-04-05 20:26:00,
2013-04-05 16:27:00,65.3,35.5,29.91,North,8,10.1,10.1,33,0.00,,---,0.16,VWS V14.01,2013-04-05 20:27:00,
2013-04-05 16:28:00,65.3,35.5,29.91,North,0,10.5,10.5,33,0.00,,---,0.16,VWS V14.01,2013-04-05 20:28:00,
2013-04-05 16:29:00,65.1,35.3,29.91,NNW,340,8.7,8.7,33,0.00,,---,0.16,VWS V14.01,2013-04-05 20:29:00,
2013-04-05 16:30:00,65.1,35.3,29.91,NNW,344,7.2,7.2,33,0.00,,---,0.16,VWS V14.01,2013-04-05 20:30:00,
2013-04-05 16:31:00,65.1,35.3,29.91,NNW,331,8.3,8.3,33,0.00,,---,0.16,VWS V14.01,2013-04-05 20:31:00,
2013-04-05 16:32:00,64.9,35.2,29.91,NNW,343,8.1,8.1,33,0.00,,---,0.16,VWS V14.01,2013-04-05 20:32:00,
2013-04-05 16:33:00,64.9,35.2,29.91,North,0,5.4,5.4,33,0.00,,---,0.16,VWS V14.01,2013-04-05 20:33:00,
2013-04-05 16:34:00,64.8,35.0,29.91,NNW,329,0.0,0.0,33,0.00,,---,0.16,VWS V14.01,2013-04-05 20:34:00,
2013-04-05 16:35:00,64.8,35.0,29.91,NW,304,4.0,4.0,33,0.00,,---,0.16,VWS V14.01,2013-04-05 20:35:00,
2013-04-05 16:36:00,64.8,35.0,29.91,NW,321,0.0,0.0,33,0.00,,---,0.16,VWS V14.01,2013-04-05 20:36:00,
2013-04-05 16:37:00,64.8,35.0,29.91,NW,316,3.6,3.6,33,0.00,,---,0.16,VWS V14.01,2013-04-05 20:37:00,
2013-04-05 16:38:00,64.9,35.2,29.91,WNW,302,4.9,4.9,33,0.00,,---,0.16,VWS V14.01,2013-04-05 20:38:00,
2013-04-05 16:39:00,65.1,35.3,29.91,NNW,338,0.0,0.0,33,0.00,,---,0.16,VWS V14.01,2013-04-05 20:39:00,
2013-04-05 16:40:00,65.1,35.3,29.91,West,270,6.3,6.3,33,0.00,,---,0.16,VWS V14.01,2013-04-05 20:40:00,
2013-04-05 16:41:00,65.3,35.5,29.91,NNW,342,5.8,5.8,33,0.00,,---,0.16,VWS V14.01,2013-04-05 20:41:00,
2013-04-05 16:42:00,65.5,35.6,29.91,NNW,342,5.8,5.8,33,0.00,,---,0.16,VWS V14.01,2013-04-05 20:42:00,
2013-04-05 16:43:00,65.5,35.6,29.91,NNW,328,10.5,10.5,33,0.00,,---,0.16,VWS V14.01,2013-04-05 20:43:00,
2013-04-05 16:44:00,65.5,35.6,29.91,NNE,20,5.4,5.4,33,0.00,,---,0.16,VWS V14.01,2013-04-05 20:44:00,
2013-04-05 16:45:00,65.5,35.6,29.91,NW,326,6.3,6.3,33,0.00,,---,0.16,VWS V14.01,2013-04-05 20:45:00,
2013-04-05 16:46:00,65.5,35.6,29.91,NW,310,3.1,3.1,33,0.00,,---,0.16,VWS V14.01,2013-04-05 20:46:00,
2013-04-05 16:47:00,65.3,35.5,29.91,WNW,286,7.6,7.6,33,0.00,,---,0.16,VWS V14.01,2013-04-05 20:47:00,
2013-04-05 16:48:00,65.3,35.5,29.91,WNW,303,7.6,7.6,33,0.00,,---,0.16,VWS V14.01,2013-04-05 20:48:00,
2013-04-05 16:49:00,65.5,35.6,29.91,WNW,295,5.8,5.8,33,0.00,,---,0.16,VWS V14.01,2013-04-05 20:49:00,
2013-04-05 16:50:00,65.5,35.6,29.91,NW,304,10.1,10.1,33,0.00,,---,0.16,VWS V14.01,2013-04-05 20:50:00,
2013-04-05 16:51:00,65.5,35.6,29.91,West,271,4.9,4.9,33,0.00,,---,0.16,VWS V14.01,2013-04-05 20:51:00,
2013-04-05 16:52:00,65.5,35.6,29.91,WNW,298,5.8,5.8,33,0.00,,---,0.16,VWS V14.01,2013-04-05 20:52:00,
2013-04-05 16:53:00,65.5,35.6,29.91,North,350,5.4,5.4,33,0.00,,---,0.16,VWS V14.01,2013-04-05 20:53:00,
2013-04-05 16:54:00,65.7,35.8,29.91,NNW,333,2.7,2.7,33,0.00,,---,0.16,VWS V14.01,2013-04-05 20:54:00,
2013-04-05 16:55:00,65.7,35.8,29.91,WNW,288,3.1,3.1,33,0.00,,---,0.16,VWS V14.01,2013-04-05 20:55:00,
2013-04-05 16:56:00,65.7,35.8,29.91,West,271,7.6,7.6,33,0.00,,---,0.16,VWS V14.01,2013-04-05 20:56:00,
2013-04-05 16:57:00,65.8,36.0,29.91,West,270,6.3,6.3,33,0.00,,---,0.16,VWS V14.01,2013-04-05 20:57:00,
2013-04-05 16:58:00,65.8,36.0,29.94,WNW,287,7.6,7.6,33,0.00,,---,0.16,VWS V14.01,2013-04-05 20:58:00,
2013-04-05 16:59:00,66.0,36.1,29.94,West,272,4.0,4.0,33,0.00,,---,0.16,VWS V14.01,2013-04-05 20:59:00,
2013-04-05 17:00:00,66.0,36.1,29.94,WSW,252,3.6,3.6,33,0.00,,---,0.16,VWS V14.01,2013-04-05 21:00:00,
2013-04-05 17:01:00,66.0,36.1,29.94,NW,321,5.4,5.4,33,0.00,,---,0.16,VWS V14.01,2013-04-05 21:01:00,
2013-04-05 17:02:00,66.2,36.3,29.94,WNW,284,5.8,5.8,33,0.00,,---,0.16,VWS V14.01,2013-04-05 21:02:00,
2013-04-05 17:03:00,66.2,36.3,29.94,West,268,7.6,7.6,33,0.00,,---,0.16,VWS V14.01,2013-04-05 21:03:00,
2013-04-05 17:04:00,66.2,36.3,29.94,West,272,8.1,8.1,33,0.00,,---,0.16,VWS V14.01,2013-04-05 21:04:00,
2013-04-05 17:05:00,66.4,36.4,29.94,West,276,5.8,5.8,33,0.00,,---,0.16,VWS V14.01,2013-04-05 21:05:00,
2013-04-05 17:06:00,66.4,36.4,29.94,WSW,255,8.3,8.3,33,0.00,,---,0.16,VWS V14.01,2013-04-05 21:06:00,
2013-04-05 17:07:00,66.4,36.4,29.94,West,266,6.3,6.3,33,0.00,,---,0.16,VWS V14.01,2013-04-05 21:07:00,
2013-04-05 17:08:00,66.4,36.4,29.94,WSW,248,4.9,4.9,33,0.00,,---,0.16,VWS V14.01,2013-04-05 21:08:00,
2013-04-05 17:09:00,66.2,36.3,29.94,NW,320,3.6,3.6,33,0.00,,---,0.16,VWS V14.01,2013-04-05 21:09:00,
2013-04-05 17:10:00,66.2,36.3,29.94,WNW,286,4.0,4.0,33,0.00,,---,0.16,VWS V14.01,2013-04-05 21:10:00,
2013-04-05 17:11:00,66.4,36.4,29.94,South,189,2.7,2.7,33,0.00,,---,0.16,VWS V14.01,2013-04-05 21:11:00,
2013-04-05 17:12:00,66.4,36.4,29.94,WNW,282,0.0,0.0,33,0.00,,---,0.16,VWS V14.01,2013-04-05 21:12:00,
2013-04-05 17:13:00,66.4,36.4,29.94,West,277,3.6,3.6,33,0.00,,---,0.16,VWS V14.01,2013-04-05 21:13:00,
2013-04-05 17:14:00,66.4,36.4,29.94,WSW,248,4.0,4.0,33,0.00,,---,0.16,VWS V14.01,2013-04-05 21:14:00,
2013-04-05 17:15:00,66.4,36.4,29.94,West,265,6.3,6.3,33,0.00,,---,0.16,VWS V14.01,2013-04-05 21:15:00,
2013-04-05 17:16:00,66.6,36.6,29.94,West,267,3.6,3.6,33,0.00,,---,0.16,VWS V14.01,2013-04-05 21:16:00,
2013-04-05 17:17:00,66.6,36.6,29.94,NW,311,4.0,4.0,33,0.00,,---,0.16,VWS V14.01,2013-04-05 21:17:00,
2013-04-05 17:18:00,66.6,36.6,29.94,West,268,5.4,5.4,33,0.00,,---,0.16,VWS V14.01,2013-04-05 21:18:00,
2013-04-05 17:19:00,66.6,36.6,29.94,West,279,6.7,6.7,33,0.00,,---,0.16,VWS V14.01,2013-04-05 21:19:00,
2013-04-05 17:20:00,66.6,36.6,29.94,WSW,238,4.9,4.9,33,0.00,,---,0.16,VWS V14.01,2013-04-05 21:20:00,
2013-04-05 17:21:00,66.6,36.6,29.94,West,279,4.0,4.0,33,0.00,,---,0.16,VWS V14.01,2013-04-05 21:21:00,
2013-04-05 17:22:00,66.4,36.4,29.94,West,265,10.5,10.5,33,0.00,,---,0.16,VWS V14.01,2013-04-05 21:22:00,
2013-04-05 17:23:00,66.4,36.4,29.94,WNW,303,6.3,6.3,33,0.00,,---,0.16,VWS V14.01,2013-04-05 21:23:00,
2013-04-05 17:24:00,66.6,36.6,29.94,West,278,10.1,10.1,33,0.00,,---,0.16,VWS V14.01,2013-04-05 21:24:00,
2013-04-05 17:25:00,66.4,36.4,29.94,NW,317,5.4,5.4,33,0.00,,---,0.16,VWS V14.01,2013-04-05 21:25:00,
2013-04-05 17:26:00,66.4,36.4,29.94,NNW,329,6.3,6.3,33,0.00,,---,0.16,VWS V14.01,2013-04-05 21:26:00,
2013-04-05 17:27:00,66.4,36.4,29.94,NW,318,4.0,4.0,33,0.00,,---,0.16,VWS V14.01,2013-04-05 21:27:00,
2013-04-05 17:28:00,66.2,36.3,29.94,West,272,3.1,3.1,33,0.00,,---,0.16,VWS V14.01,2013-04-05 21:28:00,
2013-04-05 17:29:00,66.2,36.3,29.94,NW,319,4.0,4.0,33,0.00,,---,0.16,VWS V14.01,2013-04-05 21:29:00,
2013-04-05 17:30:00,66.2,36.3,29.94,NW,305,8.1,8.1,33,0.00,,---,0.16,VWS V14.01,2013-04-05 21:30:00,
2013-04-05 17:31:00,66.2,36.3,29.94,West,275,3.1,3.1,33,0.00,,---,0.16,VWS V14.01,2013-04-05 21:31:00,
2013-04-05 17:32:00,66.0,36.1,29.94,NW,317,5.8,5.8,33,0.00,,---,0.16,VWS V14.01,2013-04-05 21:32:00,
2013-04-05 17:33:00,66.0,36.1,29.94,NW,318,4.0,4.0,33,0.00,,---,0.16,VWS V14.01,2013-04-05 21:33:00,
2013-04-05 17:34:00,66.0,36.1,29.94,NW,316,5.8,5.8,33,0.00,,---,0.16,VWS V14.01,2013-04-05 21:34:00,
2013-04-05 17:35:00,66.0,36.1,29.94,NW,305,5.8,5.8,33,0.00,,---,0.16,VWS V14.01,2013-04-05 21:35:00,
2013-04-05 17:36:00,66.0,36.1,29.94,West,279,5.8,5.8,33,0.00,,---,0.16,VWS V14.01,2013-04-05 21:36:00,
2013-04-05 17:37:00,66.0,36.1,29.94,WNW,302,5.8,5.8,33,0.00,,---,0.16,VWS V14.01,2013-04-05 21:37:00,
2013-04-05 17:38:00,66.0,36.1,29.94,WNW,286,8.3,8.3,33,0.00,,---,0.16,VWS V14.01,2013-04-05 21:38:00,
2013-04-05 17:39:00,66.0,36.1,29.94,WNW,286,7.6,7.6,33,0.00,,---,0.16,VWS V14.01,2013-04-05 21:39:00,
2013-04-05 17:40:00,66.0,36.1,29.94,NW,312,8.1,8.1,33,0.00,,---,0.16,VWS V14.01,2013-04-05 21:40:00,
2013-04-05 17:41:00,66.0,36.1,29.94,NW,308,5.8,5.8,33,0.00,,---,0.16,VWS V14.01,2013-04-05 21:41:00,
2013-04-05 17:42:00,66.0,36.1,29.94,WSW,238,7.6,7.6,33,0.00,,---,0.16,VWS V14.01,2013-04-05 21:42:00,
2013-04-05 17:43:00,65.8,36.0,29.94,WNW,301,2.7,2.7,33,0.00,,---,0.16,VWS V14.01,2013-04-05 21:43:00,
2013-04-05 17:44:00,65.8,36.0,29.94,SW,222,3.6,3.6,33,0.00,,---,0.16,VWS V14.01,2013-04-05 21:44:00,
2013-04-05 17:45:00,65.8,36.0,29.94,WSW,245,2.7,2.7,33,0.00,,---,0.16,VWS V14.01,2013-04-05 21:45:00,
2013-04-05 17:46:00,65.8,36.0,29.94,SW,220,4.9,4.9,33,0.00,,---,0.16,VWS V14.01,2013-04-05 21:46:00,
2013-04-05 17:47:00,65.8,36.0,29.94,West,266,6.3,6.3,33,0.00,,---,0.16,VWS V14.01,2013-04-05 21:47:00,
2013-04-05 17:48:00,65.7,35.8,29.94,WNW,303,5.8,5.8,33,0.00,,---,0.16,VWS V14.01,2013-04-05 21:48:00,
2013-04-05 17:49:00,65.8,36.0,29.94,WNW,282,4.0,4.0,33,0.00,,---,0.16,VWS V14.01,2013-04-05 21:49:00,
2013-04-05 17:50:00,65.8,36.0,29.94,WNW,294,5.4,5.4,33,0.00,,---,0.16,VWS V14.01,2013-04-05 21:50:00,
2013-04-05 17:51:00,65.8,36.0,29.94,WNW,290,4.5,4.5,33,0.00,,---,0.16,VWS V14.01,2013-04-05 21:51:00,
2013-04-05 17:52:00,65.8,36.0,29.94,WNW,287,3.6,3.6,33,0.00,,---,0.16,VWS V14.01,2013-04-05 21:52:00,
2013-04-05 17:53:00,65.8,36.0,29.94,NNW,331,4.0,4.0,33,0.00,,---,0.16,VWS V14.01,2013-04-05 21:53:00,
2013-04-05 17:54:00,65.8,36.0,29.94,NW,307,4.0,4.0,33,0.00,,---,0.16,VWS V14.01,2013-04-05 21:54:00,
2013-04-05 17:55:00,65.8,36.0,29.94,West,281,2.2,2.2,33,0.00,,---,0.16,VWS V14.01,2013-04-05 21:55:00,
2013-04-05 17:56:00,65.8,36.0,29.94,WNW,283,0.0,0.0,33,0.00,,---,0.16,VWS V14.01,2013-04-05 21:56:00,
2013-04-05 17:57:00,66.0,36.1,29.94,West,280,2.7,2.7,33,0.00,,---,0.16,VWS V14.01,2013-04-05 21:57:00,
2013-04-05 17:58:00,66.0,36.1,29.94,West,272,3.1,3.1,33,0.00,,---,0.16,VWS V14.01,2013-04-05 21:58:00,
2013-04-05 17:59:00,66.0,36.1,29.94,WNW,301,3.6,3.6,33,0.00,,---,0.16,VWS V14.01,2013-04-05 21:59:00,
2013-04-05 18:00:00,66.2,36.3,29.94,WNW,287,3.1,3.1,33,0.00,,---,0.16,VWS V14.01,2013-04-05 22:00:00,
2013-04-05 18:01:00,66.2,36.3,29.94,NW,309,3.6,3.6,33,0.00,,---,0.16,VWS V14.01,2013-04-05 22:01:00,
2013-04-05 18:02:00,66.2,36.3,29.94,WNW,303,4.0,4.0,33,0.00,,---,0.16,VWS V14.01,2013-04-05 22:02:00,
2013-04-05 18:03:00,66.2,36.3,29.94,NW,314,6.3,6.3,33,0.00,,---,0.16,VWS V14.01,2013-04-05 22:03:00,
2013-04-05 18:04:00,66.2,36.3,29.94,West,278,8.1,8.1,33,0.00,,---,0.16,VWS V14.01,2013-04-05 22:04:00,
2013-04-05 18:05:00,66.2,36.3,29.94,West,279,7.2,7.2,33,0.00,,---,0.16,VWS V14.01,2013-04-05 22:05:00,
2013-04-05 18:06:00,66.2,36.3,29.94,WSW,249,4.0,4.0,33,0.00,,---,0.16,VWS V14.01,2013-04-05 22:06:00,
2013-04-05 18:07:00,66.2,36.3,29.94,NW,319,3.1,3.1,33,0.00,,---,0.16,VWS V14.01,2013-04-05 22:07:00,
2013-04-05 18:08:00,66.2,36.3,29.94,WNW,286,3.6,3.6,33,0.00,,---,0.16,VWS V14.01,2013-04-05 22:08:00,
2013-04-05 18:09:00,66.2,36.3,29.94,West,270,6.3,6.3,33,0.00,,---,0.16,VWS V14.01,2013-04-05 22:09:00,
2013-04-05 18:10:00,66.0,36.1,29.94,WSW,238,7.6,7.6,33,0.00,,---,0.16,VWS V14.01,2013-04-05 22:10:00,
2013-04-05 18:11:00,66.0,36.1,29.94,WNW,283,3.1,3.1,33,0.00,,---,0.16,VWS V14.01,2013-04-05 22:11:00,
2013-04-05 18:12:00,66.0,36.1,29.94,West,276,5.8,5.8,33,0.00,,---,0.16,VWS V14.01,2013-04-05 22:12:00,
2013-04-05 18:13:00,66.0,36.1,29.97,West,271,4.9,4.9,33,0.00,,---,0.16,VWS V14.01,2013-04-05 22:13:00,
2013-04-05 18:14:00,65.8,36.0,29.97,West,268,5.4,5.4,33,0.00,,---,0.16,VWS V14.01,2013-04-05 22:14:00,
2013-04-05 18:15:00,65.8,36.0,29.97,West,276,5.4,5.4,33,0.00,,---,0.16,VWS V14.01,2013-04-05 22:15:00,
2013-04-05 18:16:00,65.8,36.0,29.97,West,272,5.4,5.4,33,0.00,,---,0.16,VWS V14.01,2013-04-05 22:16:00,
2013-04-05 18:17:00,65.8,36.0,29.97,WSW,251,2.7,2.7,33,0.00,,---,0.16,VWS V14.01,2013-04-05 22:17:00,
2013-04-05 18:18:00,65.8,36.0,29.97,NW,315,0.0,0.0,33,0.00,,---,0.16,VWS V14.01,2013-04-05 22:18:00,
2013-04-05 18:19:00,65.8,36.0,29.97,NW,309,0.0,0.0,33,0.00,,---,0.16,VWS V14.01,2013-04-05 22:19:00,
2013-04-05 18:20:00,65.8,36.0,29.97,WNW,301,3.6,3.6,33,0.00,,---,0.16,VWS V14.01,2013-04-05 22:20:00,
2013-04-05 18:21:00,65.8,36.0,29.97,West,278,4.0,4.0,33,0.00,,---,0.16,VWS V14.01,2013-04-05 22:21:00,
2013-04-05 18:22:00,65.8,36.0,29.97,WNW,295,6.3,6.3,33,0.00,,---,0.16,VWS V14.01,2013-04-05 22:22:00,
2013-04-05 18:23:00,65.8,36.0,29.97,NNW,346,5.4,5.4,33,0.00,,---,0.16,VWS V14.01,2013-04-05 22:23:00,
2013-04-05 18:24:00,65.8,36.0,29.97,NNW,336,7.2,7.2,33,0.00,,---,0.16,VWS V14.01,2013-04-05 22:24:00,
2013-04-05 18:25:00,65.8,36.0,29.97,NW,307,10.1,10.1,33,0.00,,---,0.16,VWS V14.01,2013-04-05 22:25:00,
2013-04-05 18:26:00,65.8,36.0,29.97,NW,309,8.7,8.7,33,0.00,,---,0.16,VWS V14.01,2013-04-05 22:26:00,
2013-04-05 18:27:00,65.7,35.8,29.97,NW,312,8.7,8.7,33,0.00,,---,0.16,VWS V14.01,2013-04-05 22:27:00,
2013-04-05 18:28:00,65.7,35.8,29.97,West,269,3.6,3.6,33,0.00,,---,0.16,VWS V14.01,2013-04-05 22:28:00,
2013-04-05 18:29:00,65.7,35.8,29.97,NW,305,6.3,6.3,33,0.00,,---,0.16,VWS V14.01,2013-04-05 22:29:00,
2013-04-05 18:30:00,65.7,35.8,29.97,WNW,303,7.6,7.6,33,0.00,,---,0.16,VWS V14.01,2013-04-05 22:30:00,
2013-04-05 18:31:00,65.7,35.8,29.97,NW,314,6.3,6.3,33,0.00,,---,0.16,VWS V14.01,2013-04-05 22:31:00,
2013-04-05 18:32:00,65.5,35.6,29.97,NW,313,6.3,6.3,33,0.00,,---,0.16,VWS V14.01,2013-04-05 22:32:00,
2013-04-05 18:33:00,65.5,35.6,29.97,WNW,293,5.8,5.8,33,0.00,,---,0.16,VWS V14.01,2013-04-05 22:33:00,
2013-04-05 18:34:00,65.5,35.6,29.97,WNW,294,3.6,3.6,33,0.00,,---,0.16,VWS V14.01,2013-04-05 22:34:00,
2013-04-05 18:35:00,65.5,35.6,29.97,WNW,284,5.4,5.4,33,0.00,,---,0.16,VWS V14.01,2013-04-05 22:35:00,
2013-04-05 18:36:00,65.5,35.6,29.97,NW,314,6.3,6.3,33,0.00,,---,0.16,VWS V14.01,2013-04-05 22:36:00,
2013-04-05 18:37:00,65.5,35.6,29.97,West,264,2.7,2.7,33,0.00,,---,0.16,VWS V14.01,2013-04-05 22:37:00,
2013-04-05 18:38:00,65.5,35.6,29.97,West,270,3.1,3.1,33,0.00,,---,0.16,VWS V14.01,2013-04-05 22:38:00,
2013-04-05 18:39:00,65.3,35.5,29.97,WNW,303,3.1,3.1,33,0.00,,---,0.16,VWS V14.01,2013-04-05 22:39:00,
2013-04-05 18:40:00,65.3,35.5,29.97,North,350,3.1,3.1,33,0.00,,---,0.16,VWS V14.01,2013-04-05 22:40:00,
2013-04-05 18:41:00,65.3,35.5,29.97,WNW,288,3.1,3.1,33,0.00,,---,0.16,VWS V14.01,2013-04-05 22:41:00,
2013-04-05 18:42:00,65.3,35.5,29.97,WSW,248,4.0,4.0,33,0.00,,---,0.16,VWS V14.01,2013-04-05 22:42:00,
2013-04-05 18:43:00,65.3,35.5,29.97,SSW,211,5.4,5.4,33,0.00,,---,0.16,VWS V14.01,2013-04-05 22:43:00,
2013-04-05 18:44:00,65.3,35.5,29.97,NW,310,6.3,6.3,33,0.00,,---,0.16,VWS V14.01,2013-04-05 22:44:00,
2013-04-05 18:45:00,65.3,35.5,29.97,WNW,300,5.8,5.8,33,0.00,,---,0.16,VWS V14.01,2013-04-05 22:45:00,
2013-04-05 18:46:00,65.1,35.3,29.97,NW,316,5.4,5.4,33,0.00,,---,0.16,VWS V14.01,2013-04-05 22:46:00,
2013-04-05 18:47:00,65.1,35.3,29.97,NNW,334,3.6,3.6,33,0.00,,---,0.16,VWS V14.01,2013-04-05 22:47:00,
2013-04-05 18:48:00,65.1,35.3,29.97,WNW,282,3.1,3.1,33,0.00,,---,0.16,VWS V14.01,2013-04-05 22:48:00,
2013-04-05 18:49:00,65.1,35.3,29.97,WNW,285,4.9,4.9,33,0.00,,---,0.16,VWS V14.01,2013-04-05 22:49:00,
2013-04-05 18:50:00,65.1,35.3,29.97,NW,306,5.4,5.4,33,0.00,,---,0.16,VWS V14.01,2013-04-05 22:50:00,
2013-04-05 18:51:00,64.9,35.2,29.97,NW,325,5.4,5.4,33,0.00,,---,0.16,VWS V14.01,2013-04-05 22:51:00,
2013-04-05 18:52:00,64.9,35.2,29.97,NW,315,4.0,4.0,33,0.00,,---,0.16,VWS V14.01,2013-04-05 22:52:00,
2013-04-05 18:53:00,64.8,35.0,29.97,WNW,284,3.6,3.6,33,0.00,,---,0.16,VWS V14.01,2013-04-05 22:53:00,
2013-04-05 18:54:00,64.8,35.0,29.97,WNW,294,3.6,3.6,33,0.00,,---,0.16,VWS V14.01,2013-04-05 22:54:00,
2013-04-05 18:55:00,64.8,35.0,29.97,West,276,3.6,3.6,33,0.00,,---,0.16,VWS V14.01,2013-04-05 22:55:00,
2013-04-05 18:56:00,64.6,34.8,29.97,WNW,292,3.6,3.6,33,0.00,,---,0.16,VWS V14.01,2013-04-05 22:56:00,
2013-04-05 18:57:00,64.8,35.0,29.97,NW,309,5.4,5.4,33,0.00,,---,0.16,VWS V14.01,2013-04-05 22:57:00,
2013-04-05 18:58:00,64.6,34.8,29.97,WNW,300,5.8,5.8,33,0.00,,---,0.16,VWS V14.01,2013-04-05 22:58:00,
2013-04-05 18:59:00,64.6,34.8,29.97,WNW,287,4.5,4.5,33,0.00,,---,0.16,VWS V14.01,2013-04-05 22:59:00,
2013-04-05 19:00:00,64.6,34.8,29.97,WNW,288,3.1,3.1,33,0.00,,---,0.16,VWS V14.01,2013-04-05 23:00:00,
2013-04-05 19:01:00,64.6,34.8,29.97,NNW,328,4.9,4.9,33,0.00,,---,0.16,VWS V14.01,2013-04-05 23:01:00,
2013-04-05 19:02:00,64.6,34.8,29.97,NW,318,4.9,4.9,33,0.00,,---,0.16,VWS V14.01,2013-04-05 23:02:00,
2013-04-05 19:03:00,64.6,34.8,29.97,West,274,2.7,2.7,33,0.00,,---,0.16,VWS V14.01,2013-04-05 23:03:00,
2013-04-05 19:04:00,64.4,34.7,29.97,NW,324,3.6,3.6,33,0.00,,---,0.16,VWS V14.01,2013-04-05 23:04:00,
2013-04-05 19:05:00,64.4,34.7,29.97,WNW,286,4.9,4.9,33,0.00,,---,0.16,VWS V14.01,2013-04-05 23:05:00,
2013-04-05 19:06:00,64.4,34.7,29.97,NNW,328,4.9,4.9,33,0.00,,---,0.16,VWS V14.01,2013-04-05 23:06:00,
2013-04-05 19:07:00,64.4,34.7,29.97,NW,314,4.0,4.0,33,0.00,,---,0.16,VWS V14.01,2013-04-05 23:07:00,
2013-04-05 19:08:00,64.4,34.7,29.97,WNW,295,4.0,4.0,33,0.00,,---,0.16,VWS V14.01,2013-04-05 23:08:00,
2013-04-05 19:09:00,64.4,34.7,29.97,WNW,288,2.7,2.7,33,0.00,,---,0.16,VWS V14.01,2013-04-05 23:09:00,
2013-04-05 19:10:00,64.4,34.7,29.97,West,272,4.0,4.0,33,0.00,,---,0.16,VWS V14.01,2013-04-05 23:10:00,
2013-04-05 19:11:00,64.4,34.7,29.97,West,271,3.6,3.6,33,0.00,,---,0.16,VWS V14.01,2013-04-05 23:11:00,
2013-04-05 19:12:00,64.4,34.7,29.97,West,271,3.6,3.6,33,0.00,,---,0.16,VWS V14.01,2013-04-05 23:12:00,
2013-04-05 19:13:00,64.4,34.7,29.97,WNW,297,2.2,2.2,33,0.00,,---,0.16,VWS V14.01,2013-04-05 23:13:00,
2013-04-05 19:14:00,64.2,35.3,29.97,WNW,297,2.2,2.2,34,0.00,,---,0.16,VWS V14.01,2013-04-05 23:14:00,
2013-04-05 19:15:00,64.2,35.3,29.97,WNW,301,0.0,0.0,34,0.00,,---,0.16,VWS V14.01,2013-04-05 23:15:00,
2013-04-05 19:16:00,64.2,35.3,29.97,WNW,288,3.1,3.1,34,0.00,,---,0.16,VWS V14.01,2013-04-05 23:16:00,
2013-04-05 19:17:00,64.2,35.3,29.97,WNW,288,3.1,3.1,34,0.00,,---,0.16,VWS V14.01,2013-04-05 23:17:00,
2013-04-05 19:18:00,64.0,35.1,29.97,WNW,292,2.2,2.2,34,0.00,,---,0.16,VWS V14.01,2013-04-05 23:18:00,
2013-04-05 19:19:00,64.0,35.1,29.97,WNW,292,0.0,0.0,34,0.00,,---,0.16,VWS V14.01,2013-04-05 23:19:00,
2013-04-05 19:20:00,63.9,35.0,29.97,WNW,292,0.0,0.0,34,0.00,,---,0.16,VWS V14.01,2013-04-05 23:20:00,
2013-04-05 19:21:00,63.7,34.8,29.97,WNW,294,0.0,0.0,34,0.00,,---,0.16,VWS V14.01,2013-04-05 23:21:00,
2013-04-05 19:22:00,63.7,34.8,29.97,WNW,294,0.0,0.0,34,0.00,,---,0.16,VWS V14.01,2013-04-05 23:22:00,
2013-04-05 19:23:00,63.5,34.7,29.97,WNW,299,0.0,0.0,34,0.00,,---,0.16,VWS V14.01,2013-04-05 23:23:00,
2013-04-05 19:24:00,63.5,34.7,29.97,WNW,299,0.0,0.0,34,0.00,,---,0.16,VWS V14.01,2013-04-05 23:24:00,
2013-04-05 19:25:00,63.3,34.5,29.97,WNW,300,0.0,0.0,34,0.00,,---,0.16,VWS V14.01,2013-04-05 23:25:00,
2013-04-05 19:26:00,63.1,34.3,29.97,WNW,300,0.0,0.0,34,0.00,,---,0.16,VWS V14.01,2013-04-05 23:26:00,
2013-04-05 19:27:00,63.1,34.3,29.97,WNW,299,0.0,0.0,34,0.00,,---,0.16,VWS V14.01,2013-04-05 23:27:00,
2013-04-05 19:28:00,63.0,34.2,29.97,WNW,299,0.0,0.0,34,0.00,,---,0.16,VWS V14.01,2013-04-05 23:28:00,
2013-04-05 19:29:00,63.0,34.2,29.97,WNW,299,0.0,0.0,34,0.00,,---,0.16,VWS V14.01,2013-04-05 23:29:00,
2013-04-05 19:30:00,62.8,34.0,29.97,WNW,299,0.0,0.0,34,0.00,,---,0.16,VWS V14.01,2013-04-05 23:30:00,
2013-04-05 19:31:00,62.6,33.9,29.97,WNW,299,0.0,0.0,34,0.00,,---,0.16,VWS V14.01,2013-04-05 23:31:00,
2013-04-05 19:32:00,62.4,33.7,29.97,WNW,299,0.0,0.0,34,0.00,,---,0.16,VWS V14.01,2013-04-05 23:32:00,
2013-04-05 19:33:00,62.2,33.5,29.97,WNW,299,0.0,0.0,34,0.00,,---,0.16,VWS V14.01,2013-04-05 23:33:00,
2013-04-05 19:34:00,62.1,33.4,29.97,WNW,299,0.0,0.0,34,0.00,,---,0.16,VWS V14.01,2013-04-05 23:34:00,
2013-04-05 19:35:00,62.1,33.4,29.97,WNW,299,0.0,0.0,34,0.00,,---,0.16,VWS V14.01,2013-04-05 23:35:00,
2013-04-05 19:36:00,61.9,33.2,29.97,WNW,299,0.0,0.0,34,0.00,,---,0.16,VWS V14.01,2013-04-05 23:36:00,
2013-04-05 19:37:00,61.7,33.1,29.97,WNW,299,0.0,0.0,34,0.00,,---,0.16,VWS V14.01,2013-04-05 23:37:00,
2013-04-05 19:38:00,61.5,32.9,29.97,WNW,299,0.0,0.0,34,0.00,,---,0.16,VWS V14.01,2013-04-05 23:38:00,
2013-04-05 19:39:00,61.3,32.8,29.97,WNW,299,0.0,0.0,34,0.00,,---,0.16,VWS V14.01,2013-04-05 23:39:00,
2013-04-05 19:40:00,61.2,32.6,29.97,WNW,299,0.0,0.0,34,0.00,,---,0.16,VWS V14.01,2013-04-05 23:40:00,
2013-04-05 19:41:00,61.0,32.4,29.97,WNW,299,0.0,0.0,34,0.00,,---,0.16,VWS V14.01,2013-04-05 23:41:00,
2013-04-05 19:42:00,60.8,32.3,29.97,WNW,299,0.0,0.0,34,0.00,,---,0.16,VWS V14.01,2013-04-05 23:42:00,
2013-04-05 19:43:00,60.6,32.8,30.00,WNW,299,0.0,0.0,35,0.00,,---,0.16,VWS V14.01,2013-04-05 23:43:00,
2013-04-05 19:44:00,60.6,32.8,30.00,WNW,299,0.0,0.0,35,0.00,,---,0.16,VWS V14.01,2013-04-05 23:44:00,
2013-04-05 19:45:00,60.3,32.5,30.00,WNW,297,0.0,0.0,35,0.00,,---,0.16,VWS V14.01,2013-04-05 23:45:00,
2013-04-05 19:46:00,60.1,32.4,30.00,West,279,0.0,0.0,35,0.00,,---,0.16,VWS V14.01,2013-04-05 23:46:00,
2013-04-05 19:47:00,59.7,32.0,30.00,WSW,243,0.0,0.0,35,0.00,,---,0.16,VWS V14.01,2013-04-05 23:47:00,
2013-04-05 19:48:00,59.5,31.9,30.00,WSW,244,0.0,0.0,35,0.00,,---,0.16,VWS V14.01,2013-04-05 23:48:00,
2013-04-05 19:49:00,59.4,31.7,30.00,WSW,243,0.0,0.0,35,0.00,,---,0.16,VWS V14.01,2013-04-05 23:49:00,
2013-04-05 19:50:00,59.2,31.6,30.00,WSW,244,0.0,0.0,35,0.00,,---,0.16,VWS V14.01,2013-04-05 23:50:00,
2013-04-05 19:51:00,59.0,31.4,30.00,WSW,243,0.0,0.0,35,0.00,,---,0.16,VWS V14.01,2013-04-05 23:51:00,
2013-04-05 19:52:00,58.6,31.1,30.00,WSW,243,0.0,0.0,35,0.00,,---,0.16,VWS V14.01,2013-04-05 23:52:00,
2013-04-05 19:53:00,58.5,30.9,30.00,WSW,243,0.0,0.0,35,0.00,,---,0.16,VWS V14.01,2013-04-05 23:53:00,
2013-04-05 19:54:00,58.3,30.8,30.00,WSW,243,0.0,0.0,35,0.00,,---,0.16,VWS V14.01,2013-04-05 23:54:00,
2013-04-05 19:55:00,58.1,30.6,30.00,WSW,243,0.0,0.0,35,0.00,,---,0.16,VWS V14.01,2013-04-05 23:55:00,
2013-04-05 19:56:00,57.9,30.5,30.00,WSW,244,0.0,0.0,35,0.00,,---,0.16,VWS V14.01,2013-04-05 23:56:00,
2013-04-05 19:57:00,57.7,30.3,30.00,WSW,243,0.0,0.0,35,0.00,,---,0.16,VWS V14.01,2013-04-05 23:57:00,
2013-04-05 19:58:00,57.7,30.3,30.00,WSW,244,0.0,0.0,35,0.00,,---,0.16,VWS V14.01,2013-04-05 23:58:00,
2013-04-05 19:59:00,57.6,30.1,30.00,WSW,243,0.0,0.0,35,0.00,,---,0.16,VWS V14.01,2013-04-05 23:59:00,
2013-04-05 20:00:00,57.2,29.8,30.00,WSW,244,0.0,0.0,35,0.00,,---,0.16,VWS V14.01,2013-04-06 00:00:00,
2013-04-05 20:01:00,57.2,29.8,30.00,WSW,243,0.0,0.0,35,0.00,,---,0.16,VWS V14.01,2013-04-06 00:01:00,
2013-04-05 20:02:00,56.8,29.5,30.00,WSW,244,0.0,0.0,35,0.00,,---,0.16,VWS V14.01,2013-04-06 00:02:00,
2013-04-05 20:03:00,56.8,29.5,30.00,WSW,244,0.0,0.0,35,0.00,,---,0.16,VWS V14.01,2013-04-06 00:03:00,
2013-04-05 20:04:00,56.7,29.3,30.00,WSW,243,0.0,0.0,35,0.00,,---,0.16,VWS V14.01,2013-04-06 00:04:00,
2013-04-05 20:05:00,56.5,29.2,30.00,SSW,200,0.0,0.0,35,0.00,,---,0.16,VWS V14.01,2013-04-06 00:05:00,
2013-04-05 20:06:00,56.3,29.0,30.00,SSW,199,0.0,0.0,35,0.00,,---,0.16,VWS V14.01,2013-04-06 00:06:00,
2013-04-05 20:07:00,56.1,28.9,30.00,SSW,199,0.0,0.0,35,0.00,,---,0.16,VWS V14.01,2013-04-06 00:07:00,
2013-04-05 20:08:00,55.9,28.7,30.00,SSW,199,0.0,0.0,35,0.00,,---,0.16,VWS V14.01,2013-04-06 00:08:00,
2013-04-05 20:09:00,55.8,28.5,30.00,SSW,199,0.0,0.0,35,0.00,,---,0.16,VWS V14.01,2013-04-06 00:09:00,
2013-04-05 20:10:00,55.6,28.4,30.00,SSW,200,0.0,0.0,35,0.00,,---,0.16,VWS V14.01,2013-04-06 00:10:00,
2013-04-05 20:11:00,55.4,28.2,30.00,SSW,199,0.0,0.0,35,0.00,,---,0.16,VWS V14.01,2013-04-06 00:11:00,
2013-04-05 20:12:00,55.2,28.8,30.00,SSW,199,0.0,0.0,36,0.00,,---,0.16,VWS V14.01,2013-04-06 00:12:00,
2013-04-05 20:13:00,55.0,28.6,30.00,SSW,199,0.0,0.0,36,0.00,,---,0.16,VWS V14.01,2013-04-06 00:13:00,
2013-04-05 20:14:00,55.0,28.6,30.00,SSW,199,0.0,0.0,36,0.00,,---,0.16,VWS V14.01,2013-04-06 00:14:00,
2013-04-05 20:15:00,54.9,28.4,30.00,SSW,199,0.0,0.0,36,0.00,,---,0.16,VWS V14.01,2013-04-06 00:15:00,
2013-04-05 20:16:00,54.7,28.3,30.00,SSW,199,0.0,0.0,36,0.00,,---,0.16,VWS V14.01,2013-04-06 00:16:00,
2013-04-05 20:17:00,54.5,28.1,30.00,SSW,199,0.0,0.0,36,0.00,,---,0.16,VWS V14.01,2013-04-06 00:17:00,
2013-04-05 20:18:00,54.3,28.0,30.00,SSW,199,0.0,0.0,36,0.00,,---,0.16,VWS V14.01,2013-04-06 00:18:00,
2013-04-05 20:19:00,54.3,28.0,30.00,SSW,199,0.0,0.0,36,0.00,,---,0.16,VWS V14.01,2013-04-06 00:19:00,
2013-04-05 20:20:00,54.1,27.8,30.00,SSW,199,0.0,0.0,36,0.00,,---,0.16,VWS V14.01,2013-04-06 00:20:00,
2013-04-05 20:21:00,54.0,27.6,30.00,SSW,200,0.0,0.0,36,0.00,,---,0.16,VWS V14.01,2013-04-06 00:21:00,
2013-04-05 20:22:00,53.8,27.5,30.00,SSW,199,0.0,0.0,36,0.00,,---,0.16,VWS V14.01,2013-04-06 00:22:00,
2013-04-05 20:23:00,53.8,27.5,30.00,SSW,199,0.0,0.0,36,0.00,,---,0.16,VWS V14.01,2013-04-06 00:23:00,
2013-04-05 20:24:00,53.6,27.3,30.00,SSW,199,0.0,0.0,36,0.00,,---,0.16,VWS V14.01,2013-04-06 00:24:00,
2013-04-05 20:25:00,53.4,27.1,30.00,SSW,199,0.0,0.0,36,0.00,,---,0.16,VWS V14.01,2013-04-06 00:25:00,
2013-04-05 20:26:00,53.4,27.1,30.00,SSW,200,0.0,0.0,36,0.00,,---,0.16,VWS V14.01,2013-04-06 00:26:00,
2013-04-05 20:27:00,53.2,27.0,30.00,SSW,199,0.0,0.0,36,0.00,,---,0.16,VWS V14.01,2013-04-06 00:27:00,
2013-04-05 20:28:00,53.2,27.0,30.00,SSW,199,0.0,0.0,36,0.00,,---,0.16,VWS V14.01,2013-04-06 00:28:00,
2013-04-05 20:29:00,53.1,26.8,30.00,SSW,199,0.0,0.0,36,0.00,,---,0.16,VWS V14.01,2013-04-06 00:29:00,
2013-04-05 20:30:00,53.1,26.8,30.00,SSW,199,0.0,0.0,36,0.00,,---,0.16,VWS V14.01,2013-04-06 00:30:00,
2013-04-05 20:31:00,52.9,26.7,30.00,SSW,200,0.0,0.0,36,0.00,,---,0.16,VWS V14.01,2013-04-06 00:31:00,
2013-04-05 20:32:00,52.7,26.5,30.00,SSW,199,0.0,0.0,36,0.00,,---,0.16,VWS V14.01,2013-04-06 00:32:00,
2013-04-05 20:33:00,52.7,26.5,30.00,SSW,199,0.0,0.0,36,0.00,,---,0.16,VWS V14.01,2013-04-06 00:33:00,
2013-04-05 20:34:00,52.5,26.4,30.00,SSW,200,0.0,0.0,36,0.00,,---,0.16,VWS V14.01,2013-04-06 00:34:00,
2013-04-05 20:35:00,52.5,26.4,30.00,SSW,200,0.0,0.0,36,0.00,,---,0.16,VWS V14.01,2013-04-06 00:35:00,
2013-04-05 20:36:00,52.3,26.2,30.00,SSW,199,0.0,0.0,36,0.00,,---,0.16,VWS V14.01,2013-04-06 00:36:00,
2013-04-05 20:37:00,52.3,26.2,30.00,SSW,200,0.0,0.0,36,0.00,,---,0.16,VWS V14.01,2013-04-06 00:37:00,
2013-04-05 20:38:00,52.2,26.0,30.00,SSW,199,0.0,0.0,36,0.00,,---,0.16,VWS V14.01,2013-04-06 00:38:00,
2013-04-05 20:39:00,52.2,26.0,30.00,SSW,200,0.0,0.0,36,0.00,,---,0.16,VWS V14.01,2013-04-06 00:39:00,
2013-04-05 20:40:00,52.0,25.9,30.00,SSW,199,0.0,0.0,36,0.00,,---,0.16,VWS V14.01,2013-04-06 00:40:00,
2013-04-05 20:41:00,52.0,25.9,30.00,SSW,199,0.0,0.0,36,0.00,,---,0.16,VWS V14.01,2013-04-06 00:41:00,
2013-04-05 20:42:00,51.8,25.7,30.00,SSW,199,0.0,0.0,36,0.00,,---,0.16,VWS V14.01,2013-04-06 00:42:00,
2013-04-05 20:43:00,51.8,25.7,30.00,SSW,199,0.0,0.0,36,0.00,,---,0.16,VWS V14.01,2013-04-06 00:43:00,
2013-04-05 20:44:00,51.8,25.7,30.00,SSW,199,0.0,0.0,36,0.00,,---,0.16,VWS V14.01,2013-04-06 00:44:00,
2013-04-05 20:45:00,51.6,26.2,30.00,SSW,199,0.0,0.0,37,0.00,,---,0.16,VWS V14.01,2013-04-06 00:45:00,
2013-04-05 20:46:00,51.6,26.2,30.00,SSW,199,0.0,0.0,37,0.00,,---,0.16,VWS V14.01,2013-04-06 00:46:00,
2013-04-05 20:47:00,51.6,26.2,30.00,SSW,199,0.0,0.0,37,0.00,,---,0.16,VWS V14.01,2013-04-06 00:47:00,
2013-04-05 20:48:00,51.4,26.1,30.00,SSW,199,0.0,0.0,37,0.00,,---,0.16,VWS V14.01,2013-04-06 00:48:00,
2013-04-05 20:49:00,51.4,26.1,30.00,SSW,199,0.0,0.0,37,0.00,,---,0.16,VWS V14.01,2013-04-06 00:49:00,
2013-04-05 20:50:00,51.4,26.1,30.00,SSW,200,0.0,0.0,37,0.00,,---,0.16,VWS V14.01,2013-04-06 00:50:00,
2013-04-05 20:51:00,51.4,26.1,30.00,SSW,200,0.0,0.0,37,0.00,,---,0.16,VWS V14.01,2013-04-06 00:51:00,
2013-04-05 20:52:00,51.3,25.9,30.00,SSW,199,0.0,0.0,37,0.00,,---,0.16,VWS V14.01,2013-04-06 00:52:00,
2013-04-05 20:53:00,51.3,25.9,30.00,SSW,199,0.0,0.0,37,0.00,,---,0.16,VWS V14.01,2013-04-06 00:53:00,
2013-04-05 20:54:00,51.3,25.9,30.00,SSW,199,0.0,0.0,37,0.00,,---,0.16,VWS V14.01,2013-04-06 00:54:00,
2013-04-05 20:55:00,51.3,25.9,30.00,SSW,200,0.0,0.0,37,0.00,,---,0.16,VWS V14.01,2013-04-06 00:55:00,
2013-04-05 20:56:00,51.3,25.9,30.00,SSW,199,0.0,0.0,37,0.00,,---,0.16,VWS V14.01,2013-04-06 00:56:00,
2013-04-05 20:57:00,51.1,25.7,30.00,SSW,199,0.0,0.0,37,0.00,,---,0.16,VWS V14.01,2013-04-06 00:57:00,
2013-04-05 20:58:00,51.1,25.7,30.03,SSW,200,0.0,0.0,37,0.00,,---,0.16,VWS V14.01,2013-04-06 00:58:00,
2013-04-05 20:59:00,51.1,25.7,30.03,SSW,199,0.0,0.0,37,0.00,,---,0.16,VWS V14.01,2013-04-06 00:59:00,
2013-04-05 21:00:00,51.1,25.7,30.03,SSW,199,0.0,0.0,37,0.00,,---,0.16,VWS V14.01,2013-04-06 01:00:00,
2013-04-05 21:01:00,51.1,25.7,30.03,SSW,199,0.0,0.0,37,0.00,,---,0.16,VWS V14.01,2013-04-06 01:01:00,
2013-04-05 21:02:00,50.9,25.6,30.03,SSW,199,0.0,0.0,37,0.00,,---,0.16,VWS V14.01,2013-04-06 01:02:00,
2013-04-05 21:03:00,50.9,25.6,30.03,SSW,200,0.0,0.0,37,0.00,,---,0.16,VWS V14.01,2013-04-06 01:03:00,
2013-04-05 21:04:00,50.9,25.6,30.03,SSW,199,0.0,0.0,37,0.00,,---,0.16,VWS V14.01,2013-04-06 01:04:00,
2013-04-05 21:05:00,50.7,25.4,30.03,SSW,199,0.0,0.0,37,0.00,,---,0.16,VWS V14.01,2013-04-06 01:05:00,
2013-04-05 21:06:00,50.7,25.4,30.03,SSW,199,0.0,0.0,37,0.00,,---,0.16,VWS V14.01,2013-04-06 01:06:00,
2013-04-05 21:07:00,50.7,25.4,30.03,SSW,199,0.0,0.0,37,0.00,,---,0.16,VWS V14.01,2013-04-06 01:07:00,
2013-04-05 21:08:00,50.5,25.2,30.03,SSW,200,0.0,0.0,37,0.00,,---,0.16,VWS V14.01,2013-04-06 01:08:00,
2013-04-05 21:09:00,50.5,25.2,30.03,SSW,199,0.0,0.0,37,0.00,,---,0.16,VWS V14.01,2013-04-06 01:09:00,
2013-04-05 21:10:00,50.5,25.2,30.03,SSW,200,0.0,0.0,37,0.00,,---,0.16,VWS V14.01,2013-04-06 01:10:00,
2013-04-05 21:11:00,50.4,25.1,30.03,SSW,199,0.0,0.0,37,0.00,,---,0.16,VWS V14.01,2013-04-06 01:11:00,
2013-04-05 21:12:00,50.4,25.1,30.03,SSW,199,0.0,0.0,37,0.00,,---,0.16,VWS V14.01,2013-04-06 01:12:00,
2013-04-05 21:13:00,50.4,25.1,30.03,SSW,200,0.0,0.0,37,0.00,,---,0.16,VWS V14.01,2013-04-06 01:13:00,
2013-04-05 21:14:00,50.2,24.9,30.03,SSW,200,0.0,0.0,37,0.00,,---,0.16,VWS V14.01,2013-04-06 01:14:00,
2013-04-05 21:15:00,50.2,24.9,30.03,SSW,199,0.0,0.0,37,0.00,,---,0.16,VWS V14.01,2013-04-06 01:15:00,
2013-04-05 21:16:00,50.2,24.9,30.03,SSW,200,0.0,0.0,37,0.00,,---,0.16,VWS V14.01,2013-04-06 01:16:00,
2013-04-05 21:17:00,50.0,24.8,30.03,SSW,199,0.0,0.0,37,0.00,,---,0.16,VWS V14.01,2013-04-06 01:17:00,
2013-04-05 21:18:00,50.0,24.8,30.03,SSW,199,0.0,0.0,37,0.00,,---,0.16,VWS V14.01,2013-04-06 01:18:00,
2013-04-05 21:19:00,50.0,24.8,30.03,SSW,199,0.0,0.0,37,0.00,,---,0.16,VWS V14.01,2013-04-06 01:19:00,
2013-04-05 21:20:00,49.8,24.6,30.03,SSW,199,0.0,0.0,37,0.00,,---,0.16,VWS V14.01,2013-04-06 01:20:00,
2013-04-05 21:21:00,49.8,24.6,30.03,SSW,200,0.0,0.0,37,0.00,,---,0.16,VWS V14.01,2013-04-06 01:21:00,
2013-04-05 21:22:00,49.8,24.6,30.03,SSW,199,0.0,0.0,37,0.00,,---,0.16,VWS V14.01,2013-04-06 01:22:00,
2013-04-05 21:23:00,49.8,24.6,30.03,SSW,199,0.0,0.0,37,0.00,,---,0.16,VWS V14.01,2013-04-06 01:23:00,
2013-04-05 21:24:00,49.6,24.5,30.03,SSW,199,0.0,0.0,37,0.00,,---,0.16,VWS V14.01,2013-04-06 01:24:00,
2013-04-05 21:25:00,49.6,24.5,30.03,SSW,200,0.0,0.0,37,0.00,,---,0.16,VWS V14.01,2013-04-06 01:25:00,
2013-04-05 21:26:00,49.6,24.5,30.03,SSW,199,0.0,0.0,37,0.00,,---,0.16,VWS V14.01,2013-04-06 01:26:00,
2013-04-05 21:27:00,49.6,24.5,30.03,SSW,199,0.0,0.0,37,0.00,,---,0.16,VWS V14.01,2013-04-06 01:27:00,
2013-04-05 21:28:00,49.6,24.5,30.03,SSW,199,0.0,0.0,37,0.00,,---,0.16,VWS V14.01,2013-04-06 01:28:00,
2013-04-05 21:29:00,49.5,24.3,30.03,SSW,199,0.0,0.0,37,0.00,,---,0.16,VWS V14.01,2013-04-06 01:29:00,
2013-04-05 21:30:00,49.5,24.3,30.03,SSW,200,0.0,0.0,37,0.00,,---,0.16,VWS V14.01,2013-04-06 01:30:00,
2013-04-05 21:31:00,49.5,24.3,30.03,SSW,199,0.0,0.0,37,0.00,,---,0.16,VWS V14.01,2013-04-06 01:31:00,
2013-04-05 21:32:00,49.5,24.3,30.03,SSW,200,0.0,0.0,37,0.00,,---,0.16,VWS V14.01,2013-04-06 01:32:00,
2013-04-05 21:33:00,49.5,24.3,30.03,SSW,199,0.0,0.0,37,0.00,,---,0.16,VWS V14.01,2013-04-06 01:33:00,
2013-04-05 21:34:00,49.5,24.3,30.03,SSW,199,0.0,0.0,37,0.00,,---,0.16,VWS V14.01,2013-04-06 01:34:00,
2013-04-05 21:35:00,49.5,24.3,30.03,SSW,199,0.0,0.0,37,0.00,,---,0.16,VWS V14.01,2013-04-06 01:35:00,
2013-04-05 21:36:00,49.5,24.3,30.03,SSW,199,0.0,0.0,37,0.00,,---,0.16,VWS V14.01,2013-04-06 01:36:00,
2013-04-05 21:37:00,49.5,24.3,30.03,SSW,199,0.0,0.0,37,0.00,,---,0.16,VWS V14.01,2013-04-06 01:37:00,
2013-04-05 21:38:00,49.5,24.3,30.03,SSW,200,0.0,0.0,37,0.00,,---,0.16,VWS V14.01,2013-04-06 01:38:00,
2013-04-05 21:39:00,49.5,24.3,30.03,SSW,200,0.0,0.0,37,0.00,,---,0.16,VWS V14.01,2013-04-06 01:39:00,
2013-04-05 21:40:00,49.5,24.3,30.03,SSW,199,0.0,0.0,37,0.00,,---,0.16,VWS V14.01,2013-04-06 01:40:00,
2013-04-05 21:41:00,49.5,24.3,30.03,South,175,0.0,0.0,37,0.00,,---,0.16,VWS V14.01,2013-04-06 01:41:00,
2013-04-05 21:42:00,49.3,24.1,30.03,South,175,0.0,0.0,37,0.00,,---,0.16,VWS V14.01,2013-04-06 01:42:00,
2013-04-05 21:43:00,49.3,24.1,30.03,South,175,0.0,0.0,37,0.00,,---,0.16,VWS V14.01,2013-04-06 01:43:00,
2013-04-05 21:44:00,49.3,24.1,30.03,South,175,0.0,0.0,37,0.00,,---,0.16,VWS V14.01,2013-04-06 01:44:00,
2013-04-05 21:45:00,49.3,24.1,30.03,South,175,0.0,0.0,37,0.00,,---,0.16,VWS V14.01,2013-04-06 01:45:00,
2013-04-05 21:46:00,49.3,24.1,30.03,South,175,0.0,0.0,37,0.00,,---,0.16,VWS V14.01,2013-04-06 01:46:00,
2013-04-05 21:47:00,49.3,24.1,30.03,South,175,0.0,0.0,37,0.00,,---,0.16,VWS V14.01,2013-04-06 01:47:00,
2013-04-05 21:48:00,49.1,24.0,30.03,South,175,0.0,0.0,37,0.00,,---,0.16,VWS V14.01,2013-04-06 01:48:00,
2013-04-05 21:49:00,49.1,24.0,30.03,South,175,0.0,0.0,37,0.00,,---,0.16,VWS V14.01,2013-04-06 01:49:00,
2013-04-05 21:50:00,49.1,24.0,30.03,West,262,0.0,0.0,37,0.00,,---,0.16,VWS V14.01,2013-04-06 01:50:00,
2013-04-05 21:51:00,49.1,24.0,30.03,SW,220,2.2,2.2,37,0.00,,---,0.16,VWS V14.01,2013-04-06 01:51:00,
2013-04-05 21:52:00,49.1,24.0,30.03,SW,221,0.0,0.0,37,0.00,,---,0.16,VWS V14.01,2013-04-06 01:52:00,
2013-04-05 21:53:00,49.1,24.0,30.03,SW,220,0.0,0.0,37,0.00,,---,0.16,VWS V14.01,2013-04-06 01:53:00,
2013-04-05 21:54:00,49.1,24.0,30.03,SSW,203,0.0,0.0,37,0.00,,---,0.16,VWS V14.01,2013-04-06 01:54:00,
2013-04-05 21:55:00,49.1,24.0,30.03,SSW,200,0.0,0.0,37,0.00,,---,0.16,VWS V14.01,2013-04-06 01:55:00,
2013-04-05 21:56:00,49.1,24.0,30.03,SSW,200,0.0,0.0,37,0.00,,---,0.16,VWS V14.01,2013-04-06 01:56:00,
2013-04-05 21:57:00,49.1,24.0,30.03,SSW,200,0.0,0.0,37,0.00,,---,0.16,VWS V14.01,2013-04-06 01:57:00,
2013-04-05 21:58:00,49.1,24.0,30.06,SSW,200,0.0,0.0,37,0.00,,---,0.16,VWS V14.01,2013-04-06 01:58:00,
2013-04-05 21:59:00,49.1,24.0,30.06,SSW,200,0.0,0.0,37,0.00,,---,0.16,VWS V14.01,2013-04-06 01:59:00,
2013-04-05 22:00:00,49.1,24.0,30.06,SSW,199,0.0,0.0,37,0.00,,---,0.16,VWS V14.01,2013-04-06 02:00:00,
2013-04-05 22:01:00,49.1,24.0,30.06,SSW,200,0.0,0.0,37,0.00,,---,0.16,VWS V14.01,2013-04-06 02:01:00,
2013-04-05 22:02:00,49.1,24.0,30.06,SSW,199,0.0,0.0,37,0.00,,---,0.16,VWS V14.01,2013-04-06 02:02:00,
2013-04-05 22:03:00,49.1,24.0,30.06,SSW,200,0.0,0.0,37,0.00,,---,0.16,VWS V14.01,2013-04-06 02:03:00,
2013-04-05 22:04:00,49.3,24.1,30.06,SSE,168,0.0,0.0,37,0.00,,---,0.16,VWS V14.01,2013-04-06 02:04:00,
2013-04-05 22:05:00,49.3,24.1,30.06,SSE,168,0.0,0.0,37,0.00,,---,0.16,VWS V14.01,2013-04-06 02:05:00,
2013-04-05 22:06:00,49.3,24.1,30.06,SSE,168,0.0,0.0,37,0.00,,---,0.16,VWS V14.01,2013-04-06 02:06:00,
2013-04-05 22:07:00,49.1,24.0,30.06,SSE,168,0.0,0.0,37,0.00,,---,0.16,VWS V14.01,2013-04-06 02:07:00,
2013-04-05 22:08:00,49.1,24.0,30.06,SSE,168,0.0,0.0,37,0.00,,---,0.16,VWS V14.01,2013-04-06 02:08:00,
2013-04-05 22:09:00,49.1,24.0,30.06,SSE,168,0.0,0.0,37,0.00,,---,0.16,VWS V14.01,2013-04-06 02:09:00,
2013-04-05 22:10:00,49.1,24.0,30.06,SSE,168,0.0,0.0,37,0.00,,---,0.16,VWS V14.01,2013-04-06 02:10:00,
2013-04-05 22:11:00,49.1,24.0,30.06,SSE,168,0.0,0.0,37,0.00,,---,0.16,VWS V14.01,2013-04-06 02:11:00,
2013-04-05 22:12:00,49.1,24.0,30.06,SSE,168,0.0,0.0,37,0.00,,---,0.16,VWS V14.01,2013-04-06 02:12:00,
2013-04-05 22:13:00,48.9,23.8,30.06,SSE,168,0.0,0.0,37,0.00,,---,0.16,VWS V14.01,2013-04-06 02:13:00,
2013-04-05 22:14:00,48.9,23.8,30.06,SSE,168,0.0,0.0,37,0.00,,---,0.16,VWS V14.01,2013-04-06 02:14:00,
2013-04-05 22:15:00,48.9,23.8,30.06,SSE,168,0.0,0.0,37,0.00,,---,0.16,VWS V14.01,2013-04-06 02:15:00,
2013-04-05 22:16:00,48.9,23.8,30.06,SSE,168,0.0,0.0,37,0.00,,---,0.16,VWS V14.01,2013-04-06 02:16:00,
2013-04-05 22:17:00,48.9,23.8,30.06,SSE,168,0.0,0.0,37,0.00,,---,0.16,VWS V14.01,2013-04-06 02:17:00,
2013-04-05 22:18:00,48.9,23.8,30.06,SSE,168,0.0,0.0,37,0.00,,---,0.16,VWS V14.01,2013-04-06 02:18:00,
2013-04-05 22:19:00,48.9,23.8,30.06,SSE,168,0.0,0.0,37,0.00,,---,0.16,VWS V14.01,2013-04-06 02:19:00,
2013-04-05 22:20:00,48.7,23.6,30.06,SSE,168,0.0,0.0,37,0.00,,---,0.16,VWS V14.01,2013-04-06 02:20:00,
2013-04-05 22:21:00,48.7,23.6,30.06,SSE,168,0.0,0.0,37,0.00,,---,0.16,VWS V14.01,2013-04-06 02:21:00,
2013-04-05 22:22:00,48.7,23.6,30.06,SSE,168,0.0,0.0,37,0.00,,---,0.16,VWS V14.01,2013-04-06 02:22:00,
2013-04-05 22:23:00,48.7,23.6,30.06,SSE,168,0.0,0.0,37,0.00,,---,0.16,VWS V14.01,2013-04-06 02:23:00,
2013-04-05 22:24:00,48.7,23.6,30.06,SSE,168,0.0,0.0,37,0.00,,---,0.16,VWS V14.01,2013-04-06 02:24:00,
2013-04-05 22:25:00,48.7,23.6,30.06,SSE,168,0.0,0.0,37,0.00,,---,0.16,VWS V14.01,2013-04-06 02:25:00,
2013-04-05 22:26:00,48.7,23.6,30.06,SSE,168,0.0,0.0,37,0.00,,---,0.16,VWS V14.01,2013-04-06 02:26:00,
2013-04-05 22:27:00,48.7,23.6,30.06,SSE,168,0.0,0.0,37,0.00,,---,0.16,VWS V14.01,2013-04-06 02:27:00,
2013-04-05 22:28:00,48.6,23.5,30.06,SSE,168,0.0,0.0,37,0.00,,---,0.16,VWS V14.01,2013-04-06 02:28:00,
2013-04-05 22:29:00,48.6,23.5,30.06,SSE,168,0.0,0.0,37,0.00,,---,0.16,VWS V14.01,2013-04-06 02:29:00,
2013-04-05 22:30:00,48.6,23.5,30.06,SSE,168,0.0,0.0,37,0.00,,---,0.16,VWS V14.01,2013-04-06 02:30:00,
2013-04-05 22:31:00,48.6,23.5,30.06,SSE,168,0.0,0.0,37,0.00,,---,0.16,VWS V14.01,2013-04-06 02:31:00,
2013-04-05 22:32:00,48.4,23.3,30.06,SSE,168,0.0,0.0,37,0.00,,---,0.16,VWS V14.01,2013-04-06 02:32:00,
2013-04-05 22:33:00,48.4,23.3,30.06,South,169,0.0,0.0,37,0.00,,---,0.16,VWS V14.01,2013-04-06 02:33:00,
2013-04-05 22:34:00,48.4,23.3,30.06,SSE,168,0.0,0.0,37,0.00,,---,0.16,VWS V14.01,2013-04-06 02:34:00,
2013-04-05 22:35:00,48.2,23.2,30.06,SSE,168,0.0,0.0,37,0.00,,---,0.16,VWS V14.01,2013-04-06 02:35:00,
2013-04-05 22:36:00,48.2,23.2,30.06,SSE,168,0.0,0.0,37,0.00,,---,0.16,VWS V14.01,2013-04-06 02:36:00,
2013-04-05 22:37:00,48.2,23.2,30.06,SSE,168,0.0,0.0,37,0.00,,---,0.16,VWS V14.01,2013-04-06 02:37:00,
2013-04-05 22:38:00,48.2,23.2,30.06,South,170,0.0,0.0,37,0.00,,---,0.16,VWS V14.01,2013-04-06 02:38:00,
2013-04-05 22:39:00,48.2,23.2,30.06,South,169,0.0,0.0,37,0.00,,---,0.16,VWS V14.01,2013-04-06 02:39:00,
2013-04-05 22:40:00,48.0,23.6,30.06,SSW,213,0.0,0.0,38,0.00,,---,0.16,VWS V14.01,2013-04-06 02:40:00,
2013-04-05 22:41:00,48.0,23.6,30.06,SSW,206,0.0,0.0,38,0.00,,---,0.16,VWS V14.01,2013-04-06 02:41:00,
2013-04-05 22:42:00,48.0,23.6,30.06,SSW,206,0.0,0.0,38,0.00,,---,0.16,VWS V14.01,2013-04-06 02:42:00,
2013-04-05 22:43:00,48.0,23.6,30.06,SSW,201,0.0,0.0,38,0.00,,---,0.16,VWS V14.01,2013-04-06 02:43:00,
2013-04-05 22:44:00,47.8,23.5,30.06,SSW,201,0.0,0.0,38,0.00,,---,0.16,VWS V14.01,2013-04-06 02:44:00,
2013-04-05 22:45:00,47.8,23.5,30.06,SSW,201,0.0,0.0,38,0.00,,---,0.16,VWS V14.01,2013-04-06 02:45:00,
2013-04-05 22:46:00,47.8,23.5,30.06,SSW,201,0.0,0.0,38,0.00,,---,0.16,VWS V14.01,2013-04-06 02:46:00,
2013-04-05 22:47:00,47.8,23.5,30.06,SSW,195,0.0,0.0,38,0.00,,---,0.16,VWS V14.01,2013-04-06 02:47:00,
2013-04-05 22:48:00,47.8,23.5,30.06,South,174,0.0,0.0,38,0.00,,---,0.16,VWS V14.01,2013-04-06 02:48:00,
2013-04-05 22:49:00,47.8,23.5,30.06,South,174,0.0,0.0,38,0.00,,---,0.16,VWS V14.01,2013-04-06 02:49:00,
2013-04-05 22:50:00,47.8,23.5,30.06,South,174,0.0,0.0,38,0.00,,---,0.16,VWS V14.01,2013-04-06 02:50:00,
2013-04-05 22:51:00,47.8,23.5,30.06,South,172,0.0,0.0,38,0.00,,---,0.16,VWS V14.01,2013-04-06 02:51:00,
2013-04-05 22:52:00,47.7,23.3,30.06,SSW,193,2.2,2.2,38,0.00,,---,0.16,VWS V14.01,2013-04-06 02:52:00,
2013-04-05 22:53:00,47.7,23.3,30.06,SSW,197,3.1,3.1,38,0.00,,---,0.16,VWS V14.01,2013-04-06 02:53:00,
2013-04-05 22:54:00,47.7,23.3,30.06,SSW,202,2.2,2.2,38,0.00,,---,0.16,VWS V14.01,2013-04-06 02:54:00,
2013-04-05 22:55:00,47.7,23.3,30.06,SSE,167,2.2,2.2,38,0.00,,---,0.16,VWS V14.01,2013-04-06 02:55:00,
2013-04-05 22:56:00,47.7,23.3,30.06,SSE,168,2.2,2.2,38,0.00,,---,0.16,VWS V14.01,2013-04-06 02:56:00,
2013-04-05 22:57:00,47.7,23.3,30.06,SSW,213,0.0,0.0,38,0.00,,---,0.16,VWS V14.01,2013-04-06 02:57:00,
2013-04-05 22:58:00,47.7,23.3,30.06,South,181,0.0,0.0,38,0.00,,---,0.16,VWS V14.01,2013-04-06 02:58:00,
2013-04-05 22:59:00,47.7,23.3,30.06,South,181,0.0,0.0,38,0.00,,---,0.16,VWS V14.01,2013-04-06 02:59:00,
2013-04-05 23:00:00,47.7,23.3,30.06,SW,221,0.0,0.0,38,0.00,,---,0.16,VWS V14.01,2013-04-06 03:00:00,
2013-04-05 23:01:00,47.7,23.3,30.06,SSW,211,0.0,0.0,38,0.00,,---,0.16,VWS V14.01,2013-04-06 03:01:00,
2013-04-05 23:02:00,47.7,23.3,30.06,SSW,211,0.0,0.0,38,0.00,,---,0.16,VWS V14.01,2013-04-06 03:02:00,
2013-04-05 23:03:00,47.7,23.3,30.06,SSW,211,0.0,0.0,38,0.00,,---,0.16,VWS V14.01,2013-04-06 03:03:00,
2013-04-05 23:04:00,47.7,23.3,30.06,SSW,211,0.0,0.0,38,0.00,,---,0.16,VWS V14.01,2013-04-06 03:04:00,
2013-04-05 23:05:00,47.7,23.3,30.06,SSW,211,0.0,0.0,38,0.00,,---,0.16,VWS V14.01,2013-04-06 03:05:00,
2013-04-05 23:06:00,47.7,23.3,30.06,SSW,211,0.0,0.0,38,0.00,,---,0.16,VWS V14.01,2013-04-06 03:06:00,
2013-04-05 23:07:00,47.7,23.3,30.06,SSW,211,0.0,0.0,38,0.00,,---,0.16,VWS V14.01,2013-04-06 03:07:00,
2013-04-05 23:08:00,47.5,23.2,30.06,SSW,211,0.0,0.0,38,0.00,,---,0.16,VWS V14.01,2013-04-06 03:08:00,
2013-04-05 23:09:00,47.5,23.2,30.06,SSW,211,0.0,0.0,38,0.00,,---,0.16,VWS V14.01,2013-04-06 03:09:00,
2013-04-05 23:10:00,47.5,23.2,30.06,SSW,211,0.0,0.0,38,0.00,,---,0.16,VWS V14.01,2013-04-06 03:10:00,
2013-04-05 23:11:00,47.5,23.2,30.06,SSW,210,0.0,0.0,38,0.00,,---,0.16,VWS V14.01,2013-04-06 03:11:00,
2013-04-05 23:12:00,47.5,23.2,30.06,SSW,211,0.0,0.0,38,0.00,,---,0.16,VWS V14.01,2013-04-06 03:12:00,
2013-04-05 23:13:00,47.5,23.2,30.06,SSW,210,0.0,0.0,38,0.00,,---,0.16,VWS V14.01,2013-04-06 03:13:00,
2013-04-05 23:14:00,47.5,23.2,30.06,SSW,211,0.0,0.0,38,0.00,,---,0.16,VWS V14.01,2013-04-06 03:14:00,
2013-04-05 23:15:00,47.5,23.2,30.06,West,261,0.0,0.0,38,0.00,,---,0.16,VWS V14.01,2013-04-06 03:15:00,
2013-04-05 23:16:00,47.5,23.2,30.06,West,261,0.0,0.0,38,0.00,,---,0.16,VWS V14.01,2013-04-06 03:16:00,
2013-04-05 23:17:00,47.5,23.2,30.06,West,260,0.0,0.0,38,0.00,,---,0.16,VWS V14.01,2013-04-06 03:17:00,
2013-04-05 23:18:00,47.5,23.2,30.06,West,261,0.0,0.0,38,0.00,,---,0.16,VWS V14.01,2013-04-06 03:18:00,
2013-04-05 23:19:00,47.3,23.0,30.06,West,261,0.0,0.0,38,0.00,,---,0.16,VWS V14.01,2013-04-06 03:19:00,
2013-04-05 23:20:00,47.3,23.0,30.06,SW,235,0.0,0.0,38,0.00,,---,0.16,VWS V14.01,2013-04-06 03:20:00,
2013-04-05 23:21:00,47.3,23.0,30.06,SW,235,0.0,0.0,38,0.00,,---,0.16,VWS V14.01,2013-04-06 03:21:00,
2013-04-05 23:22:00,47.3,23.0,30.06,SW,235,0.0,0.0,38,0.00,,---,0.16,VWS V14.01,2013-04-06 03:22:00,
2013-04-05 23:23:00,47.3,23.0,30.06,SW,235,0.0,0.0,38,0.00,,---,0.16,VWS V14.01,2013-04-06 03:23:00,
2013-04-05 23:24:00,47.3,23.0,30.06,SW,235,0.0,0.0,38,0.00,,---,0.16,VWS V14.01,2013-04-06 03:24:00,
2013-04-05 23:25:00,47.3,23.0,30.06,SW,235,0.0,0.0,38,0.00,,---,0.16,VWS V14.01,2013-04-06 03:25:00,
2013-04-05 23:26:00,47.3,23.0,30.06,SW,235,0.0,0.0,38,0.00,,---,0.16,VWS V14.01,2013-04-06 03:26:00,
2013-04-05 23:27:00,47.3,23.0,30.06,SW,235,0.0,0.0,38,0.00,,---,0.16,VWS V14.01,2013-04-06 03:27:00,
2013-04-05 23:28:00,47.3,23.0,30.06,SW,235,0.0,0.0,38,0.00,,---,0.16,VWS V14.01,2013-04-06 03:28:00,
2013-04-05 23:29:00,47.3,23.0,30.06,SW,235,0.0,0.0,38,0.00,,---,0.16,VWS V14.01,2013-04-06 03:29:00,
2013-04-05 23:30:00,47.3,23.0,30.06,SW,235,0.0,0.0,38,0.00,,---,0.16,VWS V14.01,2013-04-06 03:30:00,
2013-04-05 23:31:00,47.3,23.0,30.06,SW,233,0.0,0.0,38,0.00,,---,0.16,VWS V14.01,2013-04-06 03:31:00,
2013-04-05 23:32:00,47.3,23.0,30.06,SW,222,0.0,0.0,38,0.00,,---,0.16,VWS V14.01,2013-04-06 03:32:00,
2013-04-05 23:33:00,47.3,23.0,30.06,SSE,168,0.0,0.0,38,0.00,,---,0.16,VWS V14.01,2013-04-06 03:33:00,
2013-04-05 23:34:00,47.3,23.0,30.06,SSE,152,0.0,0.0,38,0.00,,---,0.16,VWS V14.01,2013-04-06 03:34:00,
2013-04-05 23:35:00,47.3,23.0,30.06,SE,130,0.0,0.0,38,0.00,,---,0.16,VWS V14.01,2013-04-06 03:35:00,
2013-04-05 23:36:00,47.3,23.0,32.22,SE,130,0.0,0.0,38,0.00,,---,0.16,VWS V14.01,2013-04-06 03:36:00,
2013-04-05 23:37:00,47.3,23.0,30.06,SE,130,0.0,0.0,38,0.00,,---,0.16,VWS V14.01,2013-04-06 03:37:00,
2013-04-05 23:38:00,47.3,23.0,30.06,SE,130,0.0,0.0,38,0.00,,---,0.16,VWS V14.01,2013-04-06 03:38:00,
2013-04-05 23:39:00,47.3,23.0,30.06,SE,130,0.0,0.0,38,0.00,,---,0.16,VWS V14.01,2013-04-06 03:39:00,
2013-04-05 23:40:00,47.3,23.0,30.06,SE,130,0.0,0.0,38,0.00,,---,0.16,VWS V14.01,2013-04-06 03:40:00,
2013-04-05 23:41:00,47.3,23.0,30.06,SE,130,0.0,0.0,38,0.00,,---,0.16,VWS V14.01,2013-04-06 03:41:00,
2013-04-05 23:42:00,47.3,23.0,30.06,SE,130,0.0,0.0,38,0.00,,---,0.16,VWS V14.01,2013-04-06 03:42:00,
2013-04-05 23:43:00,47.3,23.0,30.06,SE,130,0.0,0.0,38,0.00,,---,0.16,VWS V14.01,2013-04-06 03:43:00,
2013-04-05 23:44:00,47.3,23.0,30.06,SE,130,0.0,0.0,38,0.00,,---,0.16,VWS V14.01,2013-04-06 03:44:00,
2013-04-05 23:45:00,47.3,23.0,30.06,SE,130,0.0,0.0,38,0.00,,---,0.16,VWS V14.01,2013-04-06 03:45:00,
2013-04-05 23:46:00,47.3,23.0,30.06,SE,130,0.0,0.0,38,0.00,,---,0.16,VWS V14.01,2013-04-06 03:46:00,
2013-04-05 23:47:00,47.3,23.0,30.06,SE,130,0.0,0.0,38,0.00,,---,0.16,VWS V14.01,2013-04-06 03:47:00,
2013-04-05 23:48:00,47.3,23.0,30.06,SE,130,0.0,0.0,38,0.00,,---,0.16,VWS V14.01,2013-04-06 03:48:00,
2013-04-05 23:49:00,47.3,23.0,30.06,SE,130,0.0,0.0,38,0.00,,---,0.16,VWS V14.01,2013-04-06 03:49:00,
2013-04-05 23:50:00,47.1,22.8,30.06,SE,130,0.0,0.0,38,0.00,,---,0.16,VWS V14.01,2013-04-06 03:50:00,
2013-04-05 23:51:00,47.1,22.8,30.06,SE,130,0.0,0.0,38,0.00,,---,0.16,VWS V14.01,2013-04-06 03:51:00,
2013-04-05 23:52:00,47.1,22.8,30.06,SE,130,0.0,0.0,38,0.00,,---,0.16,VWS V14.01,2013-04-06 03:52:00,
2013-04-05 23:53:00,47.1,22.8,30.06,SE,130,0.0,0.0,38,0.00,,---,0.16,VWS V14.01,2013-04-06 03:53:00,
2013-04-05 23:54:00,47.1,22.8,30.06,SE,130,0.0,0.0,38,0.00,,---,0.16,VWS V14.01,2013-04-06 03:54:00,
2013-04-05 23:55:00,46.9,22.7,30.06,SE,130,0.0,0.0,38,0.00,,---,0.16,VWS V14.01,2013-04-06 03:55:00,
2013-04-05 23:56:00,46.9,22.7,30.06,SE,130,0.0,0.0,38,0.00,,---,0.16,VWS V14.01,2013-04-06 03:56:00,
2013-04-05 23:57:00,46.9,22.7,30.06,SE,130,0.0,0.0,38,0.00,,---,0.16,VWS V14.01,2013-04-06 03:57:00,
2013-04-05 23:58:00,46.9,22.7,30.06,SE,130,0.0,0.0,38,0.00,,---,0.16,VWS V14.01,2013-04-06 03:58:00,
2013-04-05 23:59:00,46.9,22.7,30.06,SE,130,0.0,0.0,38,0.00,,---,0.16,VWS V14.01,2013-04-06 03:59:00,